Provisional Data: Hammer Creek near Route 322


Please select a monitoring station.
Please select start date.
Please select start date.

Toggle Unit: C/F Toggle Unit: C/F
Sample Time Temperature (C) Temperature (F) Specific Conductivity (mS/cm) pH   Turbidity (NTU+) DO (mg/L)
10/17/2022 12:00:00 AM 13.11 55.598 0.506 8.01 8.38 9.38
10/17/2022 12:15:00 AM 13.07 55.526 0.506 8 8.37 9.39
10/17/2022 12:30:00 AM 13.03 55.454 0.507 8 8.26 9.4
10/17/2022 12:45:00 AM 12.98 55.364 0.507 8 8.78 9.41
10/17/2022 1:00:00 AM 12.92 55.256 0.508 7.99 8.64 9.43
10/17/2022 1:15:00 AM 12.86 55.148 0.508 7.98 8.17 9.45
10/17/2022 1:30:00 AM 12.8 55.04 0.509 7.98 8.33 9.47
10/17/2022 1:45:00 AM 12.73 54.914 0.509 7.98 8.31 9.5
10/17/2022 2:00:00 AM 12.66 54.788 0.509 7.97 8.18 9.51
10/17/2022 2:15:00 AM 12.6 54.68 0.51 7.98 8.39 9.54
10/17/2022 2:30:00 AM 12.52 54.536 0.51 7.98 8.45 9.56
10/17/2022 2:45:00 AM 12.45 54.41 0.51 7.97 8.53 9.58
10/17/2022 3:00:00 AM 12.37 54.266 0.51 7.97 8.42 9.61
10/17/2022 3:15:00 AM 12.3 54.14 0.51 7.97 8.46 9.63
10/17/2022 3:30:00 AM 12.22 53.996 0.51 7.96 8.53 9.64
10/17/2022 3:45:00 AM 12.14 53.852 0.511 7.96 8.47 9.67
10/17/2022 4:00:00 AM 12.06 53.708 0.51 7.96 8.62 9.69
10/17/2022 4:15:00 AM 11.98 53.564 0.51 7.96 8.63 9.72
10/17/2022 4:30:00 AM 11.9 53.42 0.51 7.97 8.19 9.74
10/17/2022 4:45:00 AM 11.83 53.294 0.51 7.96 8.16 9.77
10/17/2022 5:00:00 AM 11.77 53.186 0.51 7.96 8.01 9.78
10/17/2022 5:15:00 AM 11.72 53.096 0.511 7.96 8.12 9.81
10/17/2022 5:30:00 AM 11.66 52.988 0.51 7.96 8 9.83
10/17/2022 5:45:00 AM 11.6 52.88 0.51 7.96 8.19 9.84
10/17/2022 6:00:00 AM 11.57 52.826 0.51 7.96 8.11 9.85
10/17/2022 6:15:00 AM 11.53 52.754 0.51 7.97 7.51 9.86
10/17/2022 6:30:00 AM 11.5 52.7 0.51 7.96 8.21 9.88
10/17/2022 6:45:00 AM 11.46 52.628 0.51 7.96 8.38 9.9
10/17/2022 7:00:00 AM 11.42 52.556 0.51 7.96 8.32 9.91
10/17/2022 7:15:00 AM 11.38 52.484 0.51 7.96 8.15 9.92
10/17/2022 7:30:00 AM 11.35 52.43 0.511 7.96 8.2 9.93
10/17/2022 7:45:00 AM 11.33 52.394 0.51 7.96 8.04 9.95
10/17/2022 8:00:00 AM 11.3 52.34 0.51 7.96 7.9 9.98
10/17/2022 8:15:00 AM 11.3 52.34 0.51 7.97 7.71 10.04
10/17/2022 8:30:00 AM 11.31 52.358 0.511 7.97 7.62 10.13
10/17/2022 8:45:00 AM 11.33 52.394 0.51 7.99 7.77 10.26
10/17/2022 9:00:00 AM 11.37 52.466 0.51 8 7.64 10.38
10/17/2022 9:15:00 AM 11.4 52.52 0.51 8.01 7.05 10.42
10/17/2022 9:30:00 AM 11.45 52.61 0.51 8.02 7.39 10.51
10/17/2022 9:45:00 AM 11.52 52.736 0.51 8.03 7.27 10.65
10/17/2022 10:00:00 AM 11.58 52.844 0.509 8.05 7.32 10.76
10/17/2022 10:15:00 AM 11.65 52.97 0.509 8.06 7.28 10.88
10/17/2022 10:30:00 AM 11.74 53.132 0.509 8.08 7.26 11.02
10/17/2022 10:45:00 AM 11.83 53.294 0.509 8.1 7.42 11.15
10/17/2022 11:00:00 AM 11.96 53.528 0.508 8.13 7.29 11.32
10/17/2022 11:15:00 AM 12.07 53.726 0.508 8.16 7.11 11.43
10/17/2022 11:30:00 AM 12.13 53.834 0.508 8.16 7.15 11.48
10/17/2022 11:45:00 AM 12.28 54.104 0.507 8.04 7.33 11.61
10/17/2022 12:00:00 PM 12.41 54.338 0.507 8.2 7.15 11.67
10/17/2022 12:15:00 PM 12.48 54.464 0.507 8.21 7.17 11.7
10/17/2022 12:30:00 PM 12.56 54.608 0.506 8.23 7.14 11.71
10/17/2022 12:45:00 PM 12.63 54.734 0.506 8.24 7.08 11.71
10/17/2022 1:00:00 PM 12.67 54.806 0.506 8.24 7.08 11.62
10/17/2022 1:15:00 PM 12.65 54.77 0.505 8.23 7.2 11.34
10/17/2022 1:30:00 PM 12.77 54.986 0.504 8.25 7.05 11.53
10/17/2022 1:45:00 PM 12.8 55.04 0.504 8.24 7.09 11.47
10/17/2022 2:00:00 PM 12.91 55.238 0.504 8.27 7.16 11.59
10/17/2022 2:15:00 PM 12.98 55.364 0.503 8.28 7.25 11.61
10/17/2022 2:30:00 PM 13.05 55.49 0.502 8.29 7.1 11.6
10/17/2022 2:45:00 PM 13.1 55.58 0.503 8.3 7.18 11.57
10/17/2022 3:00:00 PM 13.17 55.706 0.502 8.3 7.41 11.54
10/17/2022 3:15:00 PM 13.23 55.814 0.502 8.3 7.37 11.49
10/17/2022 3:30:00 PM 13.3 55.94 0.501 8.31 7.44 11.45
10/17/2022 3:45:00 PM 13.36 56.048 0.502 8.31 7.38 11.41
10/17/2022 4:00:00 PM 13.41 56.138 0.501 8.31 7.3 11.3
10/17/2022 4:15:00 PM 13.44 56.192 0.501 8.3 7.48 11.2
10/17/2022 4:30:00 PM 13.47 56.246 0.501 8.3 7.72 11.04
10/17/2022 4:45:00 PM 13.5 56.3 0.501 8.3 8.87 10.99
10/17/2022 5:00:00 PM 13.52 56.336 0.501 8.29 7.22 10.87
10/17/2022 5:15:00 PM 13.54 56.372 0.501 8.28 7.37 10.78
10/17/2022 5:30:00 PM 13.55 56.39 0.501 8.28 7.17 10.6
10/17/2022 5:45:00 PM 13.55 56.39 0.501 8.26 7.27 10.42
10/17/2022 6:00:00 PM 13.56 56.408 0.501 8.24 7.63 10.26
10/17/2022 6:15:00 PM 13.57 56.426 0.501 8.23 7.63 10.12
10/17/2022 6:30:00 PM 13.58 56.444 0.501 8.21 14.04 10
10/17/2022 6:45:00 PM 13.58 56.444 0.5 8.2 7.87 9.89
10/17/2022 7:00:00 PM 13.57 56.426 0.501 8.18 7.37 9.79
10/17/2022 7:15:00 PM 13.56 56.408 0.5 8.17 7.45 9.7
10/17/2022 7:30:00 PM 13.55 56.39 0.501 8.16 7.51 9.63
10/17/2022 7:45:00 PM 13.53 56.354 0.501 8.15 7.57 9.57
10/17/2022 8:00:00 PM 13.5 56.3 0.501 8.13 7.57 9.52
10/17/2022 8:15:00 PM 13.47 56.246 0.501 8.12 7.73 9.48
10/17/2022 8:30:00 PM 13.43 56.174 0.502 8.11 7.75 9.44
10/17/2022 8:45:00 PM 13.38 56.084 0.502 8.1 7.7 9.42
10/17/2022 9:00:00 PM 13.34 56.012 0.502 8.08 7.81 9.39
10/17/2022 9:15:00 PM 13.3 55.94 0.502 8.07 7.83 9.37
10/17/2022 9:30:00 PM 13.25 55.85 0.502 8.06 7.9 9.35
10/17/2022 9:45:00 PM 13.21 55.778 0.503 8.05 7.79 9.34
10/17/2022 10:00:00 PM 13.16 55.688 0.503 8.05 7.69 9.33
10/17/2022 10:15:00 PM 13.11 55.598 0.503 8.04 7.73 9.34
10/17/2022 10:30:00 PM 13.04 55.472 0.503 8.03 9.51 9.34
10/17/2022 10:45:00 PM 12.97 55.346 0.504 8.02 7.99 9.35
10/17/2022 11:00:00 PM 12.89 55.202 0.504 8.02 8.27 9.36
10/17/2022 11:15:00 PM 12.82 55.076 0.504 8.01 7.97 9.37
10/17/2022 11:30:00 PM 12.73 54.914 0.504 8.01 7.93 9.39
10/17/2022 11:45:00 PM 12.64 54.752 0.505 8 7.99 9.39
10/18/2022 12:00:00 AM 12.54 54.572 0.505 8 7.98 9.43
10/18/2022 12:15:00 AM 12.46 54.428 0.505 8 7.89 9.46
10/18/2022 12:30:00 AM 12.37 54.266 0.506 7.99 8 9.48
10/18/2022 12:45:00 AM 12.29 54.122 0.506 7.99 8.04 9.5
10/18/2022 1:00:00 AM 12.22 53.996 0.506 7.99 7.81 9.49
10/18/2022 1:15:00 AM 12.15 53.87 0.507 7.98 7.96 9.54
10/18/2022 1:30:00 AM 12.07 53.726 0.507 7.98 8.05 9.54
10/18/2022 1:45:00 AM 12.01 53.618 0.508 7.97 8.27 9.58
10/18/2022 2:00:00 AM 11.92 53.456 0.508 7.97 8.07 9.6
10/18/2022 2:15:00 AM 11.84 53.312 0.509 7.97 8.27 9.63
10/18/2022 2:30:00 AM 11.75 53.15 0.509 7.97 8.23 9.65
10/18/2022 2:45:00 AM 11.66 52.988 0.51 7.96 8.44 9.68
10/18/2022 3:00:00 AM 11.58 52.844 0.51 7.96 8.14 9.71
10/18/2022 3:15:00 AM 11.49 52.682 0.51 7.96 8.94 9.74
10/18/2022 3:30:00 AM 11.41 52.538 0.51 7.97 8.52 9.77
10/18/2022 3:45:00 AM 11.32 52.376 0.51 7.96 8.08 9.8
10/18/2022 4:00:00 AM 11.21 52.178 0.51 7.96 7.92 9.83
10/18/2022 4:15:00 AM 11.11 51.998 0.51 7.96 8.35 9.86
10/18/2022 4:30:00 AM 11 51.8 0.511 7.96 8.39 9.89
10/18/2022 4:45:00 AM 10.89 51.602 0.511 7.96 8.06 9.88
10/18/2022 5:00:00 AM 10.78 51.404 0.51 7.97 8.09 9.96
10/18/2022 5:15:00 AM 10.68 51.224 0.51 7.96 7.83 9.99
10/18/2022 5:30:00 AM 10.57 51.026 0.51 7.96 9.9 10
10/18/2022 5:45:00 AM 10.47 50.846 0.511 7.96 8.01 10.04
10/18/2022 6:00:00 AM 10.36 50.648 0.51 7.97 8.18 10.08
10/18/2022 6:15:00 AM 10.26 50.468 0.511 7.96 8.05 10.1
10/18/2022 6:30:00 AM 10.16 50.288 0.511 7.97 7.81 10.14
10/18/2022 6:45:00 AM 10.06 50.108 0.511 7.96 7.68 10.17
10/18/2022 7:00:00 AM 9.95 49.91 0.511 7.97 7.95 10.19
10/18/2022 7:15:00 AM 9.86 49.748 0.511 7.97 7.56 10.22
10/18/2022 7:30:00 AM 9.76 49.568 0.511 7.97 7.87 10.26
10/18/2022 7:45:00 AM 9.66 49.388 0.511 7.97 7.77 10.31
10/18/2022 8:00:00 AM 9.58 49.244 0.511 7.98 7.6 10.36
10/18/2022 8:15:00 AM 9.49 49.082 0.511 7.98 7.53 10.43
10/18/2022 8:30:00 AM 9.42 48.956 0.511 7.97 7.55 10.48
10/18/2022 8:45:00 AM 9.37 48.866 0.511 7.98 7.68 10.55
10/18/2022 9:00:00 AM 9.32 48.776 0.511 7.9 7.42 10.61
10/18/2022 9:15:00 AM 9.29 48.722 0.511 7.98 7.29 10.69
10/18/2022 9:30:00 AM 9.28 48.704 0.511 7.97 7.28 10.77
10/18/2022 9:45:00 AM 9.27 48.686 0.512 7.99 7.34 10.84
10/18/2022 10:00:00 AM 9.3 48.74 0.511 8 7.21 10.92
10/18/2022 10:15:00 AM 9.31 48.758 0.511 8.01 7.24 11
10/18/2022 10:30:00 AM 9.37 48.866 0.511 8.03 7.16 11.1
10/18/2022 10:45:00 AM 9.42 48.956 0.511 8.04 7.27 11.2
10/18/2022 11:00:00 AM 9.48 49.064 0.511 8.06 7.27 11.28
10/18/2022 11:15:00 AM 9.56 49.208 0.511 8.07 7.15 11.38
10/18/2022 11:30:00 AM 9.67 49.406 0.511 8.09 7.35 11.49
10/18/2022 11:45:00 AM 9.79 49.622 0.511 8.11 7.39 11.51
10/18/2022 12:00:00 PM 9.89 49.802 0.51 8.12 7.06 11.68
10/18/2022 12:15:00 PM 9.97 49.946 0.51 8.14 7.11 11.67
10/18/2022 12:30:00 PM 10.13 50.234 0.51 8.16 7.1 11.78
10/18/2022 12:45:00 PM 10.16 50.288 0.51 8.17 7.16 11.89
10/18/2022 1:00:00 PM 10.13 50.234 0.509 8.18 7.1 11.84
10/18/2022 1:15:00 PM 10.12 50.216 0.509 8.19 7.12 11.86
10/18/2022 1:30:00 PM 10.26 50.468 0.509 8.2 7.22 11.94
10/18/2022 1:45:00 PM 10.29 50.522 0.509 8.21 7.42 11.96
10/18/2022 2:00:00 PM 10.26 50.468 0.509 8.21 7.33 11.92
10/18/2022 2:15:00 PM 10.44 50.792 0.508 8.22 7.09 11.97
10/18/2022 2:30:00 PM 10.41 50.738 0.508 8.24 7.27 11.9
10/18/2022 2:45:00 PM 10.5 50.9 0.508 8.24 7.19 11.89
10/18/2022 3:00:00 PM 10.59 51.062 0.507 8.24 7.16 11.9
10/18/2022 3:15:00 PM 10.74 51.332 0.507 8.27 7.35 11.93
10/18/2022 3:30:00 PM 10.85 51.53 0.506 8.28 7.52 11.92
10/18/2022 3:45:00 PM 10.94 51.692 0.506 8.29 7.53 11.9
10/18/2022 4:00:00 PM 11.05 51.89 0.505 8.3 7.39 11.85
10/18/2022 4:15:00 PM 11.14 52.052 0.505 8.3 7.48 11.82
10/18/2022 4:30:00 PM 11.23 52.214 0.504 8.31 7.46 11.8
10/18/2022 4:45:00 PM 11.27 52.286 0.504 8.32 7.47 11.68
10/18/2022 5:00:00 PM 11.28 52.304 0.504 8.31 7.46 11.5
10/18/2022 5:15:00 PM 11.31 52.358 0.504 8.31 7.31 11.32
10/18/2022 5:30:00 PM 11.32 52.376 0.504 8.31 7.25 11.29
10/18/2022 5:45:00 PM 11.3 52.34 0.504 8.3 7.33 11.14
10/18/2022 6:00:00 PM 11.27 52.286 0.503 8.29 7.23 11.01
10/18/2022 6:15:00 PM 11.25 52.25 0.504 8.28 7.57 10.86
10/18/2022 6:30:00 PM 11.22 52.196 0.503 8.26 8.93 10.71
10/18/2022 6:45:00 PM 11.21 52.178 0.504 8.25 7.31 10.6
10/18/2022 7:00:00 PM 11.19 52.142 0.504 8.23 7.41 10.49
10/18/2022 7:15:00 PM 11.2 52.16 0.504 8.22 7.24 10.4
10/18/2022 7:30:00 PM 11.2 52.16 0.504 8.21 7.25 10.31
10/18/2022 7:45:00 PM 11.22 52.196 0.504 8.2 7.34 10.23
10/18/2022 8:00:00 PM 11.24 52.232 0.504 8.19 7.33 10.14
10/18/2022 8:15:00 PM 11.26 52.268 0.504 8.18 7.4 10.09
10/18/2022 8:30:00 PM 11.28 52.304 0.504 8.16 7.51 10.02
10/18/2022 8:45:00 PM 11.29 52.322 0.504 8.15 7.48 9.96
10/18/2022 9:00:00 PM 11.3 52.34 0.505 8.13 7.46 9.92
10/18/2022 9:15:00 PM 11.32 52.376 0.505 8.12 7.44 9.88
10/18/2022 9:30:00 PM 11.32 52.376 0.505 8.11 7.54 9.85
10/18/2022 9:45:00 PM 11.34 52.412 0.505 8.1 7.83 9.82
10/18/2022 10:00:00 PM 11.34 52.412 0.506 8.09 8.01 9.79
10/18/2022 10:15:00 PM 11.34 52.412 0.506 8.08 7.74 9.78
10/18/2022 10:30:00 PM 11.31 52.358 0.506 8.07 7.51 9.76
10/18/2022 10:45:00 PM 11.27 52.286 0.506 8.06 7.65 9.46
10/18/2022 11:00:00 PM 11.26 52.268 0.506 8.06 7.7 9.75
10/18/2022 11:15:00 PM 11.23 52.214 0.507 8.04 7.72 9.76
10/18/2022 11:30:00 PM 11.19 52.142 0.507 8.04 7.69 9.76
10/18/2022 11:45:00 PM 11.14 52.052 0.507 8.04 7.76 9.77
10/19/2022 12:00:00 AM 11.06 51.908 0.508 8.02 7.82 9.78
10/19/2022 12:15:00 AM 10.98 51.764 0.508 8.03 7.68 9.81
10/19/2022 12:30:00 AM 10.89 51.602 0.508 8.02 7.8 9.82
10/19/2022 12:45:00 AM 10.8 51.44 0.509 8.02 7.85 9.86
10/19/2022 1:00:00 AM 10.71 51.278 0.51 8.02 7.74 9.89
10/19/2022 1:15:00 AM 10.61 51.098 0.51 8.01 7.67 9.92
10/19/2022 1:30:00 AM 10.5 50.9 0.51 8.01 7.58 9.96
10/19/2022 1:45:00 AM 10.4 50.72 0.511 8 7.67 10
10/19/2022 2:00:00 AM 10.29 50.522 0.511 8 7.74 10.03
10/19/2022 2:15:00 AM 10.18 50.324 0.512 8 7.98 10.07
10/19/2022 2:30:00 AM 10.07 50.126 0.512 8 7.71 10.09
10/19/2022 2:45:00 AM 9.95 49.91 0.512 7.99 7.8 10.14
10/19/2022 3:00:00 AM 9.84 49.712 0.513 7.99 7.7 10.18
10/19/2022 3:15:00 AM 9.73 49.514 0.513 7.99 7.78 10.21
10/19/2022 3:30:00 AM 9.65 49.37 0.514 7.99 7.78 10.24
10/19/2022 3:45:00 AM 9.56 49.208 0.513 7.99 7.79 10.27
10/19/2022 4:00:00 AM 9.48 49.064 0.514 7.99 8.01 10.29
10/19/2022 4:15:00 AM 9.39 48.902 0.513 7.98 8.24 10.33
10/19/2022 4:30:00 AM 9.3 48.74 0.514 7.99 7.85 10.36
10/19/2022 4:45:00 AM 9.21 48.578 0.514 7.98 7.89 10.39
10/19/2022 5:00:00 AM 9.12 48.416 0.514 7.98 7.8 10.42
10/19/2022 5:15:00 AM 9.05 48.29 0.514 7.98 7.88 10.46
10/19/2022 5:30:00 AM 8.97 48.146 0.514 7.98 23.19 10.43
10/19/2022 5:45:00 AM 8.91 48.038 0.514 7.98 11.04 10.51
10/19/2022 6:00:00 AM 8.87 47.966 0.514 7.98 9.59 10.51
10/19/2022 6:15:00 AM 8.84 47.912 0.515 7.97 9.39 10.55
10/19/2022 6:30:00 AM 8.8 47.84 0.515 7.96 8.15 10.57
10/19/2022 6:45:00 AM 8.77 47.786 0.514 7.97 8.38 10.58
10/19/2022 7:00:00 AM 8.74 47.732 0.514 7.97 8.37 10.62
10/19/2022 7:15:00 AM 8.71 47.678 0.514 7.97 8.18 10.64
10/19/2022 7:30:00 AM 8.68 47.624 0.514 7.98 8.25 10.66
10/19/2022 7:45:00 AM 8.65 47.57 0.514 7.97 9.07 10.69
10/19/2022 8:00:00 AM 8.63 47.534 0.514 7.97 8.02 10.75
10/19/2022 8:15:00 AM 8.59 47.462 0.514 7.98 8.12 10.81
10/19/2022 8:30:00 AM 8.55 47.39 0.514 7.99 7.94 10.87
10/19/2022 8:45:00 AM 8.54 47.372 0.513 7.99 8 10.98
10/19/2022 9:00:00 AM 8.55 47.39 0.513 8 7.83 11.08
10/19/2022 9:15:00 AM 8.59 47.462 0.513 8.02 7.76 11.22
10/19/2022 9:30:00 AM 8.64 47.552 0.513 8.04 7.81 11.38
10/19/2022 9:45:00 AM 8.66 47.588 0.512 8.05 7.84 11.37
10/19/2022 10:00:00 AM 8.7 47.66 0.512 8.07 7.81 11.55
10/19/2022 10:15:00 AM 8.77 47.786 0.512 8.08 7.7 11.66
10/19/2022 10:30:00 AM 8.81 47.858 0.512 8.1 7.71 11.78
10/19/2022 10:45:00 AM 8.89 48.002 0.511 8.11 7.71 11.88
10/19/2022 11:00:00 AM 8.96 48.128 0.511 8.12 7.65 11.95
10/19/2022 11:15:00 AM 9.03 48.254 0.511 8.15 7.6 12.08
10/19/2022 11:30:00 AM 9.11 48.398 0.51 8.16 7.51 11.98
10/19/2022 11:45:00 AM 9.29 48.722 0.51 8.17 7.56 12.16
10/19/2022 12:00:00 PM 9.45 49.01 0.51 8.18 7.64 12.24
10/19/2022 12:15:00 PM 9.4 48.92 0.51 8.19 7.53 12.25
10/19/2022 12:30:00 PM 9.61 49.298 0.509 8.21 8.6 12.39
10/19/2022 12:45:00 PM 9.62 49.316 0.509 8.23 7.68 12.43
10/19/2022 1:00:00 PM 9.61 49.298 0.509 8.24 7.52 12.43
10/19/2022 1:15:00 PM 9.68 49.424 0.508 8.25 7.57 12.47
10/19/2022 1:30:00 PM 9.69 49.442 0.508 8.25 7.54 12.46
10/19/2022 1:45:00 PM 9.69 49.442 0.508 8.26 7.53 12.36
10/19/2022 2:00:00 PM 9.72 49.496 0.508 8.26 7.48 12.35
10/19/2022 2:15:00 PM 9.82 49.676 0.508 8.28 7.42 12.39
10/19/2022 2:30:00 PM 10.06 50.108 0.507 8.3 7.5 12.53
10/19/2022 2:45:00 PM 10.08 50.144 0.506 8.3 7.96 12.53
10/19/2022 3:00:00 PM 10.18 50.324 0.506 8.33 7.57 12.54
10/19/2022 3:15:00 PM 10.22 50.396 0.506 8.33 7.58 12.5
10/19/2022 3:30:00 PM 10.3 50.54 0.505 8.34 7.57 12.48
10/19/2022 3:45:00 PM 10.38 50.684 0.505 8.35 7.64 12.45
10/19/2022 4:00:00 PM 10.43 50.774 0.505 8.35 7.65 12.37
10/19/2022 4:15:00 PM 10.48 50.864 0.504 8.35 7.72 12.25
10/19/2022 4:30:00 PM 10.52 50.936 0.504 8.34 7.75 12.13
10/19/2022 4:45:00 PM 10.52 50.936 0.505 8.34 7.77 11.99
10/19/2022 5:00:00 PM 10.52 50.936 0.504 8.33 7.5 11.85
10/19/2022 5:15:00 PM 10.52 50.936 0.504 8.32 7.6 11.7
10/19/2022 5:30:00 PM 10.52 50.936 0.504 8.31 7.64 11.58
10/19/2022 5:45:00 PM 10.51 50.918 0.505 8.29 7.59 11.41
10/19/2022 6:00:00 PM 10.5 50.9 0.505 8.28 7.64 11.26
10/19/2022 6:15:00 PM 10.49 50.882 0.505 8.27 11.57 11.13
10/19/2022 6:30:00 PM 10.49 50.882 0.504 8.26 7.41 11
10/19/2022 6:45:00 PM 10.48 50.864 0.505 8.24 7.47 10.89
10/19/2022 7:00:00 PM 10.48 50.864 0.505 8.23 7.53 10.77
10/19/2022 7:15:00 PM 10.47 50.846 0.505 8.22 7.37 10.68
10/19/2022 7:30:00 PM 10.47 50.846 0.505 8.2 7.52 10.59
10/19/2022 7:45:00 PM 10.48 50.864 0.506 8.19 7.45 10.52
10/19/2022 8:00:00 PM 10.48 50.864 0.506 8.18 7.49 10.43
10/19/2022 8:15:00 PM 10.46 50.828 0.506 8.17 7.52 10.36
10/19/2022 8:30:00 PM 10.44 50.792 0.506 8.16 7.42 10.3
10/19/2022 8:45:00 PM 10.42 50.756 0.506 8.14 7.45 10.23
10/19/2022 9:00:00 PM 10.4 50.72 0.507 8.06 7.53 10.2
10/19/2022 9:15:00 PM 10.36 50.648 0.507 8.03 7.68 10.17
10/19/2022 9:30:00 PM 10.31 50.558 0.507 8.12 7.64 10.14
10/19/2022 9:45:00 PM 10.25 50.45 0.507 8.1 7.5 10.14
10/19/2022 10:00:00 PM 10.21 50.378 0.508 8.09 7.57 10.13
10/19/2022 10:15:00 PM 10.15 50.27 0.508 8.08 7.51 10.14
10/19/2022 10:30:00 PM 10.09 50.162 0.508 8.07 7.53 10.14
10/19/2022 10:45:00 PM 10.03 50.054 0.508 8.07 7.47 10.15
10/19/2022 11:00:00 PM 9.98 49.964 0.509 8.05 7.6 10.14
10/19/2022 11:15:00 PM 9.95 49.91 0.509 8.05 7.67 10.16
10/19/2022 11:30:00 PM 9.93 49.874 0.509 8.04 7.54 10.18
10/19/2022 11:45:00 PM 9.91 49.838 0.51 8.04 7.62 10.17
10/20/2022 12:00:00 AM 9.88 49.784 0.51 8.02 7.48 10.16
10/20/2022 12:15:00 AM 9.83 49.694 0.51 8.02 7.76 10.17
10/20/2022 12:30:00 AM 9.78 49.604 0.511 8.02 7.65 10.22
10/20/2022 12:45:00 AM 9.72 49.496 0.511 7.83 7.91 10.2
10/20/2022 1:00:00 AM 9.65 49.37 0.511 8.01 7.83 10.22
10/20/2022 1:15:00 AM 9.59 49.262 0.511 8.01 7.8 10.24
10/20/2022 1:30:00 AM 9.51 49.118 0.512 8 7.85 10.29
10/20/2022 1:45:00 AM 9.44 48.992 0.512 8.02 7.79 10.28
10/20/2022 2:00:00 AM 9.36 48.848 0.512 8 7.85 10.31
10/20/2022 2:15:00 AM 9.28 48.704 0.513 7.99 7.99 10.34
10/20/2022 2:30:00 AM 9.21 48.578 0.513 7.99 8 10.39
10/20/2022 2:45:00 AM 9.14 48.452 0.514 7.99 8.21 10.44
10/20/2022 3:00:00 AM 9.06 48.308 0.514 7.99 8.23 10.46
10/20/2022 3:15:00 AM 8.98 48.164 0.514 7.99 7.98 10.47
10/20/2022 3:30:00 AM 8.91 48.038 0.515 7.98 8.06 10.5
10/20/2022 3:45:00 AM 8.84 47.912 0.515 7.98 7.96 10.52
10/20/2022 4:00:00 AM 8.76 47.768 0.515 7.98 8.1 10.55
10/20/2022 4:15:00 AM 8.69 47.642 0.515 7.97 8.62 10.59
10/20/2022 4:30:00 AM 8.61 47.498 0.515 7.98 8.29 10.61
10/20/2022 4:45:00 AM 8.53 47.354 0.515 7.99 8.24 10.63
10/20/2022 5:00:00 AM 8.45 47.21 0.515 7.98 8.02 10.67
10/20/2022 5:15:00 AM 8.39 47.102 0.515 7.99 7.91 10.69
10/20/2022 5:30:00 AM 8.32 46.976 0.515 7.98 7.79 10.67
10/20/2022 5:45:00 AM 8.25 46.85 0.516 7.98 8.23 10.52
10/20/2022 6:00:00 AM 8.19 46.742 0.516 7.97 7.76 10.74
10/20/2022 6:15:00 AM 8.12 46.616 0.515 7.97 7.65 10.78
10/20/2022 6:30:00 AM 8.06 46.508 0.515 7.97 7.68 10.81
10/20/2022 6:45:00 AM 8.01 46.418 0.515 7.97 7.75 10.79
10/20/2022 7:00:00 AM 7.95 46.31 0.516 7.97 8.12 10.84
10/20/2022 7:15:00 AM 7.89 46.202 0.516 7.98 7.99 10.87
10/20/2022 7:30:00 AM 7.84 46.112 0.516 7.97 7.97 10.81
10/20/2022 7:45:00 AM 7.79 46.022 0.516 7.96 7.85 10.91
10/20/2022 8:00:00 AM 7.75 45.95 0.516 7.97 7.72 10.95
10/20/2022 8:15:00 AM 7.71 45.878 0.515 7.97 7.81 11
10/20/2022 8:30:00 AM 7.67 45.806 0.515 7.98 8.03 11.09
10/20/2022 8:45:00 AM 7.65 45.77 0.516 7.98 7.64 11.17
10/20/2022 9:00:00 AM 7.64 45.752 0.516 8 7.71 11.25
10/20/2022 9:15:00 AM 7.64 45.752 0.516 8 7.62 11.3
10/20/2022 9:30:00 AM 7.65 45.77 0.516 8.01 7.63 11.37
10/20/2022 9:45:00 AM 7.68 45.824 0.515 8.02 7.52 11.43
10/20/2022 10:00:00 AM 7.74 45.932 0.515 8.03 7.47 11.51
10/20/2022 10:15:00 AM 7.81 46.058 0.515 8.04 7.67 11.6
10/20/2022 10:30:00 AM 7.9 46.22 0.515 8.05 7.46 11.7
10/20/2022 10:45:00 AM 7.99 46.382 0.515 8.07 7.47 11.62
10/20/2022 11:00:00 AM 8.08 46.544 0.514 8.08 7.43 11.87
10/20/2022 11:15:00 AM 8.2 46.76 0.514 8.09 7.6 11.98
10/20/2022 11:30:00 AM 8.35 47.03 0.514 8.11 7.37 12.08
10/20/2022 11:45:00 AM 8.52 47.336 0.513 8.13 7.7 12.13
10/20/2022 12:00:00 PM 8.7 47.66 0.513 8.15 7.54 12.25
10/20/2022 12:15:00 PM 8.84 47.912 0.512 8.16 7.34 12.34
10/20/2022 12:30:00 PM 9 48.2 0.512 8.17 7.43 12.42
10/20/2022 12:45:00 PM 9.13 48.434 0.511 8.19 7.46 12.46
10/20/2022 1:00:00 PM 9.28 48.704 0.511 8.2 7.31 12.48
10/20/2022 1:15:00 PM 9.42 48.956 0.511 8.22 7.41 12.51
10/20/2022 1:30:00 PM 9.59 49.262 0.51 8.23 7.46 12.51
10/20/2022 1:45:00 PM 9.74 49.532 0.51 8.24 7.35 12.52
10/20/2022 2:00:00 PM 9.92 49.856 0.509 8.25 7.28 12.57
10/20/2022 2:15:00 PM 10.08 50.144 0.509 8.27 7.23 12.58
10/20/2022 2:30:00 PM 10.2 50.36 0.509 8.28 7.4 12.55
10/20/2022 2:45:00 PM 10.25 50.45 0.508 8.28 7.53 12.51
10/20/2022 3:00:00 PM 10.26 50.468 0.508 8.29 7.49 12.38
10/20/2022 3:15:00 PM 10.36 50.648 0.508 8.29 7.55 12.27
10/20/2022 3:30:00 PM 10.42 50.756 0.507 8.3 7.53 12.22
10/20/2022 3:45:00 PM 10.51 50.918 0.507 8.3 7.6 12.08
10/20/2022 4:00:00 PM 10.57 51.026 0.507 8.31 7.64 12.07
10/20/2022 4:15:00 PM 10.62 51.116 0.506 8.31 7.71 11.98
10/20/2022 4:30:00 PM 10.68 51.224 0.506 8.31 7.63 11.88
10/20/2022 4:45:00 PM 10.72 51.296 0.506 8.31 7.65 11.77
10/20/2022 5:00:00 PM 10.78 51.404 0.506 8.3 7.56 11.68
10/20/2022 5:15:00 PM 10.84 51.512 0.505 8.3 7.62 11.54
10/20/2022 5:30:00 PM 10.88 51.584 0.505 8.3 7.61 11.44
10/20/2022 5:45:00 PM 10.88 51.584 0.505 8.29 7.69 11.31
10/20/2022 6:00:00 PM 10.88 51.584 0.505 8.28 7.64 11.19
10/20/2022 6:15:00 PM 10.84 51.512 0.505 8.27 7.7 11
10/20/2022 6:30:00 PM 10.79 51.422 0.505 8.25 11.22 10.9
10/20/2022 6:45:00 PM 10.73 51.314 0.506 8.23 7.74 10.78
10/20/2022 7:00:00 PM 10.67 51.206 0.506 8.22 7.49 10.67
10/20/2022 7:15:00 PM 10.61 51.098 0.506 8.2 7.43 10.51
10/20/2022 7:30:00 PM 10.56 51.008 0.506 8.19 7.31 10.46
10/20/2022 7:45:00 PM 10.5 50.9 0.507 8.17 7.4 10.37
10/20/2022 8:00:00 PM 10.45 50.81 0.507 8.16 7.3 10.29
10/20/2022 8:15:00 PM 10.41 50.738 0.507 8.15 7.27 10.28
10/20/2022 8:30:00 PM 10.37 50.666 0.507 8.13 7.37 10.24
10/20/2022 8:45:00 PM 10.33 50.594 0.507 8.12 7.41 10.16
10/20/2022 9:00:00 PM 10.31 50.558 0.507 8.11 7.66 10.12
10/20/2022 9:15:00 PM 10.28 50.504 0.507 8.1 7.3 10.13
10/20/2022 9:30:00 PM 10.26 50.468 0.508 8.09 7.4 10.09
10/20/2022 9:45:00 PM 10.24 50.432 0.507 8.09 7.39 10.07
10/20/2022 10:00:00 PM 10.2 50.36 0.507 8.08 7.18 10.09
10/20/2022 10:15:00 PM 10.18 50.324 0.508 8.08 7.36 10.04
10/20/2022 10:30:00 PM 10.15 50.27 0.508 8.07 7.27 10.06
10/20/2022 10:45:00 PM 10.11 50.198 0.508 8.06 7.49 10.05
10/20/2022 11:00:00 PM 10.06 50.108 0.508 8.05 7.4 10.04
10/20/2022 11:15:00 PM 10.03 50.054 0.509 8.04 7.46 10.05
10/20/2022 11:30:00 PM 10 50 0.509 8.04 7.37 10.04
10/20/2022 11:45:00 PM 9.98 49.964 0.509 8.03 7.43 10.07
10/21/2022 12:00:00 AM 9.96 49.928 0.509 8.02 7.29 10.07
10/21/2022 12:15:00 AM 9.93 49.874 0.509 8.01 7.49 10.05
10/21/2022 12:30:00 AM 9.9 49.82 0.51 8.01 7.28 10.1
10/21/2022 12:45:00 AM 9.86 49.748 0.51 8.01 7.23 10.12
10/21/2022 1:00:00 AM 9.81 49.658 0.51 8.01 7.17 10.13
10/21/2022 1:15:00 AM 9.76 49.568 0.511 8 7.18 10.15
10/21/2022 1:30:00 AM 9.71 49.478 0.511 8 7.33 10.18
10/21/2022 1:45:00 AM 9.63 49.334 0.511 7.99 7.32 10.2
10/21/2022 2:00:00 AM 9.55 49.19 0.512 7.99 7.45 10.24
10/21/2022 2:15:00 AM 9.47 49.046 0.513 7.99 7.4 10.27
10/21/2022 2:30:00 AM 9.39 48.902 0.513 8 6.9 10.3
10/21/2022 2:45:00 AM 9.32 48.776 0.514 7.98 7.55 10.32
10/21/2022 3:00:00 AM 9.24 48.632 0.514 7.98 7.39 10.35
10/21/2022 3:15:00 AM 9.15 48.47 0.515 7.98 7.44 10.36
10/21/2022 3:30:00 AM 9.06 48.308 0.515 7.97 7.33 10.41
10/21/2022 3:45:00 AM 8.97 48.146 0.516 7.97 7.29 10.42
10/21/2022 4:00:00 AM 8.88 47.984 0.516 7.97 7.59 10.47
10/21/2022 4:15:00 AM 8.8 47.84 0.516 7.97 7.46 10.51
10/21/2022 4:30:00 AM 8.72 47.696 0.516 7.97 7.53 10.54
10/21/2022 4:45:00 AM 8.63 47.534 0.516 7.93 7.52 10.57
10/21/2022 5:00:00 AM 8.55 47.39 0.516 7.97 7.46 10.59
10/21/2022 5:15:00 AM 8.47 47.246 0.516 7.97 7.45 10.64
10/21/2022 5:30:00 AM 8.38 47.084 0.516 7.97 7.36 10.66
10/21/2022 5:45:00 AM 8.3 46.94 0.516 7.96 7.26 10.68
10/21/2022 6:00:00 AM 8.22 46.796 0.516 7.98 7.48 10.72
10/21/2022 6:15:00 AM 8.14 46.652 0.516 7.98 7.35 10.74
10/21/2022 6:30:00 AM 8.06 46.508 0.516 7.96 7.53 10.77
10/21/2022 6:45:00 AM 7.99 46.382 0.517 7.96 7.29 10.79
10/21/2022 7:00:00 AM 7.92 46.256 0.517 7.97 7.23 10.84
10/21/2022 7:15:00 AM 7.85 46.13 0.517 7.97 7.45 10.84
10/21/2022 7:30:00 AM 7.78 46.004 0.517 7.96 7.43 10.86
10/21/2022 7:45:00 AM 7.73 45.914 0.517 7.96 7.33 10.84
10/21/2022 8:00:00 AM 7.68 45.824 0.517 7.97 7.33 10.95
10/21/2022 8:15:00 AM 7.65 45.77 0.517 7.98 7.26 10.98
10/21/2022 8:30:00 AM 7.62 45.716 0.516 7.98 7.09 11.08
10/21/2022 8:45:00 AM 7.6 45.68 0.517 7.94 7.09 11.17
10/21/2022 9:00:00 AM 7.59 45.662 0.517 8 7.03 11.24
10/21/2022 9:15:00 AM 7.59 45.662 0.516 7.99 7.06 11.29
10/21/2022 9:30:00 AM 7.61 45.698 0.516 8 7.07 11.38
10/21/2022 9:45:00 AM 7.63 45.734 0.516 8.03 7.08 11.46
10/21/2022 10:00:00 AM 7.7 45.86 0.516 8.03 7.03 11.54
10/21/2022 10:15:00 AM 7.8 46.04 0.516 8.03 7.05 11.66
10/21/2022 10:30:00 AM 7.9 46.22 0.515 8.04 6.92 11.75
10/21/2022 10:45:00 AM 8.01 46.418 0.515 8.06 7 11.85
10/21/2022 11:00:00 AM 8.12 46.616 0.515 8.08 6.91 11.93
10/21/2022 11:15:00 AM 8.26 46.868 0.515 8.08 7.04 12.03
10/21/2022 11:30:00 AM 8.45 47.21 0.514 8.1 6.88 12.13
10/21/2022 11:45:00 AM 8.65 47.57 0.514 8.13 6.79 12.23
10/21/2022 12:00:00 PM 8.83 47.894 0.513 8.14 6.91 12.32
10/21/2022 12:15:00 PM 8.99 48.182 0.513 8.15 7.33 12.39
10/21/2022 12:30:00 PM 9.15 48.47 0.513 8.17 6.79 12.46
10/21/2022 12:45:00 PM 9.3 48.74 0.512 8.19 6.89 12.5
10/21/2022 1:00:00 PM 9.46 49.028 0.512 8.2 6.87 12.53
10/21/2022 1:15:00 PM 9.61 49.298 0.512 8.21 7.03 12.58
10/21/2022 1:30:00 PM 9.75 49.55 0.511 8.23 7.01 12.63
10/21/2022 1:45:00 PM 9.93 49.874 0.511 8.23 6.76 12.64
10/21/2022 2:00:00 PM 10.12 50.216 0.51 8.25 6.8 12.67
10/21/2022 2:15:00 PM 10.29 50.522 0.51 8.27 6.87 12.65
10/21/2022 2:30:00 PM 10.44 50.792 0.51 8.28 6.79 12.66
10/21/2022 2:45:00 PM 10.51 50.918 0.51 8.29 6.79 12.57
10/21/2022 3:00:00 PM 10.54 50.972 0.509 8.13 6.9 12.47
10/21/2022 3:15:00 PM 10.63 51.134 0.509 8.29 6.87 12.39
10/21/2022 3:30:00 PM 10.73 51.314 0.508 8.31 6.92 12.32
10/21/2022 3:45:00 PM 10.82 51.476 0.508 8.31 6.95 12.23
10/21/2022 4:00:00 PM 10.9 51.62 0.508 8.32 6.81 12.14
10/21/2022 4:15:00 PM 10.98 51.764 0.507 8.32 6.89 12.05
10/21/2022 4:30:00 PM 11.05 51.89 0.507 8.32 6.89 11.92
10/21/2022 4:45:00 PM 11.13 52.034 0.507 8.31 6.99 11.8
10/21/2022 5:00:00 PM 11.2 52.16 0.506 8.31 6.99 11.67
10/21/2022 5:15:00 PM 11.26 52.268 0.506 8.3 6.82 11.55
10/21/2022 5:30:00 PM 11.31 52.358 0.506 8.31 6.72 11.42
10/21/2022 5:45:00 PM 11.33 52.394 0.506 8.29 7.44 11.28
10/21/2022 6:00:00 PM 11.32 52.376 0.505 8.28 6.94 11.14
10/21/2022 6:15:00 PM 11.3 52.34 0.506 8.12 7.38 10.91
10/21/2022 6:30:00 PM 11.27 52.286 0.506 8.27 7.53 10.83
10/21/2022 6:45:00 PM 11.23 52.214 0.506 8.23 7.35 10.71
10/21/2022 7:00:00 PM 11.19 52.142 0.506 8.22 6.86 10.56
10/21/2022 7:15:00 PM 11.15 52.07 0.507 8.21 6.93 10.44
10/21/2022 7:30:00 PM 11.11 51.998 0.506 8.19 6.63 10.39
10/21/2022 7:45:00 PM 11.07 51.926 0.507 8.17 7.3 10.3
10/21/2022 8:00:00 PM 11.04 51.872 0.507 8.16 7.14 10.13
10/21/2022 8:15:00 PM 11.01 51.818 0.507 8.15 7.03 10.17
10/21/2022 8:30:00 PM 10.99 51.782 0.507 8.13 6.95 10.08
10/21/2022 8:45:00 PM 10.97 51.746 0.507 8.12 6.97 9.99
10/21/2022 9:00:00 PM 10.96 51.728 0.507 8.11 7.23 10.01
10/21/2022 9:15:00 PM 10.94 51.692 0.507 8.1 6.97 9.99
10/21/2022 9:30:00 PM 10.93 51.674 0.507 8.09 7.03 9.93
10/21/2022 9:45:00 PM 10.91 51.638 0.507 8.08 7.25 9.87
10/21/2022 10:00:00 PM 10.9 51.62 0.507 8.07 7.23 9.82
10/21/2022 10:15:00 PM 10.88 51.584 0.507 8.07 7.07 9.85
10/21/2022 10:30:00 PM 10.85 51.53 0.507 8.06 7.12 9.83
10/21/2022 10:45:00 PM 10.82 51.476 0.507 8.05 7.17 9.83
10/21/2022 11:00:00 PM 10.78 51.404 0.508 8.04 7.03 9.82
10/21/2022 11:15:00 PM 10.74 51.332 0.508 8.04 7.15 9.8
10/21/2022 11:30:00 PM 10.69 51.242 0.508 8.03 7.07 9.86
10/21/2022 11:45:00 PM 10.64 51.152 0.508 8.03 7.09 9.85
10/22/2022 12:00:00 AM 10.59 51.062 0.509 8.02 7.08 9.84
10/22/2022 12:15:00 AM 10.52 50.936 0.509 8.03 7.38 9.88
10/22/2022 12:30:00 AM 10.46 50.828 0.51 8.01 7.08 9.88
10/22/2022 12:45:00 AM 10.4 50.72 0.509 8.01 7.03 9.92
10/22/2022 1:00:00 AM 10.33 50.594 0.51 8 7.17 9.83
10/22/2022 1:15:00 AM 10.26 50.468 0.51 8 7.21 9.72
10/22/2022 1:30:00 AM 10.18 50.324 0.511 8 7.24 9.9
10/22/2022 1:45:00 AM 10.11 50.198 0.511 7.99 7.57 10
10/22/2022 2:00:00 AM 10.03 50.054 0.511 8 7.03 9.96
10/22/2022 2:15:00 AM 9.95 49.91 0.512 7.99 7.31 10.08
10/22/2022 2:30:00 AM 9.86 49.748 0.513 7.99 7.15 10.02
10/22/2022 2:45:00 AM 9.78 49.604 0.513 7.99 7.09 10.13
10/22/2022 3:00:00 AM 9.69 49.442 0.513 7.88 7.24 10.18
10/22/2022 3:15:00 AM 9.6 49.28 0.514 7.99 7.32 10.09
10/22/2022 3:30:00 AM 9.52 49.136 0.514 7.98 7.38 10.24
10/22/2022 3:45:00 AM 9.43 48.974 0.514 7.98 7.16 10.22
10/22/2022 4:00:00 AM 9.34 48.812 0.515 7.98 7.23 10.27
10/22/2022 4:15:00 AM 9.25 48.65 0.515 7.96 7.14 10.38
10/22/2022 4:30:00 AM 9.16 48.488 0.515 7.98 7.23 10.42
10/22/2022 4:45:00 AM 9.07 48.326 0.515 7.98 7.36 10.46
10/22/2022 5:00:00 AM 8.98 48.164 0.516 7.97 7.34 10.42
10/22/2022 5:15:00 AM 8.9 48.02 0.515 7.97 7.5 10.46
10/22/2022 5:30:00 AM 8.82 47.876 0.516 7.97 7.18 10.38
10/22/2022 5:45:00 AM 8.74 47.732 0.516 7.97 7.49 10.55
10/22/2022 6:00:00 AM 8.67 47.606 0.515 7.96 7.3 10.56
10/22/2022 6:15:00 AM 8.59 47.462 0.516 7.97 7.27 10.6
10/22/2022 6:30:00 AM 8.52 47.336 0.516 7.98 7.14 10.61
10/22/2022 6:45:00 AM 8.45 47.21 0.516 7.97 7.56 10.52
10/22/2022 7:00:00 AM 8.39 47.102 0.516 7.97 7.37 10.47
10/22/2022 7:15:00 AM 8.32 46.976 0.516 7.96 7.41 10.59
10/22/2022 7:30:00 AM 8.26 46.868 0.516 7.97 8.13 10.71
10/22/2022 7:45:00 AM 8.21 46.778 0.516 7.96 7.35 10.77
10/22/2022 8:00:00 AM 8.16 46.688 0.516 7.97 7.32 10.84
10/22/2022 8:15:00 AM 8.11 46.598 0.516 7.98 7.09 10.92
10/22/2022 8:30:00 AM 8.08 46.544 0.516 7.97 6.94 10.91
10/22/2022 8:45:00 AM 8.05 46.49 0.516 7.98 6.91 11.09
10/22/2022 9:00:00 AM 8.03 46.454 0.516 7.99 6.92 11.16
10/22/2022 9:15:00 AM 8.03 46.454 0.516 8 6.97 11.24
10/22/2022 9:30:00 AM 8.03 46.454 0.516 8.02 6.99 11.32
10/22/2022 9:45:00 AM 8.05 46.49 0.515 8.01 6.89 11.4
10/22/2022 10:00:00 AM 8.1 46.58 0.516 8.02 6.82 11.33
10/22/2022 10:15:00 AM 8.2 46.76 0.515 8.02 6.82 11.51
10/22/2022 10:30:00 AM 8.3 46.94 0.515 8.04 6.77 11.62
10/22/2022 10:45:00 AM 8.4 47.12 0.515 8.07 7 11.82
10/22/2022 11:00:00 AM 8.51 47.318 0.514 8.07 6.83 11.91
10/22/2022 11:15:00 AM 8.65 47.57 0.514 8.1 7.07 12.02
10/22/2022 11:30:00 AM 8.85 47.93 0.514 8.1 6.73 12.13
10/22/2022 11:45:00 AM 9.06 48.308 0.513 8.12 6.93 12.22
10/22/2022 12:00:00 PM 9.27 48.686 0.512 8.15 6.93 12.28
10/22/2022 12:15:00 PM 9.45 49.01 0.512 8.16 7.21 12.3
10/22/2022 12:30:00 PM 9.62 49.316 0.512 8.18 6.76 12.47
10/22/2022 12:45:00 PM 9.8 49.64 0.511 8.19 6.77 12.48
10/22/2022 1:00:00 PM 9.95 49.91 0.511 8.2 6.73 12.52
10/22/2022 1:15:00 PM 10.12 50.216 0.51 8.21 6.73 12.55
10/22/2022 1:30:00 PM 10.29 50.522 0.51 8.23 6.67 12.6
10/22/2022 1:45:00 PM 10.49 50.882 0.509 8.25 6.72 12.65
10/22/2022 2:00:00 PM 10.7 51.26 0.509 8.27 11.33 12.67
10/22/2022 2:15:00 PM 10.88 51.584 0.509 8.28 8.95 12.64
10/22/2022 2:30:00 PM 11.05 51.89 0.508 8.3 7.97 12.58
10/22/2022 2:45:00 PM 11.13 52.034 0.508 8.3 7.48 12.57
10/22/2022 3:00:00 PM 11.18 52.124 0.508 8.29 7.07 12.43
10/22/2022 3:15:00 PM 11.27 52.286 0.507 8.31 7.01 12.32
10/22/2022 3:30:00 PM 11.39 52.502 0.507 8.31 7.64 12.2
10/22/2022 3:45:00 PM 11.49 52.682 0.506 8.2 7.07 12.13
10/22/2022 4:00:00 PM 11.59 52.862 0.506 8.32 7.08 12.03
10/22/2022 4:15:00 PM 11.68 53.024 0.505 8.32 7.44 11.94
10/22/2022 4:30:00 PM 11.76 53.168 0.505 8.34 7.16 11.81
10/22/2022 4:45:00 PM 11.83 53.294 0.505 8.33 7.44 11.69
10/22/2022 5:00:00 PM 11.9 53.42 0.505 8.32 7.35 11.55
10/22/2022 5:15:00 PM 11.97 53.546 0.504 8.32 7.07 11.41
10/22/2022 5:30:00 PM 12.01 53.618 0.504 8.31 7.03 11.3
10/22/2022 5:45:00 PM 12.04 53.672 0.504 8.31 6.88 11.16
10/22/2022 6:00:00 PM 12.06 53.708 0.504 8.29 7.93 11
10/22/2022 6:15:00 PM 12.06 53.708 0.504 8.28 7.1 10.85
10/22/2022 6:30:00 PM 12.05 53.69 0.504 8.26 7.25 10.66
10/22/2022 6:45:00 PM 12.02 53.636 0.505 8.24 7.42 10.48
10/22/2022 7:00:00 PM 11.99 53.582 0.505 8.23 7.24 10.22
10/22/2022 7:15:00 PM 11.96 53.528 0.505 8.21 8.5 10.22
10/22/2022 7:30:00 PM 11.93 53.474 0.505 8.19 7.54 10.04
10/22/2022 7:45:00 PM 11.91 53.438 0.506 8.17 7.81 10.07
10/22/2022 8:00:00 PM 11.89 53.402 0.506 8.15 7.38 9.96
10/22/2022 8:15:00 PM 11.88 53.384 0.506 8.14 7.5 9.91
10/22/2022 8:30:00 PM 11.86 53.348 0.506 8.12 9.8 9.82
10/22/2022 8:45:00 PM 11.85 53.33 0.506 8.12 7.52 9.71
10/22/2022 9:00:00 PM 11.85 53.33 0.507 8.11 8.26 9.58
10/22/2022 9:15:00 PM 11.86 53.348 0.506 8.09 7.86 9.56
10/22/2022 9:30:00 PM 11.86 53.348 0.506 8.09 7.6 9.66
10/22/2022 9:45:00 PM 11.87 53.366 0.506 8.07 7.58 9.57
10/22/2022 10:00:00 PM 11.87 53.366 0.507 8.06 7.3 9.59
10/22/2022 10:15:00 PM 11.87 53.366 0.506 8.05 8.27 9.49
10/22/2022 10:30:00 PM 11.86 53.348 0.507 8.04 7.45 9.38
10/22/2022 10:45:00 PM 11.86 53.348 0.507 8.04 7.72 9.48
10/22/2022 11:00:00 PM 11.82 53.276 0.507 7.88 7.51 9.44
10/22/2022 11:15:00 PM 11.81 53.258 0.508 8.03 7.37 9.51
10/22/2022 11:30:00 PM 11.77 53.186 0.508 8.01 7.18 9.47
10/22/2022 11:45:00 PM 11.74 53.132 0.509 8.01 8.17 9.46
10/23/2022 12:00:00 AM 11.7 53.06 0.509 8 7.78 9.44
10/23/2022 12:15:00 AM 11.65 52.97 0.509 8 7.98 9.4
10/23/2022 12:30:00 AM 11.59 52.862 0.509 7.82 8.73 9.33
10/23/2022 12:45:00 AM 11.53 52.754 0.51 7.99 7.8 9.34
10/23/2022 1:00:00 AM 11.47 52.646 0.51 7.99 7.96 9.51
10/23/2022 1:15:00 AM 11.4 52.52 0.51 7.98 8.31 9.36
10/23/2022 1:30:00 AM 11.31 52.358 0.511 7.98 7.77 9.48
10/23/2022 1:45:00 AM 11.24 52.232 0.511 7.97 7.53 9.53
10/23/2022 2:00:00 AM 11.16 52.088 0.512 7.97 7.66 9.57
10/23/2022 2:15:00 AM 11.07 51.926 0.512 7.97 8.04 9.56
10/23/2022 2:30:00 AM 10.98 51.764 0.512 7.97 7.82 9.61
10/23/2022 2:45:00 AM 10.88 51.584 0.513 7.96 7.71 9.65
10/23/2022 3:00:00 AM 10.78 51.404 0.513 7.96 7.6 9.78
10/23/2022 3:15:00 AM 10.69 51.242 0.514 7.96 7.75 9.67
10/23/2022 3:30:00 AM 10.58 51.044 0.514 7.96 7.57 9.81
10/23/2022 3:45:00 AM 10.49 50.882 0.514 7.96 7.62 9.79
10/23/2022 4:00:00 AM 10.4 50.72 0.515 7.95 7.6 9.87
10/23/2022 4:15:00 AM 10.3 50.54 0.515 7.97 7.82 9.93
10/23/2022 4:30:00 AM 10.21 50.378 0.515 7.96 7.79 10.03
10/23/2022 4:45:00 AM 10.11 50.198 0.515 7.96 7.73 10.08
10/23/2022 5:00:00 AM 10.03 50.054 0.515 7.97 7.51 10.12
10/23/2022 5:15:00 AM 9.95 49.91 0.516 7.95 7.68 10.2
10/23/2022 5:30:00 AM 9.87 49.766 0.515 7.95 7.45 10.23
10/23/2022 5:45:00 AM 9.79 49.622 0.515 7.97 7.38 10.25
10/23/2022 6:00:00 AM 9.72 49.496 0.515 7.96 7.26 10.28
10/23/2022 6:15:00 AM 9.66 49.388 0.515 7.95 7.26 10.3
10/23/2022 6:30:00 AM 9.59 49.262 0.515 7.96 7.67 10.33
10/23/2022 6:45:00 AM 9.54 49.172 0.515 7.95 7.37 10.37
10/23/2022 7:00:00 AM 9.49 49.082 0.516 7.82 7.39 10.38
10/23/2022 7:15:00 AM 9.45 49.01 0.515 7.96 7.38 10.42
10/23/2022 7:30:00 AM 9.42 48.956 0.515 7.96 7.57 10.45
10/23/2022 7:45:00 AM 9.4 48.92 0.515 7.96 7.3 10.47
10/23/2022 8:00:00 AM 9.4 48.92 0.515 7.96 7.29 10.51
10/23/2022 8:15:00 AM 9.4 48.92 0.515 7.97 7.19 10.58
10/23/2022 8:30:00 AM 9.41 48.938 0.515 7.8 7.08 10.68
10/23/2022 8:45:00 AM 9.43 48.974 0.515 7.97 7.95 10.77
10/23/2022 9:00:00 AM 9.45 49.01 0.515 7.99 7.39 10.79
10/23/2022 9:15:00 AM 9.48 49.064 0.515 7.8 7.03 10.86
10/23/2022 9:30:00 AM 9.51 49.118 0.514 7.99 7.03 10.9
10/23/2022 9:45:00 AM 9.57 49.226 0.514 8.01 7.2 10.99
10/23/2022 10:00:00 AM 9.64 49.352 0.514 8.01 6.97 11.22
10/23/2022 10:15:00 AM 9.7 49.46 0.513 8.04 7.02 11.36
10/23/2022 10:30:00 AM 9.79 49.622 0.513 8.07 6.85 11.54
10/23/2022 10:45:00 AM 9.9 49.82 0.512 8.08 7.02 11.77
10/23/2022 11:00:00 AM 10 50 0.512 8.11 6.88 11.91
10/23/2022 11:15:00 AM 10.12 50.216 0.512 8.13 6.99 12.1
10/23/2022 11:30:00 AM 10.23 50.414 0.511 8.15 6.97 12.2
10/23/2022 11:45:00 AM 10.35 50.63 0.51 8.17 6.9 12.37
10/23/2022 12:00:00 PM 10.48 50.864 0.51 8.21 6.87 12.47
10/23/2022 12:15:00 PM 10.58 51.044 0.509 8.22 6.81 12.55
10/23/2022 12:30:00 PM 10.67 51.206 0.509 8.24 6.8 12.6
10/23/2022 12:45:00 PM 10.75 51.35 0.508 8.25 6.85 12.62
10/23/2022 1:00:00 PM 10.8 51.44 0.508 8.24 6.77 12.54
10/23/2022 1:15:00 PM 10.84 51.512 0.508 8.24 11.97 12.43
10/23/2022 1:30:00 PM 10.89 51.602 0.508 8.26 7.76 12.41
10/23/2022 1:45:00 PM 10.96 51.728 0.508 8.27 6.87 12.4
10/23/2022 2:00:00 PM 11.05 51.89 0.507 8.28 7.23 12.5
10/23/2022 2:15:00 PM 11.14 52.052 0.506 8.3 6.98 12.58
10/23/2022 2:30:00 PM 11.22 52.196 0.506 8.31 6.86 12.62
10/23/2022 2:45:00 PM 11.3 52.34 0.505 8.32 6.81 12.62
10/23/2022 3:00:00 PM 11.36 52.448 0.505 8.34 6.85 12.58
10/23/2022 3:15:00 PM 11.43 52.574 0.504 8.35 6.83 12.5
10/23/2022 3:30:00 PM 11.5 52.7 0.504 8.35 6.84 12.52
10/23/2022 3:45:00 PM 11.57 52.826 0.504 8.36 7.01 12.37
10/23/2022 4:00:00 PM 11.6 52.88 0.503 8.35 6.72 12.29
10/23/2022 4:15:00 PM 11.63 52.934 0.504 8.35 6.79 12.1
10/23/2022 4:30:00 PM 11.66 52.988 0.504 8.33 6.81 11.92
10/23/2022 4:45:00 PM 11.7 53.06 0.504 8.33 6.79 11.79
10/23/2022 5:00:00 PM 11.73 53.114 0.504 8.32 6.85 11.72
10/23/2022 5:15:00 PM 11.75 53.15 0.504 8.31 6.95 11.53
10/23/2022 5:30:00 PM 11.76 53.168 0.505 8.29 6.79 11.34
10/23/2022 5:45:00 PM 11.77 53.186 0.504 8.27 7.05 11.17
10/23/2022 6:00:00 PM 11.79 53.222 0.504 8.26 6.88 10.95
10/23/2022 6:15:00 PM 11.8 53.24 0.504 8.24 7.09 10.82
10/23/2022 6:30:00 PM 11.81 53.258 0.504 8.21 7.33 10.59
10/23/2022 6:45:00 PM 11.83 53.294 0.505 8.19 7.2 10.53
10/23/2022 7:00:00 PM 11.85 53.33 0.505 8.18 7.13 10.41
10/23/2022 7:15:00 PM 11.88 53.384 0.505 8.16 7.19 10.29
10/23/2022 7:30:00 PM 11.91 53.438 0.505 8.14 7.4 10.18
10/23/2022 7:45:00 PM 11.95 53.51 0.501 8.12 7.74 10.08
10/23/2022 8:00:00 PM 11.99 53.582 0.496 8.11 7.97 10.01
10/23/2022 8:15:00 PM 12.04 53.672 0.492 8.11 7.83 9.91
10/23/2022 8:30:00 PM 12.08 53.744 0.488 8.09 8.44 9.72
10/23/2022 8:45:00 PM 12.13 53.834 0.489 8.06 8.03 9.75
10/23/2022 9:00:00 PM 12.16 53.888 0.488 8.05 8.53 9.71
10/23/2022 9:15:00 PM 12.2 53.96 0.488 8.03 7.79 9.6
10/23/2022 9:30:00 PM 12.23 54.014 0.488 8.02 7.71 9.33
10/23/2022 9:45:00 PM 12.26 54.068 0.487 8 8.11 9.16
10/23/2022 10:00:00 PM 12.28 54.104 0.487 7.96 7.79 9.37
10/23/2022 10:15:00 PM 12.31 54.158 0.487 7.98 8.5 9.41
10/23/2022 10:30:00 PM 12.33 54.194 0.487 7.96 9.26 9.38
10/23/2022 10:45:00 PM 12.35 54.23 0.487 7.93 9.07 9.33
10/23/2022 11:00:00 PM 12.37 54.266 0.487 7.93 8.99 9.31
10/23/2022 11:15:00 PM 12.39 54.302 0.487 7.92 8.92 9.24
10/23/2022 11:30:00 PM 12.41 54.338 0.487 7.91 8.71 9.26
10/23/2022 11:45:00 PM 12.43 54.374 0.485 7.93 8.08 9.31
10/24/2022 12:00:00 AM 12.45 54.41 0.479 7.92 8.63 9.37
10/24/2022 12:15:00 AM 12.46 54.428 0.47 7.92 9.91 9.39
10/24/2022 12:30:00 AM 12.46 54.428 0.46 7.92 10.59 9.51
10/24/2022 12:45:00 AM 12.45 54.41 0.454 7.9 12.13 9.49
10/24/2022 1:00:00 AM 12.43 54.374 0.45 7.88 14 9.37
10/24/2022 1:15:00 AM 12.42 54.356 0.449 7.85 15.62 9.39
10/24/2022 1:30:00 AM 12.42 54.356 0.449 7.85 18.55 9.34
10/24/2022 1:45:00 AM 12.4 54.32 0.449 7.84 15.36 9.37
10/24/2022 2:00:00 AM 12.38 54.284 0.447 7.82 15.56 9.36
10/24/2022 2:15:00 AM 12.36 54.248 0.444 7.81 17.37 9.34
10/24/2022 2:30:00 AM 12.34 54.212 0.443 7.8 18.79 9.33
10/24/2022 2:45:00 AM 12.31 54.158 0.442 7.79 18.06 9.35
10/24/2022 3:00:00 AM 12.29 54.122 0.441 7.79 17.08 9.35
10/24/2022 3:15:00 AM 12.27 54.086 0.44 7.78 18.72 9.36
10/24/2022 3:30:00 AM 12.25 54.05 0.44 7.77 20.37 9.35
10/24/2022 3:45:00 AM 12.23 54.014 0.439 7.77 22.77 9.35
10/24/2022 4:00:00 AM 12.21 53.978 0.439 7.76 20.33 9.33
10/24/2022 4:15:00 AM 12.19 53.942 0.44 7.76 22.86 9.34
10/24/2022 4:30:00 AM 12.17 53.906 0.442 7.76 23.38 9.33
10/24/2022 4:45:00 AM 12.16 53.888 0.445 7.75 19.74 9.33
10/24/2022 5:00:00 AM 12.15 53.87 0.447 7.75 17.65 9.3
10/24/2022 5:15:00 AM 12.14 53.852 0.448 7.75 17.46 9.29
10/24/2022 5:30:00 AM 12.13 53.834 0.446 7.75 19.5 9.28
10/24/2022 5:45:00 AM 12.13 53.834 0.441 7.77 22.26 9.27
10/24/2022 6:00:00 AM 12.12 53.816 0.434 7.74 24.78 9.28
10/24/2022 6:15:00 AM 12.11 53.798 0.427 7.73 28.22 9.27
10/24/2022 6:30:00 AM 12.1 53.78 0.421 7.72 29.72 9.29
10/24/2022 6:45:00 AM 12.09 53.762 0.416 7.71 27.24 9.28
10/24/2022 7:00:00 AM 12.08 53.744 0.413 7.71 33.1 9.27
10/24/2022 7:15:00 AM 12.07 53.726 0.412 7.71 32.38 9.25
10/24/2022 7:30:00 AM 12.07 53.726 0.41 7.7 30.24 9.24
10/24/2022 7:45:00 AM 12.07 53.726 0.41 7.69 26.19 9.25
10/24/2022 8:00:00 AM 12.07 53.726 0.413 7.7 26.09 9.22
10/24/2022 8:15:00 AM 12.08 53.744 0.416 7.69 27.17 9.23
10/24/2022 8:30:00 AM 12.09 53.762 0.419 7.7 28.16 9.25
10/24/2022 8:45:00 AM 12.11 53.798 0.421 7.71 22.47 9.29
10/24/2022 9:00:00 AM 12.13 53.834 0.42 7.72 20.45 9.39
10/24/2022 9:15:00 AM 12.15 53.87 0.42 7.72 20.99 9.46
10/24/2022 9:30:00 AM 12.2 53.96 0.418 7.72 27.31 9.58
10/24/2022 9:45:00 AM 12.25 54.05 0.417 7.73 20.95 9.69
10/24/2022 10:00:00 AM 12.28 54.104 0.415 7.75 18.79 9.73
10/24/2022 10:15:00 AM 12.3 54.14 0.413 7.74 18.05 9.7
10/24/2022 10:30:00 AM 12.33 54.194 0.411 7.75 17.08 9.8
10/24/2022 10:45:00 AM 12.39 54.302 0.408 7.75 19.74 9.92
10/24/2022 11:00:00 AM 12.45 54.41 0.406 7.77 17.44 10.05
10/24/2022 11:15:00 AM 12.54 54.572 0.403 7.78 17.97 10.18
10/24/2022 11:30:00 AM 12.64 54.752 0.4 7.79 16.62 10.31
10/24/2022 11:45:00 AM 12.72 54.896 0.397 7.81 16.15 10.39
10/24/2022 12:00:00 PM 12.79 55.022 0.388 7.81 15.81 10.48
10/24/2022 12:15:00 PM 12.81 55.058 0.382 7.83 16.03 10.43
10/24/2022 12:30:00 PM 12.83 55.094 0.376 7.81 17.15 10.39
10/24/2022 12:45:00 PM 12.87 55.166 0.371 7.79 16.53 10.42
10/24/2022 1:00:00 PM 12.91 55.238 0.366 7.69 18.33 10.43
10/24/2022 1:15:00 PM 12.96 55.328 0.361 7.82 16.5 10.46
10/24/2022 1:30:00 PM 12.98 55.364 0.358 7.82 16.25 10.4
10/24/2022 1:45:00 PM 13 55.4 0.356 7.83 16.87 10.34
10/24/2022 2:00:00 PM 13.05 55.49 0.354 7.82 16.28 10.33
10/24/2022 2:15:00 PM 13.1 55.58 0.353 7.81 15.49 10.33
10/24/2022 2:30:00 PM 13.16 55.688 0.353 7.81 16.45 10.38
10/24/2022 2:45:00 PM 13.23 55.814 0.353 7.82 15.66 10.38
10/24/2022 3:00:00 PM 13.27 55.886 0.353 7.81 15.68 10.33
10/24/2022 3:15:00 PM 13.34 56.012 0.354 7.82 16.04 10.33
10/24/2022 3:30:00 PM 13.4 56.12 0.354 7.82 15.46 10.31
10/24/2022 3:45:00 PM 13.45 56.21 0.356 7.82 16.07 10.25
10/24/2022 4:00:00 PM 13.51 56.318 0.357 7.7 15.5 10.24
10/24/2022 4:15:00 PM 13.56 56.408 0.359 7.83 14.72 10.2
10/24/2022 4:30:00 PM 13.59 56.462 0.361 7.81 15.51 10.11
10/24/2022 4:45:00 PM 13.63 56.534 0.364 7.81 15.39 10.02
10/24/2022 5:00:00 PM 13.68 56.624 0.366 7.81 15.1 9.97
10/24/2022 5:15:00 PM 13.72 56.696 0.369 7.82 14.75 9.91
10/24/2022 5:30:00 PM 13.76 56.768 0.372 7.82 14.78 9.83
10/24/2022 5:45:00 PM 13.79 56.822 0.375 7.81 14.63 9.75
10/24/2022 6:00:00 PM 13.81 56.858 0.378 7.8 14.78 9.66
10/24/2022 6:15:00 PM 13.83 56.894 0.381 7.79 14.99 9.58
10/24/2022 6:30:00 PM 13.84 56.912 0.386 7.8 14.67 9.5
10/24/2022 6:45:00 PM 13.84 56.912 0.389 7.79 14.42 9.44
10/24/2022 7:00:00 PM 13.84 56.912 0.392 7.78 14.82 9.38
10/24/2022 7:15:00 PM 13.83 56.894 0.395 7.79 15.24 9.33
10/24/2022 7:30:00 PM 13.82 56.876 0.398 7.78 15.82 9.29
10/24/2022 7:45:00 PM 13.81 56.858 0.4 7.65 14.56 9.24
10/24/2022 8:00:00 PM 13.8 56.84 0.402 7.76 15.52 9.21
10/24/2022 8:15:00 PM 13.79 56.822 0.404 7.76 15.32 9.18
10/24/2022 8:30:00 PM 13.78 56.804 0.405 7.75 15.31 9.16
10/24/2022 8:45:00 PM 13.77 56.786 0.406 7.76 16.65 9.14
10/24/2022 9:00:00 PM 13.77 56.786 0.406 7.74 16.1 9.12
10/24/2022 9:15:00 PM 13.75 56.75 0.406 7.73 15.95 9.1
10/24/2022 9:30:00 PM 13.73 56.714 0.406 7.75 15.7 9.09
10/24/2022 9:45:00 PM 13.71 56.678 0.406 7.74 15.19 9.08
10/24/2022 10:00:00 PM 13.7 56.66 0.406 7.72 15.73 9.07
10/24/2022 10:15:00 PM 13.69 56.642 0.406 7.72 15.91 9.05
10/24/2022 10:30:00 PM 13.69 56.642 0.406 7.72 16.58 9.04
10/24/2022 10:45:00 PM 13.68 56.624 0.406 7.71 15.7 9.05
10/24/2022 11:00:00 PM 13.66 56.588 0.406 7.72 15.91 9.05
10/24/2022 11:15:00 PM 13.65 56.57 0.406 7.72 16.07 9.04
10/24/2022 11:30:00 PM 13.64 56.552 0.407 7.7 15.72 9.04
10/24/2022 11:45:00 PM 13.62 56.516 0.407 7.69 16.15 9.03
10/25/2022 12:00:00 AM 13.6 56.48 0.408 7.69 16.37 9.04
10/25/2022 12:15:00 AM 13.58 56.444 0.409 7.7 16.03 9.04
10/25/2022 12:30:00 AM 13.56 56.408 0.409 7.69 16.76 9.03
10/25/2022 12:45:00 AM 13.54 56.372 0.41 7.55 16.04 9.04
10/25/2022 1:00:00 AM 13.52 56.336 0.411 7.68 16.66 9.04
10/25/2022 1:15:00 AM 13.5 56.3 0.412 7.68 16.9 9.04
10/25/2022 1:30:00 AM 13.48 56.264 0.413 7.69 15.35 9.05
10/25/2022 1:45:00 AM 13.46 56.228 0.414 7.68 15.67 9.05
10/25/2022 2:00:00 AM 13.43 56.174 0.415 7.67 15.39 9.06
10/25/2022 2:15:00 AM 13.42 56.156 0.416 7.67 15.11 9.07
10/25/2022 2:30:00 AM 13.4 56.12 0.418 7.68 14.6 9.08
10/25/2022 2:45:00 AM 13.38 56.084 0.419 7.68 14.95 9.08
10/25/2022 3:00:00 AM 13.36 56.048 0.42 7.7 15 9.08
10/25/2022 3:15:00 AM 13.34 56.012 0.422 7.67 15.92 9.08
10/25/2022 3:30:00 AM 13.33 55.994 0.423 7.67 14.98 9.1
10/25/2022 3:45:00 AM 13.31 55.958 0.425 7.46 15.91 9.11
10/25/2022 4:00:00 AM 13.3 55.94 0.427 7.67 15.43 9.11
10/25/2022 4:15:00 AM 13.28 55.904 0.428 7.69 15.1 9.12
10/25/2022 4:30:00 AM 13.27 55.886 0.43 7.67 15.38 9.13
10/25/2022 4:45:00 AM 13.26 55.868 0.431 7.67 15.27 9.13
10/25/2022 5:00:00 AM 13.24 55.832 0.433 7.67 14.71 9.14
10/25/2022 5:15:00 AM 13.23 55.814 0.435 7.66 15.67 9.14
10/25/2022 5:30:00 AM 13.22 55.796 0.436 7.67 17.51 9.16
10/25/2022 5:45:00 AM 13.21 55.778 0.437 7.68 15.33 9.16
10/25/2022 6:00:00 AM 13.2 55.76 0.439 7.68 14.91 9.16
10/25/2022 6:15:00 AM 13.19 55.742 0.441 7.67 14.95 9.17
10/25/2022 6:30:00 AM 13.19 55.742 0.442 7.67 15.74 9.17
10/25/2022 6:45:00 AM 13.18 55.724 0.443 7.67 15.46 9.18
10/25/2022 7:00:00 AM 13.17 55.706 0.444 7.67 15.41 9.17
10/25/2022 7:15:00 AM 13.16 55.688 0.446 7.68 15.6 9.18
10/25/2022 7:30:00 AM 13.15 55.67 0.447 7.67 17.22 9.19
10/25/2022 7:45:00 AM 13.15 55.67 0.449 7.67 15.37 9.2
10/25/2022 8:00:00 AM 13.15 55.67 0.45 7.67 14.99 9.25
10/25/2022 8:15:00 AM 13.15 55.67 0.451 7.66 14.42 9.28
10/25/2022 8:30:00 AM 13.17 55.706 0.452 7.68 14.59 9.34
10/25/2022 8:45:00 AM 13.18 55.724 0.453 7.53 14.12 9.41
10/25/2022 9:00:00 AM 13.22 55.796 0.454 7.7 13.81 9.53
10/25/2022 9:15:00 AM 13.25 55.85 0.454 7.73 13.72 9.64
10/25/2022 9:30:00 AM 13.3 55.94 0.455 7.76 13.79 9.75
10/25/2022 9:45:00 AM 13.35 56.03 0.455 7.78 13.63 9.89
10/25/2022 10:00:00 AM 13.39 56.102 0.456 7.79 13.82 9.98
10/25/2022 10:15:00 AM 13.44 56.192 0.457 7.8 13.66 10.09
10/25/2022 10:30:00 AM 13.51 56.318 0.457 7.83 13.81 10.2
10/25/2022 10:45:00 AM 13.57 56.426 0.458 7.85 13.55 10.33
10/25/2022 11:00:00 AM 13.65 56.57 0.458 7.89 13.71 10.44
10/25/2022 11:15:00 AM 13.72 56.696 0.458 7.9 13.29 10.54
10/25/2022 11:30:00 AM 13.75 56.75 0.459 7.92 13.65 10.58
10/25/2022 11:45:00 AM 13.8 56.84 0.46 7.8 13.6 10.6
10/25/2022 12:00:00 PM 13.86 56.948 0.46 7.95 13.4 10.68
10/25/2022 12:15:00 PM 13.9 57.02 0.46 7.96 13.17 10.7
10/25/2022 12:30:00 PM 13.95 57.11 0.461 7.97 13.77 10.71
10/25/2022 12:45:00 PM 13.99 57.182 0.462 7.99 13.58 10.72
10/25/2022 1:00:00 PM 14.04 57.272 0.462 8.01 13.63 10.76
10/25/2022 1:15:00 PM 14.08 57.344 0.462 8.02 13.26 10.76
10/25/2022 1:30:00 PM 14.12 57.416 0.463 8.02 13.59 10.71
10/25/2022 1:45:00 PM 14.16 57.488 0.464 8.04 13.69 10.73
10/25/2022 2:00:00 PM 14.2 57.56 0.464 8.03 16.09 10.7
10/25/2022 2:15:00 PM 14.23 57.614 0.464 8.04 14.11 10.66
10/25/2022 2:30:00 PM 14.25 57.65 0.465 8.04 13.66 10.6
10/25/2022 2:45:00 PM 14.26 57.668 0.466 7.93 14.25 10.53
10/25/2022 3:00:00 PM 14.28 57.704 0.466 8.03 13.94 10.44
10/25/2022 3:15:00 PM 14.31 57.758 0.466 8.04 13.81 10.43
10/25/2022 3:30:00 PM 14.34 57.812 0.466 8.03 13.87 10.4
10/25/2022 3:45:00 PM 14.37 57.866 0.467 8.04 13.66 10.35
10/25/2022 4:00:00 PM 14.38 57.884 0.468 8.04 13.78 10.26
10/25/2022 4:15:00 PM 14.4 57.92 0.468 8.03 13.86 10.15
10/25/2022 4:30:00 PM 14.43 57.974 0.468 8.02 13.68 10.08
10/25/2022 4:45:00 PM 14.46 58.028 0.469 8.01 13.92 10
10/25/2022 5:00:00 PM 14.49 58.082 0.469 8 13.53 9.95
10/25/2022 5:15:00 PM 14.52 58.136 0.469 7.99 13.55 9.86
10/25/2022 5:30:00 PM 14.54 58.172 0.47 7.98 13.68 9.77
10/25/2022 5:45:00 PM 14.56 58.208 0.47 7.99 13.76 9.68
10/25/2022 6:00:00 PM 14.59 58.262 0.47 7.96 13.85 9.57
10/25/2022 6:15:00 PM 14.61 58.298 0.471 7.95 14.01 9.47
10/25/2022 6:30:00 PM 14.62 58.316 0.471 7.93 13.64 9.38
10/25/2022 6:45:00 PM 14.64 58.352 0.471 7.92 13.9 9.29
10/25/2022 7:00:00 PM 14.66 58.388 0.471 7.91 14.03 9.22
10/25/2022 7:15:00 PM 14.67 58.406 0.472 7.91 14.29 9.16
10/25/2022 7:30:00 PM 14.68 58.424 0.472 7.89 14.82 9.11
10/25/2022 7:45:00 PM 14.69 58.442 0.472 7.88 13.96 9.07
10/25/2022 8:00:00 PM 14.7 58.46 0.472 7.87 15.05 9.02
10/25/2022 8:15:00 PM 14.7 58.46 0.473 7.85 14.47 8.99
10/25/2022 8:30:00 PM 14.71 58.478 0.473 7.87 14.4 8.96
10/25/2022 8:45:00 PM 14.71 58.478 0.474 7.85 14.09 8.93
10/25/2022 9:00:00 PM 14.7 58.46 0.474 7.85 14.26 8.92
10/25/2022 9:15:00 PM 14.7 58.46 0.475 7.85 14.28 8.89
10/25/2022 9:30:00 PM 14.69 58.442 0.475 7.85 14.38 8.88
10/25/2022 9:45:00 PM 14.67 58.406 0.475 7.84 14.43 8.87
10/25/2022 10:00:00 PM 14.66 58.388 0.475 7.83 14.35 8.86
10/25/2022 10:15:00 PM 14.65 58.37 0.476 7.83 14.55 8.85
10/25/2022 10:30:00 PM 14.64 58.352 0.476 7.83 14.79 8.84
10/25/2022 10:45:00 PM 14.63 58.334 0.477 7.82 15.18 8.83
10/25/2022 11:00:00 PM 14.62 58.316 0.477 7.82 15.97 8.84
10/25/2022 11:15:00 PM 14.6 58.28 0.477 7.83 15.09 8.83
10/25/2022 11:30:00 PM 14.59 58.262 0.477 7.83 14.77 8.84
10/25/2022 11:45:00 PM 14.57 58.226 0.477 7.83 14.43 8.8
10/26/2022 12:00:00 AM 14.55 58.19 0.478 7.83 14.74 8.83
10/26/2022 12:15:00 AM 14.53 58.154 0.478 7.73 14.69 8.81
10/26/2022 12:30:00 AM 14.51 58.118 0.479 7.83 15.05 8.79
10/26/2022 12:45:00 AM 14.48 58.064 0.479 7.81 14.75 8.81
10/26/2022 1:00:00 AM 14.46 58.028 0.479 7.82 15.34 8.76
10/26/2022 1:15:00 AM 14.43 57.974 0.479 7.82 15.16 8.84
10/26/2022 1:30:00 AM 14.4 57.92 0.48 7.82 14.9 8.8
10/26/2022 1:45:00 AM 14.37 57.866 0.48 7.82 15.75 8.83
10/26/2022 2:00:00 AM 14.35 57.83 0.48 7.82 15.35 8.86
10/26/2022 2:15:00 AM 14.32 57.776 0.48 7.82 15 8.88
10/26/2022 2:30:00 AM 14.29 57.722 0.481 7.81 15.27 8.87
10/26/2022 2:45:00 AM 14.26 57.668 0.481 7.82 14.82 8.83
10/26/2022 3:00:00 AM 14.23 57.614 0.481 7.81 14.63 8.85
10/26/2022 3:15:00 AM 14.21 57.578 0.481 7.81 14.9 8.87
10/26/2022 3:30:00 AM 14.18 57.524 0.481 7.8 15.63 8.87
10/26/2022 3:45:00 AM 14.15 57.47 0.482 7.81 16.98 8.93
10/26/2022 4:00:00 AM 14.13 57.434 0.482 7.82 16.93 8.94
10/26/2022 4:15:00 AM 14.1 57.38 0.482 7.76 16.73 8.94
10/26/2022 4:30:00 AM 14.08 57.344 0.482 7.82 17.69 8.95
10/26/2022 4:45:00 AM 14.06 57.308 0.481 7.81 18.57 8.96
10/26/2022 5:00:00 AM 14.04 57.272 0.481 7.69 16.86 8.96
10/26/2022 5:15:00 AM 14.02 57.236 0.481 7.8 16.83 8.95
10/26/2022 5:30:00 AM 14 57.2 0.481 7.8 16.03 8.96
10/26/2022 5:45:00 AM 13.99 57.182 0.481 7.81 16.27 8.95
10/26/2022 6:00:00 AM 13.97 57.146 0.481 7.8 16.08 8.95
10/26/2022 6:15:00 AM 13.96 57.128 0.481 7.65 16.61 8.95
10/26/2022 6:30:00 AM 13.94 57.092 0.481 7.8 16.38 8.96
10/26/2022 6:45:00 AM 13.93 57.074 0.481 7.79 16.6 8.95
10/26/2022 7:00:00 AM 13.92 57.056 0.48 7.79 15.96 8.95
10/26/2022 7:15:00 AM 13.9 57.02 0.48 7.79 15.87 8.95
10/26/2022 7:30:00 AM 13.89 57.002 0.481 7.78 16.2 8.95
10/26/2022 7:45:00 AM 13.88 56.984 0.48 7.79 16.13 8.97
10/26/2022 8:00:00 AM 13.87 56.966 0.48 7.79 16.04 8.96
10/26/2022 8:15:00 AM 13.87 56.966 0.48 7.79 16.83 9.01
10/26/2022 8:30:00 AM 13.88 56.984 0.479 7.79 16.12 9.07
10/26/2022 8:45:00 AM 13.9 57.02 0.479 7.8 15.34 9.18
10/26/2022 9:00:00 AM 13.9 57.02 0.478 7.81 15.38 9.22
10/26/2022 9:15:00 AM 13.9 57.02 0.479 7.81 15.55 9.23
10/26/2022 9:30:00 AM 13.91 57.038 0.479 7.83 16.31 9.3
10/26/2022 9:45:00 AM 13.94 57.092 0.479 7.83 15.71 9.39
10/26/2022 10:00:00 AM 13.97 57.146 0.479 7.85 15.85 9.48
10/26/2022 10:15:00 AM 14.02 57.236 0.479 7.87 14.58 9.66
10/26/2022 10:30:00 AM 14.07 57.326 0.479 7.89 24.8 9.82
10/26/2022 10:45:00 AM 14.11 57.398 0.48 7.91 15.08 9.94
10/26/2022 11:00:00 AM 14.15 57.47 0.48 7.93 15.33 10.08
10/26/2022 11:15:00 AM 14.24 57.632 0.48 7.96 15.16 10.27
10/26/2022 11:30:00 AM 14.31 57.758 0.479 7.97 15.22 10.38
10/26/2022 11:45:00 AM 14.38 57.884 0.479 7.99 14.87 10.5
10/26/2022 12:00:00 PM 14.45 58.01 0.479 8.02 15.05 10.59
10/26/2022 12:15:00 PM 14.57 58.226 0.479 8.04 14.83 10.72
10/26/2022 12:30:00 PM 14.6 58.28 0.479 8.04 14.8 10.68
10/26/2022 12:45:00 PM 14.68 58.424 0.479 8.06 15.39 10.8
10/26/2022 1:00:00 PM 14.73 58.514 0.479 8.08 15.05 10.8
10/26/2022 1:15:00 PM 14.79 58.622 0.478 8.09 14.74 10.85
10/26/2022 1:30:00 PM 14.84 58.712 0.478 8.1 14.56 10.86
10/26/2022 1:45:00 PM 14.95 58.91 0.478 8.12 14.94 10.95
10/26/2022 2:00:00 PM 14.99 58.982 0.478 8.13 14.79 10.96
10/26/2022 2:15:00 PM 15.01 59.018 0.478 8.13 14.91 10.79
10/26/2022 2:30:00 PM 15.02 59.036 0.478 8.12 14.93 10.7
10/26/2022 2:45:00 PM 15.07 59.126 0.478 8.13 15.16 10.74
10/26/2022 3:00:00 PM 15.13 59.234 0.478 8.02 14.88 10.72
10/26/2022 3:15:00 PM 15.17 59.306 0.477 8.14 14.68 10.72
10/26/2022 3:30:00 PM 15.21 59.378 0.477 8.14 15.39 10.7
10/26/2022 3:45:00 PM 15.25 59.45 0.476 8.15 14.87 10.68
10/26/2022 4:00:00 PM 15.26 59.468 0.476 8.14 14.62 10.55
10/26/2022 4:15:00 PM 15.28 59.504 0.476 8.15 14.6 10.48
10/26/2022 4:30:00 PM 15.28 59.504 0.476 8.13 14.73 10.32
10/26/2022 4:45:00 PM 15.29 59.522 0.476 8.11 14.6 10.22
10/26/2022 5:00:00 PM 15.28 59.504 0.475 8.11 14.55 10.07
10/26/2022 5:15:00 PM 15.27 59.486 0.475 8.1 14.78 9.97
10/26/2022 5:30:00 PM 15.26 59.468 0.475 8.07 15 9.83
10/26/2022 5:45:00 PM 15.25 59.45 0.474 8.05 15.55 9.69
10/26/2022 6:00:00 PM 15.24 59.432 0.475 8.03 17.03 9.51
10/26/2022 6:15:00 PM 15.24 59.432 0.476 8 16.27 9.34
10/26/2022 6:30:00 PM 15.23 59.414 0.476 7.98 16.42 9.23
10/26/2022 6:45:00 PM 15.22 59.396 0.476 7.96 16.76 9.07
10/26/2022 7:00:00 PM 15.22 59.396 0.477 7.94 17.02 8.98
10/26/2022 7:15:00 PM 15.24 59.432 0.478 7.94 17.69 8.89
10/26/2022 7:30:00 PM 15.25 59.45 0.478 7.92 17.33 8.83
10/26/2022 7:45:00 PM 15.26 59.468 0.478 7.91 17.07 8.76
10/26/2022 8:00:00 PM 15.26 59.468 0.479 7.9 16.64 8.72
10/26/2022 8:15:00 PM 15.26 59.468 0.479 7.9 16.85 8.69
10/26/2022 8:30:00 PM 15.25 59.45 0.48 7.88 16.05 8.65
10/26/2022 8:45:00 PM 15.23 59.414 0.48 7.88 16.22 8.63
10/26/2022 9:00:00 PM 15.21 59.378 0.481 7.88 15.85 8.57
10/26/2022 9:15:00 PM 15.19 59.342 0.481 7.87 15.74 8.61
10/26/2022 9:30:00 PM 15.15 59.27 0.481 7.71 16.28 8.59
10/26/2022 9:45:00 PM 15.11 59.198 0.482 7.87 15.74 8.55
10/26/2022 10:00:00 PM 15.04 59.072 0.482 7.87 15.78 8.57
10/26/2022 10:15:00 PM 14.98 58.964 0.482 7.86 16.35 8.59
10/26/2022 10:30:00 PM 14.91 58.838 0.483 7.86 15.69 8.58
10/26/2022 10:45:00 PM 14.84 58.712 0.483 7.85 16.02 8.53
10/26/2022 11:00:00 PM 14.76 58.568 0.483 7.85 16.27 8.62
10/26/2022 11:15:00 PM 14.69 58.442 0.484 7.85 16.48 8.64
10/26/2022 11:30:00 PM 14.61 58.298 0.484 7.85 15.97 8.59
10/26/2022 11:45:00 PM 14.54 58.172 0.484 7.83 16.24 8.64
10/27/2022 12:00:00 AM 14.45 58.01 0.485 7.85 16.14 8.68
10/27/2022 12:15:00 AM 14.37 57.866 0.485 7.85 16.19 8.68
10/27/2022 12:30:00 AM 14.29 57.722 0.485 7.85 16.1 8.69
10/27/2022 12:45:00 AM 14.2 57.56 0.485 7.84 16.1 8.75
10/27/2022 1:00:00 AM 14.11 57.398 0.485 7.85 16 8.76
10/27/2022 1:15:00 AM 14.02 57.236 0.485 7.84 16.44 8.73
10/27/2022 1:30:00 AM 13.93 57.074 0.485 7.83 16.12 8.84
10/27/2022 1:45:00 AM 13.85 56.93 0.485 7.83 15.89 8.82
10/27/2022 2:00:00 AM 13.77 56.786 0.486 7.83 16.3 8.84
10/27/2022 2:15:00 AM 13.69 56.642 0.485 7.84 16.04 8.83
10/27/2022 2:30:00 AM 13.61 56.498 0.485 7.84 15.99 8.92
10/27/2022 2:45:00 AM 13.53 56.354 0.485 7.83 16.24 8.97
10/27/2022 3:00:00 AM 13.46 56.228 0.485 7.83 16.49 8.99
10/27/2022 3:15:00 AM 13.38 56.084 0.485 7.84 16.31 9.05
10/27/2022 3:30:00 AM 13.34 56.012 0.485 7.83 15.92 9.04
10/27/2022 3:45:00 AM 13.29 55.922 0.485 7.83 16.1 9.04
10/27/2022 4:00:00 AM 13.22 55.796 0.485 7.83 16.54 9.1
10/27/2022 4:15:00 AM 13.15 55.67 0.485 7.84 16.14 9.12
10/27/2022 4:30:00 AM 13.1 55.58 0.485 7.73 17.02 9.13
10/27/2022 4:45:00 AM 13.04 55.472 0.484 7.83 16.38 9.14
10/27/2022 5:00:00 AM 12.97 55.346 0.485 7.84 16.17 9.18
10/27/2022 5:15:00 AM 12.91 55.238 0.485 7.83 16.83 9.21
10/27/2022 5:30:00 AM 12.86 55.148 0.485 7.83 16.53 9.17
10/27/2022 5:45:00 AM 12.81 55.058 0.485 7.84 15.77 9.24
10/27/2022 6:00:00 AM 12.79 55.022 0.485 7.84 16.46 9.26
10/27/2022 6:15:00 AM 12.76 54.968 0.485 7.83 16.01 9.27
10/27/2022 6:30:00 AM 12.73 54.914 0.486 7.83 16.47 9.27
10/27/2022 6:45:00 AM 12.7 54.86 0.486 7.83 16.08 9.26
10/27/2022 7:00:00 AM 12.65 54.77 0.486 7.85 15.95 9.31
10/27/2022 7:15:00 AM 12.61 54.698 0.486 7.82 16.39 9.33
10/27/2022 7:30:00 AM 12.57 54.626 0.486 7.83 16.25 9.32
10/27/2022 7:45:00 AM 12.54 54.572 0.486 7.85 15.74 9.36
10/27/2022 8:00:00 AM 12.51 54.518 0.486 7.85 15.98 9.41
10/27/2022 8:15:00 AM 12.47 54.446 0.487 7.86 15.72 9.43
10/27/2022 8:30:00 AM 12.44 54.392 0.487 7.86 15.57 9.51
10/27/2022 8:45:00 AM 12.43 54.374 0.487 7.86 15.24 9.6
10/27/2022 9:00:00 AM 12.38 54.284 0.487 7.87 15.63 9.64
10/27/2022 9:15:00 AM 12.32 54.176 0.487 7.83 15.02 9.74
10/27/2022 9:30:00 AM 12.26 54.068 0.488 7.88 15.16 9.79
10/27/2022 9:45:00 AM 12.21 53.978 0.488 7.89 15.51 9.88
10/27/2022 10:00:00 AM 12.17 53.906 0.488 7.9 15.55 9.93
10/27/2022 10:15:00 AM 12.19 53.942 0.488 7.91 15.46 10
10/27/2022 10:30:00 AM 12.2 53.96 0.489 7.92 15.34 10.11
10/27/2022 10:45:00 AM 12.21 53.978 0.489 7.94 14.8 10.26
10/27/2022 11:00:00 AM 12.21 53.978 0.489 7.94 15.13 10.36
10/27/2022 11:15:00 AM 12.25 54.05 0.489 7.98 15.03 10.45
10/27/2022 11:30:00 AM 12.36 54.248 0.489 7.98 15.53 10.57
10/27/2022 11:45:00 AM 12.46 54.428 0.489 7.98 14.68 10.63
10/27/2022 12:00:00 PM 12.56 54.608 0.489 7.88 14.76 10.77
10/27/2022 12:15:00 PM 12.68 54.824 0.489 8.02 18.47 10.69
10/27/2022 12:30:00 PM 12.76 54.968 0.489 8.04 15.49 11
10/27/2022 12:45:00 PM 12.85 55.13 0.489 8.05 14.92 10.95
10/27/2022 1:00:00 PM 12.93 55.274 0.489 8.08 14.7 11.1
10/27/2022 1:15:00 PM 13.03 55.454 0.489 8.07 14.75 11.14
10/27/2022 1:30:00 PM 13.12 55.616 0.489 8.08 14.91 11.06
10/27/2022 1:45:00 PM 13.25 55.85 0.489 8.1 14.59 11.12
10/27/2022 2:00:00 PM 13.38 56.084 0.488 8.11 14.72 10.9
10/27/2022 2:15:00 PM 13.48 56.264 0.489 8.13 14.59 11.22
10/27/2022 2:30:00 PM 13.6 56.48 0.489 8.15 15.01 10.83
10/27/2022 2:45:00 PM 13.64 56.552 0.489 8.16 14.59 11.07
10/27/2022 3:00:00 PM 13.64 56.552 0.489 8.15 15.17 11.08
10/27/2022 3:15:00 PM 13.67 56.606 0.489 8.15 15.06 11.04
10/27/2022 3:30:00 PM 13.75 56.75 0.49 8.17 14.59 10.91
10/27/2022 3:45:00 PM 13.81 56.858 0.49 8.16 15.06 10.78
10/27/2022 4:00:00 PM 13.85 56.93 0.49 8.16 14.86 10.63
10/27/2022 4:15:00 PM 13.88 56.984 0.49 8.16 15.15 10.67
10/27/2022 4:30:00 PM 13.89 57.002 0.49 8.16 14.76 10.65
10/27/2022 4:45:00 PM 13.9 57.02 0.49 8.15 15.76 10.5
10/27/2022 5:00:00 PM 13.91 57.038 0.491 8.16 14.83 10.34
10/27/2022 5:15:00 PM 13.9 57.02 0.491 8.14 14.69 10.25
10/27/2022 5:30:00 PM 13.86 56.948 0.491 8.13 15.14 10.17
10/27/2022 5:45:00 PM 13.81 56.858 0.491 8.11 15.11 10.03
10/27/2022 6:00:00 PM 13.74 56.732 0.491 8.11 14.71 9.88
10/27/2022 6:15:00 PM 13.66 56.588 0.492 7.96 15.04 9.79
10/27/2022 6:30:00 PM 13.58 56.444 0.492 8.06 15.15 9.7
10/27/2022 6:45:00 PM 13.49 56.282 0.492 8.05 15.34 9.63
10/27/2022 7:00:00 PM 13.39 56.102 0.493 8.04 15.01 9.58
10/27/2022 7:15:00 PM 13.31 55.958 0.493 8.02 17.06 9.48
10/27/2022 7:30:00 PM 13.21 55.778 0.493 8.01 15.33 9.45
10/27/2022 7:45:00 PM 13.13 55.634 0.493 8.01 15.35 9.3
10/27/2022 8:00:00 PM 13.04 55.472 0.494 7.98 15.35 9.33
10/27/2022 8:15:00 PM 12.96 55.328 0.494 7.97 15.47 9.2
10/27/2022 8:30:00 PM 12.89 55.202 0.494 7.96 15.46 9.19
10/27/2022 8:45:00 PM 12.82 55.076 0.494 7.95 15.45 9.28
10/27/2022 9:00:00 PM 12.76 54.968 0.495 7.95 15.57 9.24
10/27/2022 9:15:00 PM 12.69 54.842 0.495 7.93 15.17 9.26
10/27/2022 9:30:00 PM 12.62 54.716 0.494 7.95 15.17 9.23
10/27/2022 9:45:00 PM 12.57 54.626 0.495 7.93 15.4 9.28
10/27/2022 10:00:00 PM 12.5 54.5 0.495 7.94 15.12 9.28
10/27/2022 10:15:00 PM 12.44 54.392 0.495 7.92 15.42 9.32
10/27/2022 10:30:00 PM 12.36 54.248 0.496 7.92 15.76 9.31
10/27/2022 10:45:00 PM 12.27 54.086 0.496 7.91 15.47 9.27
10/27/2022 11:00:00 PM 12.2 53.96 0.496 7.92 15.47 9.35
10/27/2022 11:15:00 PM 12.11 53.798 0.496 7.91 15.07 9.35
10/27/2022 11:30:00 PM 12.01 53.618 0.497 7.9 15.14 9.39
10/27/2022 11:45:00 PM 11.93 53.474 0.497 7.89 15.1 9.41
10/28/2022 12:00:00 AM 11.83 53.294 0.497 7.89 15.02 9.4
10/28/2022 12:15:00 AM 11.74 53.132 0.498 7.89 15.43 9.5
10/28/2022 12:30:00 AM 11.65 52.97 0.498 7.89 14.96 9.51
10/28/2022 12:45:00 AM 11.56 52.808 0.498 7.89 15.17 9.57
10/28/2022 1:00:00 AM 11.45 52.61 0.499 7.81 15.73 9.62
10/28/2022 1:15:00 AM 11.35 52.43 0.499 7.9 15 9.6
10/28/2022 1:30:00 AM 11.25 52.25 0.499 7.88 15.47 9.68
10/28/2022 1:45:00 AM 11.12 52.016 0.5 7.89 15.23 9.7
10/28/2022 2:00:00 AM 11.02 51.836 0.501 7.85 15.14 9.73
10/28/2022 2:15:00 AM 10.9 51.62 0.501 7.88 15.13 9.73
10/28/2022 2:30:00 AM 10.79 51.422 0.502 7.88 15.76 9.86
10/28/2022 2:45:00 AM 10.66 51.188 0.502 7.88 15.83 9.91
10/28/2022 3:00:00 AM 10.56 51.008 0.502 7.87 15.33 9.9
10/28/2022 3:15:00 AM 10.44 50.792 0.503 7.87 15.27 9.99
10/28/2022 3:30:00 AM 10.32 50.576 0.503 7.87 15.16 10
10/28/2022 3:45:00 AM 10.23 50.414 0.503 7.87 15.07 10.04
10/28/2022 4:00:00 AM 10.13 50.234 0.502 7.86 15.28 10.1
10/28/2022 4:15:00 AM 10.03 50.054 0.503 7.86 15.17 10.15
10/28/2022 4:30:00 AM 9.93 49.874 0.503 7.87 15.69 10.18
10/28/2022 4:45:00 AM 9.82 49.676 0.503 7.88 15.35 10.2
10/28/2022 5:00:00 AM 9.72 49.496 0.504 7.87 15.19 10.22
10/28/2022 5:15:00 AM 9.63 49.334 0.504 7.77 15.17 10.27
10/28/2022 5:30:00 AM 9.54 49.172 0.503 7.85 15 10.25
10/28/2022 5:45:00 AM 9.45 49.01 0.504 7.84 14.98 10.34
10/28/2022 6:00:00 AM 9.38 48.884 0.504 7.84 14.99 10.37
10/28/2022 6:15:00 AM 9.29 48.722 0.504 7.85 15.22 10.41
10/28/2022 6:30:00 AM 9.21 48.578 0.504 7.85 14.98 10.47
10/28/2022 6:45:00 AM 9.14 48.452 0.504 7.87 15.15 10.48
10/28/2022 7:00:00 AM 9.06 48.308 0.505 7.85 15.63 10.5
10/28/2022 7:15:00 AM 8.98 48.164 0.505 7.85 15.47 10.54
10/28/2022 7:30:00 AM 8.91 48.038 0.504 7.84 15.12 10.57
10/28/2022 7:45:00 AM 8.85 47.93 0.505 7.83 15.07 10.58
10/28/2022 8:00:00 AM 8.8 47.84 0.505 7.86 14.96 10.58
10/28/2022 8:15:00 AM 8.76 47.768 0.505 7.88 15.03 10.77
10/28/2022 8:30:00 AM 8.72 47.696 0.505 7.89 15.07 10.83
10/28/2022 8:45:00 AM 8.69 47.642 0.505 7.89 14.74 10.91
10/28/2022 9:00:00 AM 8.67 47.606 0.505 7.86 14.85 11.02
10/28/2022 9:15:00 AM 8.67 47.606 0.505 7.89 15.13 11.09
10/28/2022 9:30:00 AM 8.7 47.66 0.505 7.92 14.72 11.18
10/28/2022 9:45:00 AM 8.73 47.714 0.504 7.93 14.89 11.31
10/28/2022 10:00:00 AM 8.8 47.84 0.504 7.95 14.65 11.42
10/28/2022 10:15:00 AM 8.89 48.002 0.504 7.98 14.59 11.64
10/28/2022 10:30:00 AM 8.98 48.164 0.504 8 14.93 11.62
10/28/2022 10:45:00 AM 9.07 48.326 0.504 8.02 14.51 11.74
10/28/2022 11:00:00 AM 9.16 48.488 0.504 8.04 14.68 11.94
10/28/2022 11:15:00 AM 9.25 48.65 0.503 8.06 14.7 11.96
10/28/2022 11:30:00 AM 9.39 48.902 0.503 8.08 14.38 12.17
10/28/2022 11:45:00 AM 9.48 49.064 0.502 8.1 14.53 12.31
10/28/2022 12:00:00 PM 9.61 49.298 0.502 8.11 14.57 12.46
10/28/2022 12:15:00 PM 9.7 49.46 0.502 8.15 14.31 12.47
10/28/2022 12:30:00 PM 9.8 49.64 0.501 8.16 14.53 12.43
10/28/2022 12:45:00 PM 9.89 49.802 0.501 8.17 14.23 12.53
10/28/2022 1:00:00 PM 10.03 50.054 0.5 8.2 14.2 12.7
10/28/2022 1:15:00 PM 10.17 50.306 0.5 8.21 14.15 12.56
10/28/2022 1:30:00 PM 10.3 50.54 0.499 8.23 14.16 12.76
10/28/2022 1:45:00 PM 10.44 50.792 0.499 8.26 14.26 12.59
10/28/2022 2:00:00 PM 10.55 50.99 0.499 8.25 14.13 12.74
10/28/2022 2:15:00 PM 10.74 51.332 0.498 8.26 14.24 12.78
10/28/2022 2:30:00 PM 10.87 51.566 0.498 8.27 14.09 12.6
10/28/2022 2:45:00 PM 10.94 51.692 0.498 8.28 14.14 12.63
10/28/2022 3:00:00 PM 10.97 51.746 0.499 8.3 14.48 12.53
10/28/2022 3:15:00 PM 11.03 51.854 0.497 8.29 14.31 12.55
10/28/2022 3:30:00 PM 11.09 51.962 0.498 8.16 14.64 12.31
10/28/2022 3:45:00 PM 11.13 52.034 0.497 8.29 14.61 11.97
10/28/2022 4:00:00 PM 11.16 52.088 0.497 8.29 14.65 12.05
10/28/2022 4:15:00 PM 11.19 52.142 0.498 8.28 14.55 12.07
10/28/2022 4:30:00 PM 11.23 52.214 0.497 8.28 14.55 11.97
10/28/2022 4:45:00 PM 11.24 52.232 0.497 8.26 14.81 11.83
10/28/2022 5:00:00 PM 11.26 52.268 0.497 8.27 14.37 11.22
10/28/2022 5:15:00 PM 11.28 52.304 0.497 8.25 14.85 11.61
10/28/2022 5:30:00 PM 11.27 52.286 0.498 8.24 14.49 11.46
10/28/2022 5:45:00 PM 11.27 52.286 0.497 8.23 14.84 11.29
10/28/2022 6:00:00 PM 11.25 52.25 0.498 8.2 14.86 11.09
10/28/2022 6:15:00 PM 11.23 52.214 0.498 8.18 14.79 11.01
10/28/2022 6:30:00 PM 11.2 52.16 0.498 8.17 15.15 10.83
10/28/2022 6:45:00 PM 11.16 52.088 0.498 8.16 14.38 10.72
10/28/2022 7:00:00 PM 11.12 52.016 0.499 8.14 14.34 10.62
10/28/2022 7:15:00 PM 11.07 51.926 0.499 8.14 14.48 10.53
10/28/2022 7:30:00 PM 11.03 51.854 0.499 8.12 14.32 10.44
10/28/2022 7:45:00 PM 10.98 51.764 0.5 8.09 14.62 10.37
10/28/2022 8:00:00 PM 10.95 51.71 0.5 8.09 14.48 10.3
10/28/2022 8:15:00 PM 10.9 51.62 0.5 8.08 14.87 10.24
10/28/2022 8:30:00 PM 10.87 51.566 0.5 8.05 14.63 10.2
10/28/2022 8:45:00 PM 10.85 51.53 0.501 8.03 14.5 10.15
10/28/2022 9:00:00 PM 10.83 51.494 0.5 8.03 14.49 10.13
10/28/2022 9:15:00 PM 10.8 51.44 0.501 8.02 13.71 10.08
10/28/2022 9:30:00 PM 10.78 51.404 0.501 7.91 13.82 10.07
10/28/2022 9:45:00 PM 10.75 51.35 0.501 8.01 13.61 10.05
10/28/2022 10:00:00 PM 10.71 51.278 0.501 8 13.65 10.03
10/28/2022 10:15:00 PM 10.68 51.224 0.502 7.99 13.75 10.02
10/28/2022 10:30:00 PM 10.64 51.152 0.502 7.98 13.5 9.95
10/28/2022 10:45:00 PM 10.6 51.08 0.502 7.98 13.53 9.98
10/28/2022 11:00:00 PM 10.55 50.99 0.502 7.97 13.65 9.97
10/28/2022 11:15:00 PM 10.51 50.918 0.503 7.97 13.58 10
10/28/2022 11:30:00 PM 10.45 50.81 0.503 7.96 13.75 10
10/28/2022 11:45:00 PM 10.39 50.702 0.503 7.96 13.65 10.01
10/29/2022 12:00:00 AM 10.33 50.594 0.503 7.96 14.3 10.06
10/29/2022 12:15:00 AM 10.27 50.486 0.503 7.94 13.53 10.04
10/29/2022 12:30:00 AM 10.19 50.342 0.502 7.94 13.44 10.07
10/29/2022 12:45:00 AM 10.12 50.216 0.503 7.94 13.4 10.07
10/29/2022 1:00:00 AM 10.04 50.072 0.504 7.94 13.99 10.14
10/29/2022 1:15:00 AM 9.96 49.928 0.504 7.94 13.96 10.18
10/29/2022 1:30:00 AM 9.87 49.766 0.505 7.93 13.57 10.2
10/29/2022 1:45:00 AM 9.78 49.604 0.505 7.93 13.57 10.23
10/29/2022 2:00:00 AM 9.68 49.424 0.505 7.93 13.52 10.25
10/29/2022 2:15:00 AM 9.59 49.262 0.506 7.93 13.21 10.29
10/29/2022 2:30:00 AM 9.49 49.082 0.506 7.92 13.35 10.33
10/29/2022 2:45:00 AM 9.4 48.92 0.506 7.92 13.28 10.35
10/29/2022 3:00:00 AM 9.31 48.758 0.507 7.92 13.38 10.38
10/29/2022 3:15:00 AM 9.21 48.578 0.507 7.91 13.41 10.42
10/29/2022 3:30:00 AM 9.11 48.398 0.507 7.91 13.12 10.45
10/29/2022 3:45:00 AM 9.02 48.236 0.507 7.91 13.35 10.47
10/29/2022 4:00:00 AM 8.93 48.074 0.507 7.91 14.04 10.53
10/29/2022 4:15:00 AM 8.85 47.93 0.508 7.91 13.88 10.55
10/29/2022 4:30:00 AM 8.76 47.768 0.508 7.91 13.78 10.61
10/29/2022 4:45:00 AM 8.68 47.624 0.508 7.91 13.44 10.63
10/29/2022 5:00:00 AM 8.6 47.48 0.508 7.9 13.4 10.67
10/29/2022 5:15:00 AM 8.52 47.336 0.508 7.91 13.32 10.68
10/29/2022 5:30:00 AM 8.44 47.192 0.508 7.91 13.24 10.69
10/29/2022 5:45:00 AM 8.37 47.066 0.508 7.92 13.39 10.73
10/29/2022 6:00:00 AM 8.3 46.94 0.508 7.91 13.3 10.75
10/29/2022 6:15:00 AM 8.23 46.814 0.508 7.91 13.43 10.81
10/29/2022 6:30:00 AM 8.17 46.706 0.508 7.91 13.21 10.82
10/29/2022 6:45:00 AM 8.1 46.58 0.509 7.89 13.23 10.83
10/29/2022 7:00:00 AM 8.03 46.454 0.508 7.72 13.23 10.88
10/29/2022 7:15:00 AM 7.97 46.346 0.508 7.75 13.31 10.88
10/29/2022 7:30:00 AM 7.92 46.256 0.508 7.9 14.45 10.8
10/29/2022 7:45:00 AM 7.85 46.13 0.509 7.89 13.43 10.79
10/29/2022 8:00:00 AM 7.79 46.022 0.509 7.9 14.22 10.94
10/29/2022 8:15:00 AM 7.74 45.932 0.509 7.91 15.25 11.03
10/29/2022 8:30:00 AM 7.7 45.86 0.508 7.92 38.31 11.11
10/29/2022 8:45:00 AM 7.66 45.788 0.508 7.93 15.36 11.17
10/29/2022 9:00:00 AM 7.63 45.734 0.509 7.91 17.89 11.27
10/29/2022 9:15:00 AM 7.6 45.68 0.509 7.93 16.62 11.34
10/29/2022 9:30:00 AM 7.59 45.662 0.509 7.95 15.21 11.35
10/29/2022 9:45:00 AM 7.6 45.68 0.508 7.94 14.42 11.45
10/29/2022 10:00:00 AM 7.61 45.698 0.508 7.96 14.99 11.55
10/29/2022 10:15:00 AM 7.68 45.824 0.508 7.96 14.48 11.67
10/29/2022 10:30:00 AM 7.8 46.04 0.507 7.98 14.64 11.72
10/29/2022 10:45:00 AM 7.9 46.22 0.507 8.01 14.61 11.78
10/29/2022 11:00:00 AM 7.98 46.364 0.506 8.02 14.34 11.99
10/29/2022 11:15:00 AM 8.09 46.562 0.507 8.03 14.18 11.76
10/29/2022 11:30:00 AM 8.31 46.958 0.507 8.04 14.07 12.17
10/29/2022 11:45:00 AM 8.46 47.228 0.506 8.06 14.43 12.22
10/29/2022 12:00:00 PM 8.68 47.624 0.506 8.07 14.04 12.17
10/29/2022 12:15:00 PM 8.85 47.93 0.505 8.09 14.06 12.07
10/29/2022 12:30:00 PM 8.99 48.182 0.505 8.1 13.99 12.42
10/29/2022 12:45:00 PM 9.12 48.416 0.505 8.14 13.89 12.2
10/29/2022 1:00:00 PM 9.25 48.65 0.505 8.13 14.01 12.26
10/29/2022 1:15:00 PM 9.38 48.884 0.504 8.15 14.04 12.5
10/29/2022 1:30:00 PM 9.53 49.154 0.503 8.16 13.96 12.2
10/29/2022 1:45:00 PM 9.7 49.46 0.504 8.17 13.9 12.3
10/29/2022 2:00:00 PM 9.86 49.748 0.503 8.19 13.95 12.57
10/29/2022 2:15:00 PM 10.05 50.09 0.503 8.2 13.92 12.56
10/29/2022 2:30:00 PM 10.22 50.396 0.503 8.21 13.81 12.48
10/29/2022 2:45:00 PM 10.32 50.576 0.502 8.22 14.21 12.44
10/29/2022 3:00:00 PM 10.4 50.72 0.502 8.22 14.16 12.36
10/29/2022 3:15:00 PM 10.5 50.9 0.501 8.24 14.11 12.4
10/29/2022 3:30:00 PM 10.59 51.062 0.501 8.24 13.97 12.22
10/29/2022 3:45:00 PM 10.7 51.26 0.501 8.24 14.02 12.14
10/29/2022 4:00:00 PM 10.79 51.422 0.5 8.24 13.98 12.04
10/29/2022 4:15:00 PM 10.86 51.548 0.5 8.24 13.88 11.79
10/29/2022 4:30:00 PM 10.92 51.656 0.5 8.23 14.07 11.57
10/29/2022 4:45:00 PM 10.98 51.764 0.5 8.24 14.02 11.73
10/29/2022 5:00:00 PM 11.03 51.854 0.501 8.23 13.97 11.57
10/29/2022 5:15:00 PM 11.06 51.908 0.5 8.23 13.92 11.41
10/29/2022 5:30:00 PM 11.07 51.926 0.5 8.22 13.86 11.3
10/29/2022 5:45:00 PM 11.05 51.89 0.5 8.21 13.79 11.17
10/29/2022 6:00:00 PM 11.01 51.818 0.5 8.2 13.91 11.06
10/29/2022 6:15:00 PM 10.96 51.728 0.5 8.18 13.81 10.92
10/29/2022 6:30:00 PM 10.9 51.62 0.5 8.16 14.68 10.82
10/29/2022 6:45:00 PM 10.84 51.512 0.5 8.14 13.84 10.71
10/29/2022 7:00:00 PM 10.78 51.404 0.501 8.12 13.87 10.59
10/29/2022 7:15:00 PM 10.71 51.278 0.501 8.11 14.04 10.49
10/29/2022 7:30:00 PM 10.65 51.17 0.501 8.09 13.97 10.25
10/29/2022 7:45:00 PM 10.59 51.062 0.501 8.08 14.12 10.31
10/29/2022 8:00:00 PM 10.54 50.972 0.502 8.06 14.05 10.29
10/29/2022 8:15:00 PM 10.49 50.882 0.501 8.05 14.22 10.23
10/29/2022 8:30:00 PM 10.45 50.81 0.502 8.04 13.93 10.21
10/29/2022 8:45:00 PM 10.4 50.72 0.502 8.03 13.96 10.1
10/29/2022 9:00:00 PM 10.37 50.666 0.502 8.03 14.05 10.11
10/29/2022 9:15:00 PM 10.33 50.594 0.502 8.01 14.1 10.07
10/29/2022 9:30:00 PM 10.31 50.558 0.502 8.01 14.22 10.09
10/29/2022 9:45:00 PM 10.27 50.486 0.502 8 14.09 10.09
10/29/2022 10:00:00 PM 10.23 50.414 0.502 8 14.12 10.05
10/29/2022 10:15:00 PM 10.19 50.342 0.502 7.99 14.25 10.04
10/29/2022 10:30:00 PM 10.14 50.252 0.502 7.99 14.3 10.03
10/29/2022 10:45:00 PM 10.09 50.162 0.503 7.98 14.77 10.05
10/29/2022 11:00:00 PM 10.03 50.054 0.503 7.99 14.81 10.04
10/29/2022 11:15:00 PM 9.96 49.928 0.503 7.97 14.37 10.07
10/29/2022 11:30:00 PM 9.89 49.802 0.503 7.97 14.67 10.03
10/29/2022 11:45:00 PM 9.81 49.658 0.504 7.86 14.63 10.06
10/30/2022 12:00:00 AM 9.75 49.55 0.504 7.96 14.94 10.07
10/30/2022 12:15:00 AM 9.67 49.406 0.505 7.96 14.42 10.13
10/30/2022 12:30:00 AM 9.59 49.262 0.505 7.95 14.39 10.15
10/30/2022 12:45:00 AM 9.52 49.136 0.505 7.95 14.78 10.15
10/30/2022 1:00:00 AM 9.43 48.974 0.506 7.95 14.56 10.2
10/30/2022 1:15:00 AM 9.35 48.83 0.506 7.95 14.88 10.24
10/30/2022 1:30:00 AM 9.26 48.668 0.506 7.94 14.85 10.22
10/30/2022 1:45:00 AM 9.17 48.506 0.506 7.93 15.54 10.26
10/30/2022 2:00:00 AM 9.08 48.344 0.507 7.93 15.56 10.27
10/30/2022 2:15:00 AM 8.98 48.164 0.507 7.94 14.86 10.38
10/30/2022 2:30:00 AM 8.89 48.002 0.507 7.93 14.86 10.42
10/30/2022 2:45:00 AM 8.78 47.804 0.508 7.93 14.71 10.48
10/30/2022 3:00:00 AM 8.68 47.624 0.508 7.93 14.97 10.48
10/30/2022 3:15:00 AM 8.59 47.462 0.508 7.93 14.94 10.48
10/30/2022 3:30:00 AM 8.48 47.264 0.509 7.93 14.7 10.52
10/30/2022 3:45:00 AM 8.38 47.084 0.509 7.93 14.64 10.62
10/30/2022 4:00:00 AM 8.3 46.94 0.509 7.93 14.87 10.66
10/30/2022 4:15:00 AM 8.2 46.76 0.509 7.92 14.61 10.7
10/30/2022 4:30:00 AM 8.12 46.616 0.509 7.92 14.65 10.69
10/30/2022 4:45:00 AM 8.04 46.472 0.51 7.92 14.63 10.73
10/30/2022 5:00:00 AM 7.95 46.31 0.509 7.92 14.82 10.76
10/30/2022 5:15:00 AM 7.87 46.166 0.509 7.92 14.48 10.83
10/30/2022 5:30:00 AM 7.8 46.04 0.51 7.94 14.58 10.84
10/30/2022 5:45:00 AM 7.72 45.896 0.509 7.93 15.04 10.87
10/30/2022 6:00:00 AM 7.65 45.77 0.51 7.92 14.93 10.9
10/30/2022 6:15:00 AM 7.59 45.662 0.51 7.92 14.59 10.95
10/30/2022 6:30:00 AM 7.52 45.536 0.51 7.92 14.49 10.94
10/30/2022 6:45:00 AM 7.48 45.464 0.51 7.92 14.36 10.97
10/30/2022 7:00:00 AM 7.44 45.392 0.509 7.93 14.4 11
10/30/2022 7:15:00 AM 7.41 45.338 0.509 7.91 14.71 11.04
10/30/2022 7:30:00 AM 7.36 45.248 0.509 7.93 14.64 11.05
10/30/2022 7:45:00 AM 7.32 45.176 0.51 7.94 14.43 10.89
10/30/2022 8:00:00 AM 7.29 45.122 0.509 7.92 14.49 11.1
10/30/2022 8:15:00 AM 7.26 45.068 0.509 7.93 14.36 11.1
10/30/2022 8:30:00 AM 7.27 45.086 0.509 7.95 14.67 11.03
10/30/2022 8:45:00 AM 7.29 45.122 0.509 7.94 14.37 11.09
10/30/2022 9:00:00 AM 7.34 45.212 0.509 7.95 14.09 11.02
10/30/2022 9:15:00 AM 7.39 45.302 0.508 7.97 14.07 11.3
10/30/2022 9:30:00 AM 7.47 45.446 0.509 8 14.11 11.06
10/30/2022 9:45:00 AM 7.57 45.626 0.507 8.01 14.05 11.7
10/30/2022 10:00:00 AM 7.65 45.77 0.508 8.03 13.93 12.14
10/30/2022 10:15:00 AM 7.76 45.968 0.505 8.05 13.9 12.17
10/30/2022 10:30:00 AM 7.88 46.184 0.506 8.06 14.02 12.39
10/30/2022 10:45:00 AM 8.04 46.472 0.506 8.09 13.95 12.46
10/30/2022 11:00:00 AM 8.2 46.76 0.505 8.11 13.99 12.37
10/30/2022 11:15:00 AM 8.35 47.03 0.505 8.13 13.83 12.72
10/30/2022 11:30:00 AM 8.51 47.318 0.504 8.15 13.83 12.73
10/30/2022 11:45:00 AM 8.67 47.606 0.504 8.17 13.81 12.96
10/30/2022 12:00:00 PM 8.82 47.876 0.503 8.19 13.91 12.6
10/30/2022 12:15:00 PM 8.96 48.128 0.502 8.21 13.63 13.09
10/30/2022 12:30:00 PM 9.12 48.416 0.502 8.23 13.6 13.15
10/30/2022 12:45:00 PM 9.28 48.704 0.501 8.25 13.64 13.13
10/30/2022 1:00:00 PM 9.5 49.1 0.501 8.27 13.64 13.01
10/30/2022 1:15:00 PM 9.62 49.316 0.5 8.28 13.77 13.01
10/30/2022 1:30:00 PM 9.66 49.388 0.5 8.29 13.8 13.13
10/30/2022 1:45:00 PM 9.77 49.586 0.499 8.31 13.68 13.09
10/30/2022 2:00:00 PM 9.92 49.856 0.499 8.32 13.66 12.93
10/30/2022 2:15:00 PM 10.08 50.144 0.498 8.34 13.67 13.15
10/30/2022 2:30:00 PM 10.23 50.414 0.498 8.35 13.68 13.22
10/30/2022 2:45:00 PM 10.36 50.648 0.498 8.36 13.51 13.21
10/30/2022 3:00:00 PM 10.46 50.828 0.497 8.36 13.66 13.03
10/30/2022 3:15:00 PM 10.55 50.99 0.497 8.38 13.6 12.96
10/30/2022 3:30:00 PM 10.63 51.134 0.496 8.37 13.64 12.86
10/30/2022 3:45:00 PM 10.7 51.26 0.496 8.36 13.71 12.77
10/30/2022 4:00:00 PM 10.78 51.404 0.496 8.36 13.78 12.63
10/30/2022 4:15:00 PM 10.83 51.494 0.496 8.36 13.72 12.52
10/30/2022 4:30:00 PM 10.87 51.566 0.496 8.35 13.71 12.39
10/30/2022 4:45:00 PM 10.9 51.62 0.497 8.34 13.51 12.24
10/30/2022 5:00:00 PM 10.94 51.692 0.496 8.33 13.56 11.99
10/30/2022 5:15:00 PM 10.96 51.728 0.496 8.32 13.61 11.83
10/30/2022 5:30:00 PM 10.97 51.746 0.496 8.3 13.68 11.7
10/30/2022 5:45:00 PM 10.97 51.746 0.497 8.29 13.61 11.54
10/30/2022 6:00:00 PM 10.97 51.746 0.497 8.27 13.56 11.24
10/30/2022 6:15:00 PM 10.95 51.71 0.497 8.26 13.64 11.15
10/30/2022 6:30:00 PM 10.94 51.692 0.497 8.23 13.69 10.99
10/30/2022 6:45:00 PM 10.93 51.674 0.498 8.21 13.72 10.85
10/30/2022 7:00:00 PM 10.91 51.638 0.498 8.2 14.12 10.73
10/30/2022 7:15:00 PM 10.89 51.602 0.499 8.16 14.02 10.59
10/30/2022 7:30:00 PM 10.87 51.566 0.5 8.14 13.98 10.48
10/30/2022 7:45:00 PM 10.85 51.53 0.5 8.12 13.9 10.37
10/30/2022 8:00:00 PM 10.84 51.512 0.5 8.11 13.93 10.27
10/30/2022 8:15:00 PM 10.84 51.512 0.5 8.08 13.97 10.17
10/30/2022 8:30:00 PM 10.85 51.53 0.501 8.07 13.85 10.12
10/30/2022 8:45:00 PM 10.85 51.53 0.501 8.05 13.88 10.09
10/30/2022 9:00:00 PM 10.87 51.566 0.501 8.05 13.84 10.04
10/30/2022 9:15:00 PM 10.88 51.584 0.501 8.05 13.71 9.98
10/30/2022 9:30:00 PM 10.89 51.602 0.501 8.02 13.79 9.96
10/30/2022 9:45:00 PM 10.89 51.602 0.501 8.01 13.89 9.92
10/30/2022 10:00:00 PM 10.89 51.602 0.501 8 13.93 9.89
10/30/2022 10:15:00 PM 10.9 51.62 0.501 8 14.02 9.87
10/30/2022 10:30:00 PM 10.88 51.584 0.501 7.99 13.83 9.85
10/30/2022 10:45:00 PM 10.86 51.548 0.501 7.99 13.97 9.82
10/30/2022 11:00:00 PM 10.84 51.512 0.501 7.97 14.04 9.81
10/30/2022 11:15:00 PM 10.82 51.476 0.501 7.97 13.84 9.79
10/30/2022 11:30:00 PM 10.79 51.422 0.502 7.97 13.92 9.79
10/30/2022 11:45:00 PM 10.76 51.368 0.501 7.97 13.73 9.8
10/31/2022 12:00:00 AM 10.71 51.278 0.502 7.96 14 9.81
10/31/2022 12:15:00 AM 10.67 51.206 0.502 7.96 13.8 9.82
10/31/2022 12:30:00 AM 10.61 51.098 0.502 7.95 14.02 9.82
10/31/2022 12:45:00 AM 10.56 51.008 0.502 7.94 13.97 9.84
10/31/2022 1:00:00 AM 10.5 50.9 0.503 7.94 13.89 9.83
10/31/2022 1:15:00 AM 10.43 50.774 0.503 7.94 13.98 9.87
10/31/2022 1:30:00 AM 10.37 50.666 0.504 7.94 14.21 9.89
10/31/2022 1:45:00 AM 10.31 50.558 0.503 7.94 14.05 9.89
10/31/2022 2:00:00 AM 10.25 50.45 0.504 7.93 14.26 9.93
10/31/2022 2:15:00 AM 10.19 50.342 0.505 7.93 14.05 9.95
10/31/2022 2:30:00 AM 10.13 50.234 0.506 7.9 14.07 9.98
10/31/2022 2:45:00 AM 10.06 50.108 0.506 7.93 14.06 10
10/31/2022 3:00:00 AM 10 50 0.506 7.92 14.12 10.02
10/31/2022 3:15:00 AM 9.95 49.91 0.506 7.93 14.03 10.07
10/31/2022 3:30:00 AM 9.89 49.802 0.506 7.93 13.92 10.08
10/31/2022 3:45:00 AM 9.85 49.73 0.506 7.92 13.92 10.11
10/31/2022 4:00:00 AM 9.81 49.658 0.507 7.91 13.97 10.12
10/31/2022 4:15:00 AM 9.78 49.604 0.507 7.92 13.94 10.13
10/31/2022 4:30:00 AM 9.75 49.55 0.506 7.92 13.89 10.17
10/31/2022 4:45:00 AM 9.72 49.496 0.507 7.91 13.88 10.18
10/31/2022 5:00:00 AM 9.69 49.442 0.507 7.91 13.75 10.2
10/31/2022 5:15:00 AM 9.65 49.37 0.506 7.9 13.78 10.22
10/31/2022 5:30:00 AM 9.61 49.298 0.507 7.91 13.81 10.23
10/31/2022 5:45:00 AM 9.58 49.244 0.506 7.91 13.76 10.24
10/31/2022 6:00:00 AM 9.55 49.19 0.507 7.91 13.74 10.25
10/31/2022 6:15:00 AM 9.52 49.136 0.507 7.9 13.9 10.24
10/31/2022 6:30:00 AM 9.49 49.082 0.507 7.91 13.86 10.26
10/31/2022 6:45:00 AM 9.45 49.01 0.507 7.9 13.77 10.28
10/31/2022 7:00:00 AM 9.41 48.938 0.507 7.91 13.69 10.31
10/31/2022 7:15:00 AM 9.39 48.902 0.507 7.9 13.84 10.31
10/31/2022 7:30:00 AM 9.39 48.902 0.506 7.89 13.89 10.3
10/31/2022 7:45:00 AM 9.4 48.92 0.506 7.9 13.74 10.35
10/31/2022 8:00:00 AM 9.4 48.92 0.507 7.91 13.67 10.37
10/31/2022 8:15:00 AM 9.43 48.974 0.507 7.91 13.84 10.44
10/31/2022 8:30:00 AM 9.45 49.01 0.507 7.92 13.77 10.58
10/31/2022 8:45:00 AM 9.47 49.046 0.506 7.93 13.68 10.64
10/31/2022 9:00:00 AM 9.51 49.118 0.506 7.96 13.67 10.74
10/31/2022 9:15:00 AM 9.55 49.19 0.506 7.96 13.73 10.88
10/31/2022 9:30:00 AM 9.61 49.298 0.506 7.98 13.53 11.06
10/31/2022 9:45:00 AM 9.67 49.406 0.505 7.99 13.55 11.19
10/31/2022 10:00:00 AM 9.75 49.55 0.505 8.01 13.95 11.37
10/31/2022 10:15:00 AM 9.81 49.658 0.505 8.03 13.52 11.48
10/31/2022 10:30:00 AM 9.91 49.838 0.504 8.05 13.61 11.67
10/31/2022 10:45:00 AM 10 50 0.503 8.08 13.64 11.81
10/31/2022 11:00:00 AM 10.1 50.18 0.503 8.09 13.56 11.94
10/31/2022 11:15:00 AM 10.2 50.36 0.503 8.12 13.49 12.07
10/31/2022 11:30:00 AM 10.3 50.54 0.502 8.14 13.58 12.13
10/31/2022 11:45:00 AM 10.48 50.864 0.501 8.16 13.41 12.31
10/31/2022 12:00:00 PM 10.62 51.116 0.501 8.19 13.29 12.53
10/31/2022 12:15:00 PM 10.7 51.26 0.5 8.21 13.34 12.57
10/31/2022 12:30:00 PM 10.79 51.422 0.5 8.23 13.31 12.6
10/31/2022 12:45:00 PM 10.91 51.638 0.499 8.24 13.5 12.67
10/31/2022 1:00:00 PM 10.98 51.764 0.499 8.26 13.62 12.65
10/31/2022 1:15:00 PM 11.03 51.854 0.498 8.22 13.36 12.54
10/31/2022 1:30:00 PM 11.09 51.962 0.498 8.25 13.41 12.46
10/31/2022 1:45:00 PM 11.16 52.088 0.498 8.28 13.43 12.48
10/31/2022 2:00:00 PM 11.32 52.376 0.497 8.3 13.39 12.65
10/31/2022 2:15:00 PM 11.48 52.664 0.496 8.31 13.36 12.8
10/31/2022 2:30:00 PM 11.62 52.916 0.495 8.34 13.38 12.86
10/31/2022 2:45:00 PM 11.7 53.06 0.495 8.35 13.45 12.86
10/31/2022 3:00:00 PM 11.81 53.258 0.494 8.36 13.73 12.83
10/31/2022 3:15:00 PM 11.88 53.384 0.494 8.36 13.49 12.72
10/31/2022 3:30:00 PM 11.93 53.474 0.494 8.36 13.53 12.56
10/31/2022 3:45:00 PM 11.96 53.528 0.494 8.34 13.65 12.23
10/31/2022 4:00:00 PM 12 53.6 0.494 8.34 13.49 12.11
10/31/2022 4:15:00 PM 12.04 53.672 0.495 8.32 13.55 11.83
10/31/2022 4:30:00 PM 12.07 53.726 0.495 8.31 13.6 11.67
10/31/2022 4:45:00 PM 12.1 53.78 0.495 8.29 13.5 11.57
10/31/2022 5:00:00 PM 12.12 53.816 0.495 8.27 13.43 11.36
10/31/2022 5:15:00 PM 12.13 53.834 0.496 8.27 13.46 11.15
10/31/2022 5:30:00 PM 12.14 53.852 0.496 8.24 13.5 10.93
10/31/2022 5:45:00 PM 12.16 53.888 0.496 8.22 13.31 10.75
10/31/2022 6:00:00 PM 12.18 53.924 0.497 8.19 13.54 10.6
10/31/2022 6:15:00 PM 12.2 53.96 0.497 8.17 13.24 10.44
10/31/2022 6:30:00 PM 12.22 53.996 0.497 8.15 13.2 10.29
10/31/2022 6:45:00 PM 12.24 54.032 0.498 8.13 13.21 10.16
10/31/2022 7:00:00 PM 12.26 54.068 0.498 8.11 13.27 10.05
10/31/2022 7:15:00 PM 12.29 54.122 0.498 8.09 13.24 9.96
10/31/2022 7:30:00 PM 12.32 54.176 0.499 8.07 13.35 9.86
10/31/2022 7:45:00 PM 12.35 54.23 0.499 8.06 13.38 9.77
10/31/2022 8:00:00 PM 12.39 54.302 0.499 8.03 13.25 9.71
10/31/2022 8:15:00 PM 12.42 54.356 0.499 8.03 13.37 9.63
10/31/2022 8:30:00 PM 12.46 54.428 0.498 8.01 13.38 9.57
10/31/2022 8:45:00 PM 12.49 54.482 0.498 8 13.28 9.51
10/31/2022 9:00:00 PM 12.52 54.536 0.498 7.99 13.36 9.46
10/31/2022 9:15:00 PM 12.55 54.59 0.498 7.98 13.57 9.42
10/31/2022 9:30:00 PM 12.58 54.644 0.498 7.97 13.25 9.37
10/31/2022 9:45:00 PM 12.6 54.68 0.498 7.95 13.11 9.34
10/31/2022 10:00:00 PM 12.63 54.734 0.498 7.95 13.52 9.31
10/31/2022 10:15:00 PM 12.65 54.77 0.498 7.91 13.34 9.26
10/31/2022 10:30:00 PM 12.67 54.806 0.498 7.92 13.29 9.26
10/31/2022 10:45:00 PM 12.7 54.86 0.497 7.9 13.29 9.22
10/31/2022 11:00:00 PM 12.72 54.896 0.498 7.91 13.39 9.2
10/31/2022 11:15:00 PM 12.75 54.95 0.497 7.91 13.52 9.22
10/31/2022 11:30:00 PM 12.77 54.986 0.497 7.9 13.79 9.19
10/31/2022 11:45:00 PM 12.79 55.022 0.497 7.89 13.37 9.16
11/1/2022 12:00:00 AM 12.8 55.04 0.495 7.9 13.68 9.18
11/1/2022 12:15:00 AM 12.82 55.076 0.493 7.9 13.7 9.17
11/1/2022 12:30:00 AM 12.85 55.13 0.482 7.89 14.24 9.25
11/1/2022 12:45:00 AM 12.89 55.202 0.465 7.91 15.66 9.39
11/1/2022 1:00:00 AM 12.9 55.22 0.457 7.9 17.77 9.39
11/1/2022 1:15:00 AM 12.87 55.166 0.451 7.87 19.66 9.33
11/1/2022 1:30:00 AM 12.85 55.13 0.45 7.85 20.76 9.26
11/1/2022 1:45:00 AM 12.84 55.112 0.45 7.83 23.23 9.21
11/1/2022 2:00:00 AM 12.82 55.076 0.449 7.8 21.65 9.19
11/1/2022 2:15:00 AM 12.8 55.04 0.446 7.79 22.83 9.18
11/1/2022 2:30:00 AM 12.79 55.022 0.441 7.78 29.88 9.17
11/1/2022 2:45:00 AM 12.77 54.986 0.439 7.76 28.21 9.14
11/1/2022 3:00:00 AM 12.75 54.95 0.438 7.75 26.84 9.14
11/1/2022 3:15:00 AM 12.73 54.914 0.439 7.74 28.09 9.14
11/1/2022 3:30:00 AM 12.71 54.878 0.44 7.74 36.62 9.16
11/1/2022 3:45:00 AM 12.69 54.842 0.444 7.74 31.34 9.16
11/1/2022 4:00:00 AM 12.68 54.824 0.446 7.74 41.93 9.16
11/1/2022 4:15:00 AM 12.67 54.806 0.449 7.74 37.61 9.17
11/1/2022 4:30:00 AM 12.65 54.77 0.453 7.74 31.62 9.21
11/1/2022 4:45:00 AM 12.64 54.752 0.456 7.75 30.83 9.21
11/1/2022 5:00:00 AM 12.63 54.734 0.455 7.74 34.25 9.26
11/1/2022 5:15:00 AM 12.63 54.734 0.447 7.74 32.13 9.25
11/1/2022 5:30:00 AM 12.63 54.734 0.433 7.71 39.34 9.23
11/1/2022 5:45:00 AM 12.63 54.734 0.415 7.71 42.48 9.17
11/1/2022 6:00:00 AM 12.64 54.752 0.425 7.67 49.52 9.11
11/1/2022 6:15:00 AM 12.65 54.77 0.382 7.65 59.15 9.05
11/1/2022 6:30:00 AM 12.65 54.77 0.375 7.63 71.2 9
11/1/2022 6:45:00 AM 12.64 54.752 0.371 7.62 58.91 8.96
11/1/2022 7:00:00 AM 12.63 54.734 0.369 7.61 64.79 8.94
11/1/2022 7:15:00 AM 12.63 54.734 0.369 7.6 52.32 8.94
11/1/2022 7:30:00 AM 12.63 54.734 0.372 7.55 117.58 8.93
11/1/2022 7:45:00 AM 12.64 54.752 0.377 7.6 49.63 8.93
11/1/2022 8:00:00 AM 12.65 54.77 0.384 7.61 39.21 8.95
11/1/2022 8:15:00 AM 12.66 54.788 0.39 7.61 36.26 8.99
11/1/2022 8:30:00 AM 12.67 54.806 0.401 7.63 35.93 9.05
11/1/2022 8:45:00 AM 12.69 54.842 0.404 7.65 31.74 9.13
11/1/2022 9:00:00 AM 12.7 54.86 0.407 7.65 31.25 9.22
11/1/2022 9:15:00 AM 12.72 54.896 0.408 7.66 32.55 9.3
11/1/2022 9:30:00 AM 12.74 54.932 0.406 7.67 29.72 9.38
11/1/2022 9:45:00 AM 12.76 54.968 0.403 7.68 28.28 9.45
11/1/2022 10:00:00 AM 12.82 55.076 0.401 7.7 29.88 9.57
11/1/2022 10:15:00 AM 12.9 55.22 0.422 7.72 27.74 9.7
11/1/2022 10:30:00 AM 12.98 55.364 0.388 7.73 27.29 9.84
11/1/2022 10:45:00 AM 13.03 55.454 0.385 7.74 27.95 9.92
11/1/2022 11:00:00 AM 13.09 55.562 0.382 7.75 25.67 9.97
11/1/2022 11:15:00 AM 13.17 55.706 0.38 7.76 25.29 10.03
11/1/2022 11:30:00 AM 13.27 55.886 0.377 7.77 25.16 10.15
11/1/2022 11:45:00 AM 13.37 56.066 0.376 7.79 24.79 10.28
11/1/2022 12:00:00 PM 13.41 56.138 0.374 7.8 25.01 10.3
11/1/2022 12:15:00 PM 13.47 56.246 0.373 7.82 25.19 10.3
11/1/2022 12:30:00 PM 13.54 56.372 0.371 7.82 23.89 10.33
11/1/2022 12:45:00 PM 13.67 56.606 0.37 7.84 24.53 10.43
11/1/2022 1:00:00 PM 13.87 56.966 0.369 7.87 23.79 10.57
11/1/2022 1:15:00 PM 13.94 57.092 0.368 7.88 23.16 10.58
11/1/2022 1:30:00 PM 14.04 57.272 0.368 7.91 23.96 10.64
11/1/2022 1:45:00 PM 14.19 57.542 0.368 7.91 41.02 10.69
11/1/2022 2:00:00 PM 14.35 57.83 0.367 7.95 29.98 10.76
11/1/2022 2:15:00 PM 14.51 58.118 0.367 7.96 27.52 10.83
11/1/2022 2:30:00 PM 14.53 58.154 0.367 7.96 26.93 10.76
11/1/2022 2:45:00 PM 14.71 58.478 0.368 7.98 26.55 10.83
11/1/2022 3:00:00 PM 14.79 58.622 0.369 7.99 26.31 10.81
11/1/2022 3:15:00 PM 14.88 58.784 0.37 8.01 25.55 10.79
11/1/2022 3:30:00 PM 14.95 58.91 0.37 8.02 25.47 10.77
11/1/2022 3:45:00 PM 14.99 58.982 0.378 8.02 26.58 10.64
11/1/2022 4:00:00 PM 15.04 59.072 0.385 8.02 25.27 10.53
11/1/2022 4:15:00 PM 15.07 59.126 0.377 8.01 24.61 10.47
11/1/2022 4:30:00 PM 15.12 59.216 0.379 8 24.78 10.4
11/1/2022 4:45:00 PM 15.16 59.288 0.381 7.95 24.07 10.27
11/1/2022 5:00:00 PM 15.2 59.36 0.383 7.99 24.02 10.13
11/1/2022 5:15:00 PM 15.22 59.396 0.385 7.98 24.87 10.01
11/1/2022 5:30:00 PM 15.24 59.432 0.387 7.96 24.27 9.86
11/1/2022 5:45:00 PM 15.25 59.45 0.389 7.94 23.57 9.71
11/1/2022 6:00:00 PM 15.23 59.414 0.392 7.92 23.33 9.56
11/1/2022 6:15:00 PM 15.21 59.378 0.394 7.9 23.35 9.4
11/1/2022 6:30:00 PM 15.2 59.36 0.396 7.88 23.25 9.24
11/1/2022 6:45:00 PM 15.18 59.324 0.398 7.86 23.62 9.16
11/1/2022 7:00:00 PM 15.15 59.27 0.4 7.85 23.78 9.06
11/1/2022 7:15:00 PM 15.11 59.198 0.402 7.83 24.61 8.97
11/1/2022 7:30:00 PM 15.06 59.108 0.404 7.83 23.5 8.91
11/1/2022 7:45:00 PM 15 59 0.407 7.81 23.49 8.86
11/1/2022 8:00:00 PM 14.95 58.91 0.409 7.81 23.5 8.81
11/1/2022 8:15:00 PM 14.89 58.802 0.411 7.81 23.31 8.79
11/1/2022 8:30:00 PM 14.83 58.694 0.413 7.79 23.08 8.77
11/1/2022 8:45:00 PM 14.78 58.604 0.416 7.78 24.95 8.74
11/1/2022 9:00:00 PM 14.72 58.496 0.418 7.57 23.37 8.75
11/1/2022 9:15:00 PM 14.66 58.388 0.421 7.78 23.08 8.75
11/1/2022 9:30:00 PM 14.59 58.262 0.422 7.77 23.24 8.73
11/1/2022 9:45:00 PM 14.53 58.154 0.424 7.78 23.26 8.76
11/1/2022 10:00:00 PM 14.47 58.046 0.426 7.78 23.36 8.77
11/1/2022 10:15:00 PM 14.4 57.92 0.428 7.78 23.22 8.78
11/1/2022 10:30:00 PM 14.33 57.794 0.43 7.77 23.1 8.81
11/1/2022 10:45:00 PM 14.26 57.668 0.433 7.78 25.16 8.81
11/1/2022 11:00:00 PM 14.18 57.524 0.434 7.78 23.34 8.85
11/1/2022 11:15:00 PM 14.1 57.38 0.436 7.78 23.14 8.86
11/1/2022 11:30:00 PM 14.02 57.236 0.438 7.77 23.08 8.89
11/1/2022 11:45:00 PM 13.93 57.074 0.439 7.78 22.93 8.92
11/2/2022 12:00:00 AM 13.84 56.912 0.441 7.78 23.46 8.95
11/2/2022 12:15:00 AM 13.75 56.75 0.443 7.77 23.06 8.98
11/2/2022 12:30:00 AM 13.66 56.588 0.444 7.77 23.1 9
11/2/2022 12:45:00 AM 13.58 56.444 0.446 7.77 22.93 9.03
11/2/2022 1:00:00 AM 13.49 56.282 0.447 7.78 22.96 9.05
11/2/2022 1:15:00 AM 13.4 56.12 0.448 7.78 22.84 9.09
11/2/2022 1:30:00 AM 13.31 55.958 0.45 7.61 23.54 9.11
11/2/2022 1:45:00 AM 13.21 55.778 0.451 7.78 22.86 9.14
11/2/2022 2:00:00 AM 13.12 55.616 0.452 7.77 22.91 9.18
11/2/2022 2:15:00 AM 13.03 55.454 0.454 7.78 23.3 9.2
11/2/2022 2:30:00 AM 12.95 55.31 0.455 7.77 23.14 9.24
11/2/2022 2:45:00 AM 12.86 55.148 0.456 7.78 23.1 9.27
11/2/2022 3:00:00 AM 12.78 55.004 0.457 7.78 23.36 9.29
11/2/2022 3:15:00 AM 12.69 54.842 0.458 7.78 22.77 9.32
11/2/2022 3:30:00 AM 12.6 54.68 0.46 7.78 24.23 9.36
11/2/2022 3:45:00 AM 12.52 54.536 0.46 7.78 22.89 9.39
11/2/2022 4:00:00 AM 12.45 54.41 0.461 7.78 23.69 9.42
11/2/2022 4:15:00 AM 12.38 54.284 0.462 7.78 23.16 9.45
11/2/2022 4:30:00 AM 12.31 54.158 0.463 7.78 23.95 9.47
11/2/2022 4:45:00 AM 12.23 54.014 0.464 7.78 22.77 9.5
11/2/2022 5:00:00 AM 12.16 53.888 0.465 7.78 22.78 9.53
11/2/2022 5:15:00 AM 12.08 53.744 0.466 7.78 23.19 9.52
11/2/2022 5:30:00 AM 12.02 53.636 0.467 7.79 22.95 9.57
11/2/2022 5:45:00 AM 11.95 53.51 0.467 7.79 23.29 9.59
11/2/2022 6:00:00 AM 11.88 53.384 0.468 7.79 22.77 9.61
11/2/2022 6:15:00 AM 11.82 53.276 0.468 7.79 22.68 9.62
11/2/2022 6:30:00 AM 11.76 53.168 0.47 7.79 23.08 9.63
11/2/2022 6:45:00 AM 11.7 53.06 0.47 7.79 22.62 9.66
11/2/2022 7:00:00 AM 11.64 52.952 0.471 7.8 22.38 9.69
11/2/2022 7:15:00 AM 11.58 52.844 0.471 7.8 21.76 9.72
11/2/2022 7:30:00 AM 11.52 52.736 0.472 7.8 22.18 9.75
11/2/2022 7:45:00 AM 11.47 52.646 0.473 7.8 21.96 9.77
11/2/2022 8:00:00 AM 11.42 52.556 0.473 7.81 26.05 9.81
11/2/2022 8:15:00 AM 11.38 52.484 0.474 7.82 25.14 9.88
11/2/2022 8:30:00 AM 11.35 52.43 0.474 7.82 25.44 9.93
11/2/2022 8:45:00 AM 11.32 52.376 0.475 7.83 24.55 10
11/2/2022 9:00:00 AM 11.3 52.34 0.475 7.85 23.69 10.11
11/2/2022 9:15:00 AM 11.29 52.322 0.476 7.84 27.67 10.17
11/2/2022 9:30:00 AM 11.3 52.34 0.476 7.85 23.16 10.28
11/2/2022 9:45:00 AM 11.32 52.376 0.477 7.87 22.86 10.36
11/2/2022 10:00:00 AM 11.36 52.448 0.477 7.89 23.07 10.46
11/2/2022 10:15:00 AM 11.41 52.538 0.477 7.89 22.35 10.55
11/2/2022 10:30:00 AM 11.49 52.682 0.478 7.92 22.52 10.7
11/2/2022 10:45:00 AM 11.56 52.808 0.478 7.94 22.43 10.8
11/2/2022 11:00:00 AM 11.65 52.97 0.478 7.95 22.28 10.93
11/2/2022 11:15:00 AM 11.75 53.15 0.478 7.97 23.7 11.1
11/2/2022 11:30:00 AM 11.87 53.366 0.478 7.99 22.31 11.21
11/2/2022 11:45:00 AM 12 53.6 0.478 8.02 21.96 11.34
11/2/2022 12:00:00 PM 12.12 53.816 0.479 8.04 22.06 11.47
11/2/2022 12:15:00 PM 12.26 54.068 0.479 8.06 22.13 11.56
11/2/2022 12:30:00 PM 12.41 54.338 0.478 8.08 21.93 11.67
11/2/2022 12:45:00 PM 12.55 54.59 0.478 8.11 21.95 11.75
11/2/2022 1:00:00 PM 12.69 54.842 0.479 8.12 21.98 11.8
11/2/2022 1:15:00 PM 12.84 55.112 0.479 8.15 21.89 11.85
11/2/2022 1:30:00 PM 12.99 55.382 0.478 8.16 21.98 11.91
11/2/2022 1:45:00 PM 13.14 55.652 0.478 8.18 22.16 11.93
11/2/2022 2:00:00 PM 13.3 55.94 0.478 8.2 22.41 12.02
11/2/2022 2:15:00 PM 13.44 56.192 0.478 8.22 22.07 12
11/2/2022 2:30:00 PM 13.57 56.426 0.478 8.23 21.91 11.95
11/2/2022 2:45:00 PM 13.66 56.588 0.478 8.24 21.97 11.96
11/2/2022 3:00:00 PM 13.73 56.714 0.478 8.25 21.77 11.87
11/2/2022 3:15:00 PM 13.83 56.894 0.478 8.26 21.75 11.8
11/2/2022 3:30:00 PM 13.94 57.092 0.478 8.26 21.72 11.68
11/2/2022 3:45:00 PM 14.02 57.236 0.478 8.26 21.55 11.59
11/2/2022 4:00:00 PM 14.08 57.344 0.478 8.26 21.59 11.5
11/2/2022 4:15:00 PM 14.13 57.434 0.478 8.26 21.64 11.39
11/2/2022 4:30:00 PM 14.19 57.542 0.478 8.25 21.57 11.31
11/2/2022 4:45:00 PM 14.23 57.614 0.478 8.26 21.58 11.21
11/2/2022 5:00:00 PM 14.25 57.65 0.478 8.25 21.63 11.05
11/2/2022 5:15:00 PM 14.25 57.65 0.478 8.23 21.71 10.87
11/2/2022 5:30:00 PM 14.22 57.596 0.479 8.21 21.78 10.69
11/2/2022 5:45:00 PM 14.19 57.542 0.479 8.19 21.5 10.48
11/2/2022 6:00:00 PM 14.15 57.47 0.48 8.17 21.53 10.3
11/2/2022 6:15:00 PM 14.1 57.38 0.48 8.14 21.44 10.11
11/2/2022 6:30:00 PM 14.06 57.308 0.481 8.12 21.58 9.94
11/2/2022 6:45:00 PM 14.02 57.236 0.481 8.09 21.63 9.81
11/2/2022 7:00:00 PM 13.97 57.146 0.482 8.07 21.68 9.68
11/2/2022 7:15:00 PM 13.94 57.092 0.482 8.07 21.78 9.6
11/2/2022 7:30:00 PM 13.91 57.038 0.483 8.04 21.7 9.52
11/2/2022 7:45:00 PM 13.88 56.984 0.483 8.01 21.63 9.45
11/2/2022 8:00:00 PM 13.85 56.93 0.483 8 21.83 9.38
11/2/2022 8:15:00 PM 13.82 56.876 0.483 7.99 21.73 9.33
11/2/2022 8:30:00 PM 13.8 56.84 0.483 7.98 21.34 9.29
11/2/2022 8:45:00 PM 13.76 56.768 0.484 7.97 21.69 9.24
11/2/2022 9:00:00 PM 13.73 56.714 0.484 7.96 21.67 9.24
11/2/2022 9:15:00 PM 13.69 56.642 0.485 7.95 21.71 9.21
11/2/2022 9:30:00 PM 13.64 56.552 0.485 7.94 21.58 9.16
11/2/2022 9:45:00 PM 13.59 56.462 0.485 7.93 21.67 9.19
11/2/2022 10:00:00 PM 13.52 56.336 0.485 7.93 24.95 9.2
11/2/2022 10:15:00 PM 13.46 56.228 0.486 7.92 21.79 9.19
11/2/2022 10:30:00 PM 13.4 56.12 0.486 7.91 21.76 9.2
11/2/2022 10:45:00 PM 13.32 55.976 0.486 7.91 21.98 9.23
11/2/2022 11:00:00 PM 13.25 55.85 0.487 7.9 22.07 9.25
11/2/2022 11:15:00 PM 13.17 55.706 0.487 7.9 22.38 9.25
11/2/2022 11:30:00 PM 13.09 55.562 0.488 7.9 22.76 9.28
11/2/2022 11:45:00 PM 13 55.4 0.489 7.89 22.77 9.28
11/3/2022 12:00:00 AM 12.91 55.238 0.49 7.88 22.57 9.32
11/3/2022 12:15:00 AM 12.82 55.076 0.49 7.89 22.85 9.34
11/3/2022 12:30:00 AM 12.73 54.914 0.491 7.88 22.95 9.38
11/3/2022 12:45:00 AM 12.63 54.734 0.491 7.88 24.03 9.39
11/3/2022 1:00:00 AM 12.53 54.554 0.491 7.87 22.5 9.39
11/3/2022 1:15:00 AM 12.43 54.374 0.491 7.88 22.5 9.46
11/3/2022 1:30:00 AM 12.32 54.176 0.492 7.87 22.65 9.5
11/3/2022 1:45:00 AM 12.22 53.996 0.492 7.87 22.72 9.55
11/3/2022 2:00:00 AM 12.11 53.798 0.492 7.87 22.64 9.58
11/3/2022 2:15:00 AM 12.01 53.618 0.493 7.87 24.16 9.62
11/3/2022 2:30:00 AM 11.91 53.438 0.493 7.86 22.35 9.64
11/3/2022 2:45:00 AM 11.81 53.258 0.493 7.87 22.39 9.7
11/3/2022 3:00:00 AM 11.71 53.078 0.493 7.86 22.21 9.71
11/3/2022 3:15:00 AM 11.61 52.898 0.493 7.86 22.32 9.77
11/3/2022 3:30:00 AM 11.52 52.736 0.493 7.86 22.2 9.8
11/3/2022 3:45:00 AM 11.42 52.556 0.493 7.86 22.14 9.82
11/3/2022 4:00:00 AM 11.33 52.394 0.493 7.86 22.37 9.85
11/3/2022 4:15:00 AM 11.24 52.232 0.494 7.86 22.43 9.88
11/3/2022 4:30:00 AM 11.16 52.088 0.494 7.86 22.38 9.92
11/3/2022 4:45:00 AM 11.07 51.926 0.495 7.86 23.86 9.94
11/3/2022 5:00:00 AM 10.99 51.782 0.494 7.86 22.43 9.97
11/3/2022 5:15:00 AM 10.9 51.62 0.494 7.86 22.44 10
11/3/2022 5:30:00 AM 10.82 51.476 0.494 7.86 22.33 10.04
11/3/2022 5:45:00 AM 10.74 51.332 0.495 7.85 22.63 10.05
11/3/2022 6:00:00 AM 10.66 51.188 0.495 7.86 22.5 10.08
11/3/2022 6:15:00 AM 10.58 51.044 0.495 7.86 22.45 10.09
11/3/2022 6:30:00 AM 10.5 50.9 0.495 7.86 22.33 10.12
11/3/2022 6:45:00 AM 10.42 50.756 0.495 7.86 22.19 10.17
11/3/2022 7:00:00 AM 10.34 50.612 0.496 7.86 22.78 10.17
11/3/2022 7:15:00 AM 10.27 50.486 0.495 7.86 23.86 10.2
11/3/2022 7:30:00 AM 10.19 50.342 0.496 7.86 22.56 10.21
11/3/2022 7:45:00 AM 10.12 50.216 0.496 7.86 22.95 10.26
11/3/2022 8:00:00 AM 10.05 50.09 0.496 7.86 22.22 10.31
11/3/2022 8:15:00 AM 9.99 49.982 0.496 7.87 22.05 10.38
11/3/2022 8:30:00 AM 9.93 49.874 0.496 7.88 22.03 10.45
11/3/2022 8:45:00 AM 9.88 49.784 0.496 7.88 21.9 10.52
11/3/2022 9:00:00 AM 9.84 49.712 0.496 7.88 21.8 10.59
11/3/2022 9:15:00 AM 9.81 49.658 0.496 7.89 21.81 10.7
11/3/2022 9:30:00 AM 9.78 49.604 0.496 7.9 21.74 10.78
11/3/2022 9:45:00 AM 9.76 49.568 0.496 7.91 21.66 10.86
11/3/2022 10:00:00 AM 9.77 49.586 0.496 7.92 21.77 10.96
11/3/2022 10:15:00 AM 9.81 49.658 0.496 7.94 21.97 11.05
11/3/2022 10:30:00 AM 9.9 49.82 0.495 7.95 21.78 11.21
11/3/2022 10:45:00 AM 9.99 49.982 0.495 7.96 21.54 11.35
11/3/2022 11:00:00 AM 10.1 50.18 0.495 7.99 21.72 11.51
11/3/2022 11:15:00 AM 10.22 50.396 0.495 8.01 21.25 11.62
11/3/2022 11:30:00 AM 10.36 50.648 0.494 8.03 21.56 11.74
11/3/2022 11:45:00 AM 10.51 50.918 0.494 8.04 21.33 11.83
11/3/2022 12:00:00 PM 10.65 51.17 0.494 8.06 21.45 11.96
11/3/2022 12:15:00 PM 10.82 51.476 0.494 8.08 21.71 12.04
11/3/2022 12:30:00 PM 10.97 51.746 0.494 8.11 21.42 12.15
11/3/2022 12:45:00 PM 11.15 52.07 0.493 8.14 21.38 12.25
11/3/2022 1:00:00 PM 11.3 52.34 0.493 8.15 21.33 12.27
11/3/2022 1:15:00 PM 11.5 52.7 0.492 8.18 24.18 12.37
11/3/2022 1:30:00 PM 11.65 52.97 0.492 8.19 21.77 12.37
11/3/2022 1:45:00 PM 11.83 53.294 0.491 8.21 21.71 12.41
11/3/2022 2:00:00 PM 12.01 53.618 0.491 8.22 22.32 12.44
11/3/2022 2:15:00 PM 12.18 53.924 0.491 8.24 21.93 12.45
11/3/2022 2:30:00 PM 12.31 54.158 0.491 8.26 21.67 12.41
11/3/2022 2:45:00 PM 12.44 54.392 0.49 8.26 21.61 12.39
11/3/2022 3:00:00 PM 12.5 54.5 0.49 8.27 23.07 12.28
11/3/2022 3:15:00 PM 12.61 54.698 0.49 8.27 21.61 12.16
11/3/2022 3:30:00 PM 12.71 54.878 0.49 8.28 21.62 12.08
11/3/2022 3:45:00 PM 12.81 55.058 0.489 8.28 21.61 11.97
11/3/2022 4:00:00 PM 12.88 55.184 0.489 8.28 21.42 11.84
11/3/2022 4:15:00 PM 12.95 55.31 0.489 8.27 21.61 11.69
11/3/2022 4:30:00 PM 13 55.4 0.489 8.27 21.53 11.56
11/3/2022 4:45:00 PM 13.03 55.454 0.489 8.26 21.37 11.42
11/3/2022 5:00:00 PM 13.06 55.508 0.489 8.25 21.37 11.28
11/3/2022 5:15:00 PM 13.07 55.526 0.489 8.24 21.71 11.11
11/3/2022 5:30:00 PM 13.06 55.508 0.49 8.23 21.24 10.94
11/3/2022 5:45:00 PM 13.04 55.472 0.49 8.21 21.27 10.76
11/3/2022 6:00:00 PM 13 55.4 0.49 8.19 21.3 10.62
11/3/2022 6:15:00 PM 12.95 55.31 0.491 8.17 21.54 10.46
11/3/2022 6:30:00 PM 12.9 55.22 0.491 8.14 21.66 10.32
11/3/2022 6:45:00 PM 12.85 55.13 0.492 8.12 21.65 10.18
11/3/2022 7:00:00 PM 12.8 55.04 0.492 8.1 21.61 10.04
11/3/2022 7:15:00 PM 12.76 54.968 0.492 8.08 21.55 9.93
11/3/2022 7:30:00 PM 12.72 54.896 0.493 8.06 21.54 9.86
11/3/2022 7:45:00 PM 12.68 54.824 0.493 8.04 21.66 9.79
11/3/2022 8:00:00 PM 12.66 54.788 0.493 8.02 21.72 9.73
11/3/2022 8:15:00 PM 12.63 54.734 0.493 8.01 29.43 9.67
11/3/2022 8:30:00 PM 12.61 54.698 0.493 8 23.66 9.63
11/3/2022 8:45:00 PM 12.59 54.662 0.494 7.99 22.55 9.57
11/3/2022 9:00:00 PM 12.57 54.626 0.494 7.98 24.07 9.56
11/3/2022 9:15:00 PM 12.55 54.59 0.494 7.97 22.24 9.54
11/3/2022 9:30:00 PM 12.52 54.536 0.494 7.96 22 9.52
11/3/2022 9:45:00 PM 12.49 54.482 0.494 7.95 22.2 9.52
11/3/2022 10:00:00 PM 12.44 54.392 0.494 7.95 22.43 9.51
11/3/2022 10:15:00 PM 12.4 54.32 0.494 7.93 22.29 9.5
11/3/2022 10:30:00 PM 12.35 54.23 0.494 7.94 22.16 9.5
11/3/2022 10:45:00 PM 12.3 54.14 0.494 7.94 21.95 9.53
11/3/2022 11:00:00 PM 12.24 54.032 0.494 7.93 23.44 9.54
11/3/2022 11:15:00 PM 12.18 53.924 0.495 7.93 22.13 9.55
11/3/2022 11:30:00 PM 12.11 53.798 0.495 7.92 22.17 9.57
11/3/2022 11:45:00 PM 12.04 53.672 0.495 7.92 22.28 9.6
11/4/2022 12:00:00 AM 11.98 53.564 0.495 7.91 22.07 9.63
11/4/2022 12:15:00 AM 11.9 53.42 0.496 7.91 22.25 9.64
11/4/2022 12:30:00 AM 11.83 53.294 0.496 7.91 22.27 9.68
11/4/2022 12:45:00 AM 11.75 53.15 0.496 7.91 22.18 9.7
11/4/2022 1:00:00 AM 11.66 52.988 0.498 7.91 22.32 9.75
11/4/2022 1:15:00 AM 11.57 52.826 0.498 7.9 21.98 9.76
11/4/2022 1:30:00 AM 11.48 52.664 0.498 7.9 22.46 9.8
11/4/2022 1:45:00 AM 11.39 52.502 0.498 7.9 22.37 9.83
11/4/2022 2:00:00 AM 11.29 52.322 0.499 7.89 22.19 9.86
11/4/2022 2:15:00 AM 11.2 52.16 0.499 7.89 22.44 9.88
11/4/2022 2:30:00 AM 11.11 51.998 0.499 7.9 22.34 9.92
11/4/2022 2:45:00 AM -99999.99 -179968 -99999.99 -99999.99 -99999.99 -99999.99
11/4/2022 3:00:00 AM 10.93 51.674 0.5 7.89 22.39 9.98
11/4/2022 3:15:00 AM 10.85 51.53 0.501 7.89 22.23 10.01
11/4/2022 3:30:00 AM 10.76 51.368 0.5 7.88 22.21 10.05
11/4/2022 3:45:00 AM 10.68 51.224 0.5 7.88 22.06 10.07
11/4/2022 4:00:00 AM 10.6 51.08 0.501 7.89 21.97 10.1
11/4/2022 4:15:00 AM 10.53 50.954 0.501 7.89 22.42 10.11
11/4/2022 4:30:00 AM 10.45 50.81 0.501 7.88 22.28 10.16
11/4/2022 4:45:00 AM 10.38 50.684 0.5 7.89 22.37 10.19
11/4/2022 5:00:00 AM 10.31 50.558 0.501 7.88 22.2 10.21
11/4/2022 5:15:00 AM 10.24 50.432 0.5 7.88 22.14 10.24
11/4/2022 5:30:00 AM 10.17 50.306 0.5 7.88 22.32 10.26
11/4/2022 5:45:00 AM 10.11 50.198 0.501 7.88 22.5 10.28
11/4/2022 6:00:00 AM 10.04 50.072 0.5 7.88 22.26 10.31
11/4/2022 6:15:00 AM 9.98 49.964 0.5 7.88 22.16 10.33
11/4/2022 6:30:00 AM 9.92 49.856 0.5 7.88 22.46 10.35
11/4/2022 6:45:00 AM 9.86 49.748 0.5 7.88 22.16 10.36
11/4/2022 7:00:00 AM 9.81 49.658 0.5 7.87 22.41 10.38
11/4/2022 7:15:00 AM 9.75 49.55 0.499 7.87 23.1 10.4
11/4/2022 7:30:00 AM 9.7 49.46 0.5 7.87 22.12 10.43
11/4/2022 7:45:00 AM 9.66 49.388 0.5 7.88 22.06 10.46
11/4/2022 8:00:00 AM 9.62 49.316 0.5 7.88 22.03 10.5
11/4/2022 8:15:00 AM 9.6 49.28 0.499 7.89 22.11 10.6
11/4/2022 8:30:00 AM 9.59 49.262 0.5 7.9 21.86 10.71
11/4/2022 8:45:00 AM 9.59 49.262 0.499 7.91 25.15 10.86
11/4/2022 9:00:00 AM 9.6 49.28 0.499 7.93 23.27 11
11/4/2022 9:15:00 AM 9.63 49.334 0.498 7.91 22.11 11.18
11/4/2022 9:30:00 AM 9.68 49.424 0.498 7.96 21.81 11.35
11/4/2022 9:45:00 AM 9.77 49.586 0.497 7.99 21.79 11.56
11/4/2022 10:00:00 AM 9.85 49.73 0.497 8.01 21.59 11.75
11/4/2022 10:15:00 AM 9.96 49.928 0.497 8.03 21.75 11.92
11/4/2022 10:30:00 AM 10.09 50.162 0.497 8.06 21.81 12.1
11/4/2022 10:45:00 AM 10.22 50.396 0.496 8.09 21.61 12.25
11/4/2022 11:00:00 AM 10.37 50.666 0.496 8.11 21.64 12.36
11/4/2022 11:15:00 AM 10.51 50.918 0.495 8.13 21.48 12.42
11/4/2022 11:30:00 AM 10.69 51.242 0.495 8.14 21.35 12.5
11/4/2022 11:45:00 AM 10.86 51.548 0.494 8.17 21.35 12.55
11/4/2022 12:00:00 PM 11.02 51.836 0.494 8.19 21.29 12.58
11/4/2022 12:15:00 PM 11.2 52.16 0.493 8.21 21.38 12.66
11/4/2022 12:30:00 PM 11.38 52.484 0.493 8.22 21.4 12.71
11/4/2022 12:45:00 PM 11.53 52.754 0.492 8.25 21.18 12.78
11/4/2022 1:00:00 PM 11.7 53.06 0.491 8.26 21.4 12.81
11/4/2022 1:15:00 PM 11.88 53.384 0.491 8.28 22.74 12.79
11/4/2022 1:30:00 PM 12.05 53.69 0.491 8.29 21.3 12.79
11/4/2022 1:45:00 PM 12.24 54.032 0.49 8.3 20.81 12.81
11/4/2022 2:00:00 PM 12.45 54.41 0.489 8.32 21.22 12.81
11/4/2022 2:15:00 PM 12.63 54.734 0.489 8.33 21.28 12.79
11/4/2022 2:30:00 PM 12.79 55.022 0.489 8.34 21.23 12.75
11/4/2022 2:45:00 PM 12.94 55.292 0.488 8.35 21.14 12.72
11/4/2022 3:00:00 PM 13.04 55.472 0.488 8.36 21.21 12.62
11/4/2022 3:15:00 PM 13.17 55.706 0.488 8.36 21.25 12.52
11/4/2022 3:30:00 PM 13.28 55.904 0.487 8.37 21.25 12.38
11/4/2022 3:45:00 PM 13.38 56.084 0.487 8.36 21.17 12.22
11/4/2022 4:00:00 PM 13.46 56.228 0.487 8.36 21.16 12.05
11/4/2022 4:15:00 PM 13.52 56.336 0.487 8.35 21.06 11.89
11/4/2022 4:30:00 PM 13.56 56.408 0.487 8.34 21.13 11.7
11/4/2022 4:45:00 PM 13.61 56.498 0.486 8.34 21.25 11.53
11/4/2022 5:00:00 PM 13.65 56.57 0.487 8.32 21.2 11.38
11/4/2022 5:15:00 PM 13.67 56.606 0.487 8.31 21.25 11.2
11/4/2022 5:30:00 PM 13.68 56.624 0.487 8.29 21.27 10.98
11/4/2022 5:45:00 PM 13.66 56.588 0.487 8.27 21.14 10.8
11/4/2022 6:00:00 PM 13.63 56.534 0.488 8.25 21.24 10.6
11/4/2022 6:15:00 PM 13.59 56.462 0.488 8.22 21.29 10.4
11/4/2022 6:30:00 PM 13.55 56.39 0.489 8.19 21.32 10.22
11/4/2022 6:45:00 PM 13.5 56.3 0.489 8.17 21.17 10.08
11/4/2022 7:00:00 PM 13.47 56.246 0.49 8.14 21.18 9.95
11/4/2022 7:15:00 PM 13.43 56.174 0.49 8.11 21.37 9.85
11/4/2022 7:30:00 PM 13.42 56.156 0.491 8.1 21.11 9.75
11/4/2022 7:45:00 PM 13.4 56.12 0.491 8.07 21.11 9.66
11/4/2022 8:00:00 PM 13.41 56.138 0.491 8.06 21.06 9.58
11/4/2022 8:15:00 PM 13.41 56.138 0.491 8.04 21.14 9.51
11/4/2022 8:30:00 PM 13.43 56.174 0.491 8.02 21.18 9.45
11/4/2022 8:45:00 PM 13.44 56.192 0.491 8.01 21.32 9.4
11/4/2022 9:00:00 PM 13.45 56.21 0.492 8 21.13 9.35
11/4/2022 9:15:00 PM 13.46 56.228 0.492 7.99 21.33 9.31
11/4/2022 9:30:00 PM 13.47 56.246 0.492 7.98 22.89 9.28
11/4/2022 9:45:00 PM 13.46 56.228 0.492 7.97 21.14 9.26
11/4/2022 10:00:00 PM 13.46 56.228 0.492 7.96 21.33 9.24
11/4/2022 10:15:00 PM 13.44 56.192 0.492 7.96 21.36 9.21
11/4/2022 10:30:00 PM 13.42 56.156 0.493 7.95 21.48 9.21
11/4/2022 10:45:00 PM 13.4 56.12 0.493 7.94 21.29 9.21
11/4/2022 11:00:00 PM 13.37 56.066 0.493 7.94 21.26 9.22
11/4/2022 11:15:00 PM 13.33 55.994 0.493 7.93 21.4 9.23
11/4/2022 11:30:00 PM 13.29 55.922 0.494 7.93 21.4 9.23
11/4/2022 11:45:00 PM 13.24 55.832 0.494 7.92 21.33 9.24
11/5/2022 12:00:00 AM 13.2 55.76 0.494 7.92 21.23 9.26
11/5/2022 12:15:00 AM 13.14 55.652 0.495 7.91 21.35 9.28
11/5/2022 12:30:00 AM 13.09 55.562 0.495 7.91 21.48 9.29
11/5/2022 12:45:00 AM 13.02 55.436 0.496 7.91 21.43 9.31
11/5/2022 1:00:00 AM 12.96 55.328 0.496 7.91 21.31 9.33
11/5/2022 1:15:00 AM 12.9 55.22 0.497 7.91 21.29 9.35
11/5/2022 1:30:00 AM 12.84 55.112 0.497 7.9 21.55 9.37
11/5/2022 1:45:00 AM 12.79 55.022 0.497 7.89 21.82 9.38
11/5/2022 2:00:00 AM 12.73 54.914 0.498 7.89 21.75 9.41
11/5/2022 2:15:00 AM 12.68 54.824 0.498 7.88 21.7 9.42
11/5/2022 2:30:00 AM 12.62 54.716 0.498 7.89 21.42 9.43
11/5/2022 2:45:00 AM 12.57 54.626 0.499 7.88 21.64 9.45
11/5/2022 3:00:00 AM 12.54 54.572 0.499 7.88 21.68 9.47
11/5/2022 3:15:00 AM 12.51 54.518 0.499 7.88 21.57 9.49
11/5/2022 3:30:00 AM 12.48 54.464 0.499 7.87 21.69 9.51
11/5/2022 3:45:00 AM 12.44 54.392 0.499 7.87 21.58 9.52
11/5/2022 4:00:00 AM 12.42 54.356 0.499 7.88 21.53 9.54
11/5/2022 4:15:00 AM 12.39 54.302 0.499 7.88 21.68 9.55
11/5/2022 4:30:00 AM 12.37 54.266 0.5 7.88 21.67 9.56
11/5/2022 4:45:00 AM 12.36 54.248 0.499 7.87 21.53 9.55
11/5/2022 5:00:00 AM 12.35 54.23 0.499 7.87 21.91 9.57
11/5/2022 5:15:00 AM 12.34 54.212 0.5 7.87 21.76 9.59
11/5/2022 5:30:00 AM 12.34 54.212 0.5 7.86 21.63 9.59
11/5/2022 5:45:00 AM 12.33 54.194 0.5 7.87 21.69 9.59
11/5/2022 6:00:00 AM 12.33 54.194 0.5 7.87 22.88 9.6
11/5/2022 6:15:00 AM 12.33 54.194 0.5 7.87 21.71 9.6
11/5/2022 6:30:00 AM 12.34 54.212 0.5 7.86 21.73 9.59
11/5/2022 6:45:00 AM 12.34 54.212 0.5 7.86 21.69 9.6
11/5/2022 7:00:00 AM 12.35 54.23 0.499 7.86 21.63 9.6
11/5/2022 7:15:00 AM 12.35 54.23 0.5 7.86 21.56 9.6
11/5/2022 7:30:00 AM 12.36 54.248 0.5 7.86 21.56 9.6
11/5/2022 7:45:00 AM 12.36 54.248 0.5 7.87 21.58 9.61
11/5/2022 8:00:00 AM 12.37 54.266 0.5 7.86 22.75 9.61
11/5/2022 8:15:00 AM 12.39 54.302 0.5 7.86 21.68 9.66
11/5/2022 8:30:00 AM 12.41 54.338 0.499 7.87 21.67 9.74
11/5/2022 8:45:00 AM 12.45 54.41 0.499 7.88 21.64 9.86
11/5/2022 9:00:00 AM 12.49 54.482 0.499 7.9 21.58 9.95
11/5/2022 9:15:00 AM 12.54 54.572 0.499 7.92 21.54 10.23
11/5/2022 9:30:00 AM 12.59 54.662 0.498 7.93 21.33 10.42
11/5/2022 9:45:00 AM 12.67 54.806 0.498 7.96 21.53 10.62
11/5/2022 10:00:00 AM 12.8 55.04 0.497 8 21.4 10.92
11/5/2022 10:15:00 AM 12.91 55.238 0.496 8.02 21.39 11.12
11/5/2022 10:30:00 AM 13.05 55.49 0.496 8.05 21.35 11.34
11/5/2022 10:45:00 AM 13.23 55.814 0.495 8.09 21.51 11.52
11/5/2022 11:00:00 AM 13.41 56.138 0.495 8.12 21.23 11.75
11/5/2022 11:15:00 AM 13.61 56.498 0.494 8.17 21.31 11.96
11/5/2022 11:30:00 AM 13.76 56.768 0.493 8.19 21.26 12.09
11/5/2022 11:45:00 AM 13.93 57.074 0.492 8.22 21.15 12.21
11/5/2022 12:00:00 PM 14.16 57.488 0.491 8.25 22.48 12.41
11/5/2022 12:15:00 PM 14.32 57.776 0.49 8.27 21.23 12.45
11/5/2022 12:30:00 PM 14.44 57.992 0.49 8.28 21.67 12.41
11/5/2022 12:45:00 PM 14.69 58.442 0.489 8.32 21.46 12.61
11/5/2022 1:00:00 PM 14.85 58.73 0.488 8.33 21.46 12.54
11/5/2022 1:15:00 PM 15.01 59.018 0.487 8.35 21.31 12.57
11/5/2022 1:30:00 PM 15.19 59.342 0.486 8.39 21.28 12.68
11/5/2022 1:45:00 PM 15.32 59.576 0.485 8.38 21.15 12.54
11/5/2022 2:00:00 PM 15.38 59.684 0.485 8.39 21.49 12.41
11/5/2022 2:15:00 PM 15.62 60.116 0.484 8.4 21.45 12.58
11/5/2022 2:30:00 PM 15.78 60.404 0.483 8.42 21.33 12.59
11/5/2022 2:45:00 PM 15.98 60.764 0.482 8.44 22.55 12.59
11/5/2022 3:00:00 PM 16.12 61.016 0.482 8.45 21.25 12.45
11/5/2022 3:15:00 PM 16.15 61.07 0.481 8.44 21.3 12.24
11/5/2022 3:30:00 PM 16.21 61.178 0.481 8.45 21.21 12.2
11/5/2022 3:45:00 PM 16.26 61.268 0.481 8.45 21.05 12.07
11/5/2022 4:00:00 PM 16.32 61.376 0.48 8.45 21.22 11.8
11/5/2022 4:15:00 PM 16.37 61.466 0.48 8.46 21.5 11.87
11/5/2022 4:30:00 PM 16.39 61.502 0.48 8.43 21.9 11.71
11/5/2022 4:45:00 PM 16.41 61.538 0.48 8.42 21.12 11.47
11/5/2022 5:00:00 PM 16.41 61.538 0.48 8.42 21.18 11.31
11/5/2022 5:15:00 PM 16.41 61.538 0.481 8.4 21 11.09
11/5/2022 5:30:00 PM 16.39 61.502 0.482 8.36 21.18 10.81
11/5/2022 5:45:00 PM 16.35 61.43 0.482 8.34 21.16 10.5
11/5/2022 6:00:00 PM 16.3 61.34 0.483 8.31 21.14 10.22
11/5/2022 6:15:00 PM 16.26 61.268 0.484 8.27 21.23 9.97
11/5/2022 6:30:00 PM 16.22 61.196 0.485 8.24 21.3 9.74
11/5/2022 6:45:00 PM 16.18 61.124 0.486 8.21 21.42 9.55
11/5/2022 7:00:00 PM 16.15 61.07 0.486 8.18 21.37 9.37
11/5/2022 7:15:00 PM 16.12 61.016 0.487 8.15 21.61 9.22
11/5/2022 7:30:00 PM 16.1 60.98 0.487 8.12 21.47 9.08
11/5/2022 7:45:00 PM 16.08 60.944 0.488 8.09 21.74 8.94
11/5/2022 8:00:00 PM 16.07 60.926 0.488 8.07 21.55 8.83
11/5/2022 8:15:00 PM 16.05 60.89 0.489 8.04 21.66 8.76
11/5/2022 8:30:00 PM 16.05 60.89 0.489 8.03 21.63 8.68
11/5/2022 8:45:00 PM 16.04 60.872 0.489 8.01 23.06 8.61
11/5/2022 9:00:00 PM 16.02 60.836 0.49 7.99 21.51 8.54
11/5/2022 9:15:00 PM 16.02 60.836 0.491 7.98 21.45 8.47
11/5/2022 9:30:00 PM 16.02 60.836 0.491 7.97 21.45 8.42
11/5/2022 9:45:00 PM 16.01 60.818 0.491 7.95 21.58 8.41
11/5/2022 10:00:00 PM 16 60.8 0.492 7.94 21.48 8.35
11/5/2022 10:15:00 PM 15.97 60.746 0.492 7.93 23.33 8.36
11/5/2022 10:30:00 PM 15.95 60.71 0.491 7.92 21.56 8.34
11/5/2022 10:45:00 PM 15.92 60.656 0.493 7.91 21.64 8.34
11/5/2022 11:00:00 PM 15.9 60.62 0.492 7.91 21.77 8.33
11/5/2022 11:15:00 PM 15.88 60.584 0.493 7.89 21.74 8.3
11/5/2022 11:30:00 PM 15.86 60.548 0.493 7.89 21.74 8.32
11/5/2022 11:45:00 PM 15.84 60.512 0.493 7.89 21.53 8.29
11/6/2022 12:00:00 AM 15.8 60.44 0.494 7.88 21.59 8.33
11/6/2022 12:15:00 AM 15.77 60.386 0.494 7.88 21.72 8.32
11/6/2022 12:30:00 AM 15.73 60.314 0.494 7.88 22.6 8.36
11/6/2022 12:45:00 AM 15.69 60.242 0.494 7.87 21.63 8.29
11/6/2022 1:00:00 AM 15.65 60.17 0.494 7.86 21.61 8.33
11/6/2022 1:15:00 AM 15.61 60.098 0.495 7.87 21.7 8.35
11/6/2022 1:30:00 AM 15.58 60.044 0.495 7.86 21.75 8.32
11/6/2022 1:45:00 AM 15.53 59.954 0.496 7.86 21.67 8.33
11/6/2022 2:00:00 AM 15.49 59.882 0.496 7.86 21.78 8.41
11/6/2022 2:15:00 AM 15.44 59.792 0.497 7.85 21.57 8.43
11/6/2022 2:30:00 AM 15.39 59.702 0.497 7.85 21.7 8.44
11/6/2022 2:45:00 AM 15.34 59.612 0.497 7.85 21.65 8.45
11/6/2022 3:00:00 AM 15.29 59.522 0.497 7.85 21.66 8.47
11/6/2022 3:15:00 AM 15.25 59.45 0.498 7.85 21.74 8.44
11/6/2022 3:30:00 AM 15.2 59.36 0.498 7.85 21.73 8.5
11/6/2022 3:45:00 AM 15.16 59.288 0.498 7.85 21.62 8.54
11/6/2022 4:00:00 AM 15.13 59.234 0.499 7.85 21.53 8.54
11/6/2022 4:15:00 AM 15.09 59.162 0.498 7.84 21.79 8.52
11/6/2022 4:30:00 AM 15.07 59.126 0.499 7.85 21.71 8.54
11/6/2022 4:45:00 AM 15.05 59.09 0.499 7.84 21.79 8.55
11/6/2022 5:00:00 AM 15.04 59.072 0.499 7.84 21.72 8.58
11/6/2022 5:15:00 AM 15.02 59.036 0.499 7.83 21.68 8.57
11/6/2022 5:30:00 AM 15.02 59.036 0.499 7.84 21.72 8.54
11/6/2022 5:45:00 AM 15.01 59.018 0.499 7.84 21.77 8.59
11/6/2022 6:00:00 AM 15 59 0.498 7.84 21.71 8.6
11/6/2022 6:15:00 AM 14.99 58.982 0.498 7.83 21.86 8.62
11/6/2022 6:30:00 AM 14.98 58.964 0.498 7.83 21.78 8.62
11/6/2022 6:45:00 AM 14.96 58.928 0.498 7.83 21.73 8.62
11/6/2022 7:00:00 AM 14.95 58.91 0.498 7.83 21.7 8.63
11/6/2022 7:15:00 AM 14.94 58.892 0.497 7.83 21.62 8.62
11/6/2022 7:30:00 AM 14.93 58.874 0.496 7.82 21.84 8.63
11/6/2022 7:45:00 AM 14.93 58.874 0.495 7.82 21.98 8.65
11/6/2022 8:00:00 AM 14.93 58.874 0.494 7.83 21.61 8.66
11/6/2022 8:15:00 AM 14.94 58.892 0.494 7.83 21.8 8.65
11/6/2022 8:30:00 AM 14.94 58.892 0.494 7.82 22.35 8.64
11/6/2022 8:45:00 AM 14.94 58.892 0.493 7.83 21.98 8.66
11/6/2022 9:00:00 AM 14.98 58.964 0.487 7.83 21.97 8.81
11/6/2022 9:15:00 AM 15 59 0.484 7.84 22.06 8.76
11/6/2022 9:30:00 AM 15 59 0.484 7.84 22.06 8.84
11/6/2022 9:45:00 AM 15.02 59.036 0.484 7.84 21.95 8.92
11/6/2022 10:00:00 AM 15.03 59.054 0.483 7.84 21.53 9.04
11/6/2022 10:15:00 AM 15.06 59.108 0.483 7.85 21.67 9.18
11/6/2022 10:30:00 AM 15.09 59.162 0.483 7.87 21.68 9.35
11/6/2022 10:45:00 AM 15.15 59.27 0.482 7.9 21.84 9.52
11/6/2022 11:00:00 AM 15.22 59.396 0.481 7.92 21.6 9.86
11/6/2022 11:15:00 AM 15.27 59.486 0.48 7.96 21.56 9.88
11/6/2022 11:30:00 AM 15.34 59.612 0.48 7.98 21.67 10.17
11/6/2022 11:45:00 AM 15.39 59.702 0.479 7.99 21.45 10.26
11/6/2022 12:00:00 PM 15.44 59.792 0.479 7.95 21.8 10.28
11/6/2022 12:15:00 PM 15.49 59.882 0.479 8.03 21.77 10.45
11/6/2022 12:30:00 PM 15.56 60.008 0.479 7.99 21.8 10.63
11/6/2022 12:45:00 PM 15.67 60.206 0.479 8.09 21.65 10.9
11/6/2022 1:00:00 PM 15.8 60.44 0.48 8.14 21.87 11.19
11/6/2022 1:15:00 PM 15.87 60.566 0.48 8.15 22.38 11.13
11/6/2022 1:30:00 PM 15.93 60.674 0.48 8.16 23.75 11.17
11/6/2022 1:45:00 PM 15.99 60.782 0.48 8.18 21.85 11.2
11/6/2022 2:00:00 PM 16.03 60.854 0.481 8.18 22.62 11
11/6/2022 2:15:00 PM 16.05 60.89 0.481 8.17 21.91 10.66
11/6/2022 2:30:00 PM 16.08 60.944 0.482 8.16 21.81 10.62
11/6/2022 2:45:00 PM 16.11 60.998 0.481 8.16 21.57 10.52
11/6/2022 3:00:00 PM 16.15 61.07 0.481 8.16 21.48 10.46
11/6/2022 3:15:00 PM 16.2 61.16 0.48 8.17 21.57 10.45
11/6/2022 3:30:00 PM 16.24 61.232 0.478 8.16 21.47 10.18
11/6/2022 3:45:00 PM 16.27 61.286 0.476 8.16 21.48 10.31
11/6/2022 4:00:00 PM 16.3 61.34 0.475 8.15 21.58 10.17
11/6/2022 4:15:00 PM 16.34 61.412 0.473 8.13 21.68 10.09
11/6/2022 4:30:00 PM 16.36 61.448 0.472 8.12 21.8 9.92
11/6/2022 4:45:00 PM 16.39 61.502 0.47 8.1 21.92 9.83
11/6/2022 5:00:00 PM 16.41 61.538 0.469 8.08 22.02 9.68
11/6/2022 5:15:00 PM 16.44 61.592 0.468 8.06 22.06 9.53
11/6/2022 5:30:00 PM 16.47 61.646 0.467 8.04 22.17 9.37
11/6/2022 5:45:00 PM 16.5 61.7 0.466 8.02 22.22 9.29
11/6/2022 6:00:00 PM 16.52 61.736 0.465 8.01 22.39 9.13
11/6/2022 6:15:00 PM 16.53 61.754 0.465 7.98 22.23 9.03
11/6/2022 6:30:00 PM 16.56 61.808 0.465 7.97 22.37 8.93
11/6/2022 6:45:00 PM 16.58 61.844 0.465 7.95 22.33 8.81
11/6/2022 7:00:00 PM 16.59 61.862 0.466 7.93 22.47 8.7
11/6/2022 7:15:00 PM 16.59 61.862 0.466 7.92 22.73 8.62
11/6/2022 7:30:00 PM 16.59 61.862 0.467 7.91 22.51 8.56
11/6/2022 7:45:00 PM 16.6 61.88 0.469 7.89 22.54 8.53
11/6/2022 8:00:00 PM 16.62 61.916 0.47 7.89 22.24 8.47
11/6/2022 8:15:00 PM 16.64 61.952 0.472 7.89 22.42 8.42
11/6/2022 8:30:00 PM 16.65 61.97 0.474 7.88 21.91 8.37
11/6/2022 8:45:00 PM 16.66 61.988 0.475 7.87 22.47 8.28
11/6/2022 9:00:00 PM 16.66 61.988 0.476 7.86 22.15 8.32
11/6/2022 9:15:00 PM 16.63 61.934 0.478 7.84 22.68 8.26
11/6/2022 9:30:00 PM 16.6 61.88 0.479 7.86 22.1 8.25
11/6/2022 9:45:00 PM 16.57 61.826 0.48 7.85 22.29 8.26
11/6/2022 10:00:00 PM 16.56 61.808 0.48 7.85 22.17 8.26
11/6/2022 10:15:00 PM 16.52 61.736 0.481 7.83 22.26 8.25
11/6/2022 10:30:00 PM 16.47 61.646 0.481 7.84 22.13 8.23
11/6/2022 10:45:00 PM 16.42 61.556 0.482 7.84 22.19 8.27
11/6/2022 11:00:00 PM 16.37 61.466 0.482 7.85 22.17 8.25
11/6/2022 11:15:00 PM 16.32 61.376 0.482 7.83 22.15 8.26
11/6/2022 11:30:00 PM 16.28 61.304 0.482 7.82 22.25 8.3
11/6/2022 11:45:00 PM 16.23 61.214 0.482 7.82 22.22 8.31
11/7/2022 12:00:00 AM 16.18 61.124 0.482 7.84 22.01 8.31
11/7/2022 12:15:00 AM 16.14 61.052 0.482 7.82 22.09 8.31
11/7/2022 12:30:00 AM 16.1 60.98 0.482 7.82 22.18 8.33
11/7/2022 12:45:00 AM 16.06 60.908 0.482 7.82 22.27 8.35
11/7/2022 1:00:00 AM 16.02 60.836 0.482 7.82 22.11 8.36
11/7/2022 1:15:00 AM 15.98 60.764 0.482 7.81 21.97 8.35
11/7/2022 1:30:00 AM 15.93 60.674 0.482 7.8 22.02 8.37
11/7/2022 1:45:00 AM 15.89 60.602 0.481 7.8 22.26 8.38
11/7/2022 2:00:00 AM 15.85 60.53 0.481 7.79 21.95 8.36
11/7/2022 2:15:00 AM 15.8 60.44 0.481 7.8 22.05 8.38
11/7/2022 2:30:00 AM 15.76 60.368 0.481 7.79 22.1 8.4
11/7/2022 2:45:00 AM 15.7 60.26 0.48 7.8 22.03 8.43
11/7/2022 3:00:00 AM 15.66 60.188 0.481 7.8 22.14 8.42
11/7/2022 3:15:00 AM 15.64 60.152 0.48 7.8 22.09 8.45
11/7/2022 3:30:00 AM 15.61 60.098 0.48 7.79 22.16 8.47
11/7/2022 3:45:00 AM 15.58 60.044 0.48 7.8 22.32 8.5
11/7/2022 4:00:00 AM 15.55 59.99 0.479 7.79 22.4 8.49
11/7/2022 4:15:00 AM 15.31 59.558 0.479 7.78 22.3 8.55
11/7/2022 4:30:00 AM 15.27 59.486 0.479 7.78 22.52 8.56
11/7/2022 4:45:00 AM 15.23 59.414 0.479 7.79 22.31 8.57
11/7/2022 5:00:00 AM 15.22 59.396 0.479 7.79 22.37 8.58
11/7/2022 5:15:00 AM 15.19 59.342 0.479 7.78 22.45 8.56
11/7/2022 5:30:00 AM 15.16 59.288 0.479 7.77 22.19 8.59
11/7/2022 5:45:00 AM 15.12 59.216 0.479 7.78 22.11 8.62
11/7/2022 6:00:00 AM 15.07 59.126 0.48 7.78 22.28 8.62
11/7/2022 6:15:00 AM 15.01 59.018 0.48 7.78 22.24 8.65
11/7/2022 6:30:00 AM 14.96 58.928 0.48 7.78 22.19 8.63
11/7/2022 6:45:00 AM 14.92 58.856 0.481 7.77 23.88 8.61
11/7/2022 7:00:00 AM 14.88 58.784 0.481 7.78 22.63 8.66
11/7/2022 7:15:00 AM 14.82 58.676 0.481 7.78 23.48 8.7
11/7/2022 7:30:00 AM 14.77 58.586 0.482 7.79 22.02 8.8
11/7/2022 7:45:00 AM 14.72 58.496 0.482 7.8 21.92 8.92
11/7/2022 8:00:00 AM 14.67 58.406 0.483 7.81 21.84 9
11/7/2022 8:15:00 AM 14.63 58.334 0.483 7.8 21.96 9.07
11/7/2022 8:30:00 AM 14.6 58.28 0.483 7.81 21.85 9.19
11/7/2022 8:45:00 AM 14.59 58.262 0.483 7.83 21.63 9.3
11/7/2022 9:00:00 AM 14.59 58.262 0.483 7.84 21.6 9.45
11/7/2022 9:15:00 AM 14.59 58.262 0.483 7.88 21.67 9.57
11/7/2022 9:30:00 AM 14.63 58.334 0.484 7.9 21.59 9.76
11/7/2022 9:45:00 AM 14.68 58.424 0.484 7.9 21.6 9.97
11/7/2022 10:00:00 AM 14.72 58.496 0.483 7.94 23.34 10.23
11/7/2022 10:15:00 AM 14.79 58.622 0.484 7.98 21.36 10.44
11/7/2022 10:30:00 AM 14.9 58.82 0.483 8.02 21.37 10.64
11/7/2022 10:45:00 AM 14.98 58.964 0.483 7.91 21.33 10.85
11/7/2022 11:00:00 AM 15.07 59.126 0.483 8.08 21.41 11.01
11/7/2022 11:15:00 AM 15.15 59.27 0.483 8.09 21.12 11.15
11/7/2022 11:30:00 AM 15.25 59.45 0.482 8.13 21.32 11.4
11/7/2022 11:45:00 AM 15.36 59.648 0.482 8.16 22.13 11.49
11/7/2022 12:00:00 PM 15.48 59.864 0.481 8.18 21.33 11.56
11/7/2022 12:15:00 PM 15.59 60.062 0.481 8.21 21.44 11.58
11/7/2022 12:30:00 PM 15.68 60.224 0.48 8.23 21.23 11.43
11/7/2022 12:45:00 PM 15.79 60.422 0.48 8.26 21.22 11.79
11/7/2022 1:00:00 PM 15.9 60.62 0.479 8.29 21.18 11.9
11/7/2022 1:15:00 PM 15.98 60.764 0.479 8.3 21.1 11.73
11/7/2022 1:30:00 PM 16.08 60.944 0.478 8.32 21.18 11.82
11/7/2022 1:45:00 PM 16.16 61.088 0.478 8.34 21.23 11.84
11/7/2022 2:00:00 PM 16.19 61.142 0.478 8.35 21.48 11.82
11/7/2022 2:15:00 PM 16.23 61.214 0.477 8.35 21.24 11.65
11/7/2022 2:30:00 PM 16.28 61.304 0.477 8.36 21.16 11.47
11/7/2022 2:45:00 PM 16.31 61.358 0.477 8.35 21.3 11.37
11/7/2022 3:00:00 PM 16.33 61.394 0.477 8.37 22.67 11.4
11/7/2022 3:15:00 PM 16.34 61.412 0.477 8.35 21.4 11.25
11/7/2022 3:30:00 PM 16.33 61.394 0.477 8.35 21.44 11.07
11/7/2022 3:45:00 PM 16.3 61.34 0.477 8.34 21.23 10.9
11/7/2022 4:00:00 PM 16.28 61.304 0.477 8.32 21.38 10.69
11/7/2022 4:15:00 PM 16.24 61.232 0.478 8.31 21.3 10.52
11/7/2022 4:30:00 PM 16.19 61.142 0.479 8.3 21.08 10.32
11/7/2022 4:45:00 PM 16.13 61.034 0.479 8.26 21.15 10.1
11/7/2022 5:00:00 PM 16.04 60.872 0.48 8.23 21.12 9.91
11/7/2022 5:15:00 PM 15.93 60.674 0.481 8.21 21.14 9.7
11/7/2022 5:30:00 PM 15.82 60.476 0.482 8.17 21.29 9.51
11/7/2022 5:45:00 PM 15.7 60.26 0.482 8.14 21.15 9.37
11/7/2022 6:00:00 PM 15.59 60.062 0.483 8.11 21.45 9.22
11/7/2022 6:15:00 PM 15.48 59.864 0.484 8.08 22.53 9.12
11/7/2022 6:30:00 PM 15.37 59.666 0.485 8.07 21.32 9.04
11/7/2022 6:45:00 PM 15.26 59.468 0.485 8.03 21.47 8.95
11/7/2022 7:00:00 PM 15.16 59.288 0.486 7.94 21.57 8.86
11/7/2022 7:15:00 PM 15.07 59.126 0.486 8.01 21.19 8.81
11/7/2022 7:30:00 PM 14.98 58.964 0.486 7.98 21.39 8.81
11/7/2022 7:45:00 PM 14.9 58.82 0.487 7.97 21.3 8.56
11/7/2022 8:00:00 PM 14.81 58.658 0.487 7.95 21.41 8.57
11/7/2022 8:15:00 PM 14.73 58.514 0.487 7.95 21.54 8.76
11/7/2022 8:30:00 PM 14.65 58.37 0.488 7.94 21.41 8.77
11/7/2022 8:45:00 PM 14.58 58.244 0.488 7.93 21.35 8.78
11/7/2022 9:00:00 PM 14.49 58.082 0.488 7.93 21.48 8.72
11/7/2022 9:15:00 PM 14.4 57.92 0.489 7.92 21.29 8.76
11/7/2022 9:30:00 PM 14.3 57.74 0.489 7.91 21.29 8.78
11/7/2022 9:45:00 PM 14.2 57.56 0.49 7.9 21.28 8.76
11/7/2022 10:00:00 PM 14.09 57.362 0.491 7.9 21.42 8.81
11/7/2022 10:15:00 PM 13.96 57.128 0.49 7.91 21.27 8.85
11/7/2022 10:30:00 PM 13.85 56.93 0.491 7.89 21.31 8.82
11/7/2022 10:45:00 PM 13.73 56.714 0.492 7.9 21.22 8.84
11/7/2022 11:00:00 PM 13.62 56.516 0.492 7.89 21.23 8.79
11/7/2022 11:15:00 PM 13.5 56.3 0.492 7.89 21.39 8.94
11/7/2022 11:30:00 PM 13.39 56.102 0.492 7.88 21.33 9.02
11/7/2022 11:45:00 PM 13.29 55.922 0.493 7.88 21.25 9.08
11/8/2022 12:00:00 AM 13.17 55.706 0.493 7.88 21.38 9.06
11/8/2022 12:15:00 AM 13.05 55.49 0.493 7.88 21.41 9.15
11/8/2022 12:30:00 AM 12.94 55.292 0.494 7.88 21.32 9.12
11/8/2022 12:45:00 AM 12.82 55.076 0.494 7.87 21.23 9.2
11/8/2022 1:00:00 AM 12.7 54.86 0.495 7.87 21.19 9.32
11/8/2022 1:15:00 AM 12.57 54.626 0.495 7.87 21.42 9.3
11/8/2022 1:30:00 AM 12.44 54.392 0.496 7.86 22.5 9.31
11/8/2022 1:45:00 AM 12.33 54.194 0.495 7.86 21.44 9.38
11/8/2022 2:00:00 AM 12.21 53.978 0.496 7.86 22.71 9.44
11/8/2022 2:15:00 AM 12.08 53.744 0.496 7.86 22.67 9.46
11/8/2022 2:30:00 AM 11.97 53.546 0.497 7.87 21.95 9.55
11/8/2022 2:45:00 AM 11.85 53.33 0.498 7.84 22.96 9.55
11/8/2022 3:00:00 AM 11.75 53.15 0.497 7.86 21.9 9.57
11/8/2022 3:15:00 AM 11.64 52.952 0.498 7.86 21.71 9.66
11/8/2022 3:30:00 AM 11.53 52.754 0.498 7.86 21.7 9.68
11/8/2022 3:45:00 AM 11.43 52.574 0.498 7.86 21.39 9.68
11/8/2022 4:00:00 AM 11.33 52.394 0.498 7.87 21.51 9.76
11/8/2022 4:15:00 AM 11.24 52.232 0.498 7.86 21.47 9.77
11/8/2022 4:30:00 AM 11.14 52.052 0.499 7.86 21.76 9.62
11/8/2022 4:45:00 AM 11.05 51.89 0.499 7.85 21.46 9.82
11/8/2022 5:00:00 AM 10.95 51.71 0.499 7.85 21.85 9.84
11/8/2022 5:15:00 AM 10.87 51.566 0.499 7.85 21.6 9.84
11/8/2022 5:30:00 AM 10.77 51.386 0.499 7.84 21.58 9.9
11/8/2022 5:45:00 AM 10.68 51.224 0.5 7.84 21.6 9.99
11/8/2022 6:00:00 AM 10.59 51.062 0.499 7.86 22.87 10.02
11/8/2022 6:15:00 AM 10.49 50.882 0.5 7.85 21.52 10.03
11/8/2022 6:30:00 AM 10.39 50.702 0.499 7.84 21.56 10.06
11/8/2022 6:45:00 AM 10.3 50.54 0.499 7.86 22.73 10.19
11/8/2022 7:00:00 AM 10.22 50.396 0.5 7.87 21.62 10.18
11/8/2022 7:15:00 AM 10.13 50.234 0.5 7.85 23.17 10.25
11/8/2022 7:30:00 AM 10.05 50.09 0.5 7.86 22.99 10.37
11/8/2022 7:45:00 AM 9.98 49.964 0.5 7.88 21.63 10.48
11/8/2022 8:00:00 AM 9.92 49.856 0.501 7.88 21.62 10.6
11/8/2022 8:15:00 AM 9.87 49.766 0.5 7.89 21.57 10.73
11/8/2022 8:30:00 AM 9.84 49.712 0.5 7.9 21.72 10.9
11/8/2022 8:45:00 AM 9.82 49.676 0.5 7.92 21.43 10.99
11/8/2022 9:00:00 AM 9.79 49.622 0.5 7.93 21.03 11.13
11/8/2022 9:15:00 AM 9.8 49.64 0.5 7.97 21.6 11.14
11/8/2022 9:30:00 AM 9.83 49.694 0.499 7.99 21.3 11.36
11/8/2022 9:45:00 AM 9.87 49.766 0.499 8.02 21.26 11.6
11/8/2022 10:00:00 AM 9.92 49.856 0.499 8.05 21.24 11.77
11/8/2022 10:15:00 AM 10.02 50.036 0.498 8.07 41.7 12.03
11/8/2022 10:30:00 AM 10.13 50.234 0.498 8.1 21.31 12.17
11/8/2022 10:45:00 AM 10.25 50.45 0.497 8.13 21.29 12.29
11/8/2022 11:00:00 AM 10.36 50.648 0.497 8.15 21.03 12.49
11/8/2022 11:15:00 AM 10.45 50.81 0.496 8.18 21.02 12.51
11/8/2022 11:30:00 AM 10.55 50.99 0.496 8.2 21.11 12.55
11/8/2022 11:45:00 AM 10.67 51.206 0.495 8.22 21.45 12.88
11/8/2022 12:00:00 PM 10.8 51.44 0.495 8.25 21.19 12.98
11/8/2022 12:15:00 PM 10.92 51.656 0.494 8.28 21.12 12.98
11/8/2022 12:30:00 PM 11.03 51.854 0.493 8.3 21.33 12.99
11/8/2022 12:45:00 PM 11.18 52.124 0.493 8.32 20.88 13.11
11/8/2022 1:00:00 PM 11.33 52.394 0.492 8.33 20.91 13.1
11/8/2022 1:15:00 PM 11.43 52.574 0.492 8.36 20.82 13.13
11/8/2022 1:30:00 PM 11.53 52.754 0.492 8.37 20.93 13.08
11/8/2022 1:45:00 PM 11.64 52.952 0.491 8.37 20.8 13.09
11/8/2022 2:00:00 PM 11.67 53.006 0.491 8.39 20.77 13.01
11/8/2022 2:15:00 PM 11.71 53.078 0.491 8.4 20.91 12.95
11/8/2022 2:30:00 PM 11.77 53.186 0.49 8.39 20.85 12.74
11/8/2022 2:45:00 PM 11.85 53.33 0.49 8.39 21.12 12.71
11/8/2022 3:00:00 PM 11.89 53.402 0.489 8.4 20.79 12.6
11/8/2022 3:15:00 PM 11.92 53.456 0.489 8.4 20.8 12.42
11/8/2022 3:30:00 PM 11.93 53.474 0.489 8.4 20.82 12.31
11/8/2022 3:45:00 PM 11.94 53.492 0.489 8.38 20.75 11.99
11/8/2022 4:00:00 PM 11.94 53.492 0.489 8.38 20.64 11.91
11/8/2022 4:15:00 PM 11.93 53.474 0.489 8.36 20.75 11.58
11/8/2022 4:30:00 PM 11.9 53.42 0.49 8.35 20.66 11.57
11/8/2022 4:45:00 PM 11.85 53.33 0.49 8.33 20.7 11.45
11/8/2022 5:00:00 PM 11.78 53.204 0.491 8.31 20.71 11.24
11/8/2022 5:15:00 PM 11.7 53.06 0.492 8.28 31.78 11.09
11/8/2022 5:30:00 PM 11.62 52.916 0.492 8.27 21.51 10.92
11/8/2022 5:45:00 PM 11.53 52.754 0.493 8.23 21.72 10.78
11/8/2022 6:00:00 PM 11.43 52.574 0.494 8.21 21.74 10.6
11/8/2022 6:15:00 PM 11.35 52.43 0.494 8.18 21.7 10.52
11/8/2022 6:30:00 PM 11.27 52.286 0.495 8.18 21.85 10.44
11/8/2022 6:45:00 PM 11.2 52.16 0.496 8.14 21.58 10.36
11/8/2022 7:00:00 PM 11.13 52.034 0.496 8.12 21.63 10.24
11/8/2022 7:15:00 PM 11.06 51.908 0.496 8.1 21.78 10.19
11/8/2022 7:30:00 PM 11.01 51.818 0.496 8.08 21.51 10.13
11/8/2022 7:45:00 PM 10.95 51.71 0.497 8.06 21.57 10.13
11/8/2022 8:00:00 PM 10.91 51.638 0.497 8.06 21.64 10.1
11/8/2022 8:15:00 PM 10.86 51.548 0.497 8.04 21.58 10.04
11/8/2022 8:30:00 PM 10.81 51.458 0.497 8.03 21.5 10.05
11/8/2022 8:45:00 PM 10.76 51.368 0.498 8.03 21.58 10.04
11/8/2022 9:00:00 PM 10.71 51.278 0.498 8.01 21.68 10
11/8/2022 9:15:00 PM 10.64 51.152 0.498 8.01 21.59 10.01
11/8/2022 9:30:00 PM 10.58 51.044 0.498 8 21.6 10.02
11/8/2022 9:45:00 PM 10.51 50.918 0.499 8 21.64 10.03
11/8/2022 10:00:00 PM 10.44 50.792 0.499 7.99 21.5 10.03
11/8/2022 10:15:00 PM 10.36 50.648 0.499 7.98 21.82 10.04
11/8/2022 10:30:00 PM 10.28 50.504 0.499 7.98 21.68 10.02
11/8/2022 10:45:00 PM 10.19 50.342 0.5 7.97 21.71 10.07
11/8/2022 11:00:00 PM 10.11 50.198 0.5 7.96 21.97 10.09
11/8/2022 11:15:00 PM 10.02 50.036 0.5 7.96 21.92 10.11
11/8/2022 11:30:00 PM 9.94 49.892 0.501 7.95 21.85 10.16
11/8/2022 11:45:00 PM 9.85 49.73 0.501 7.94 23.39 10.13
11/9/2022 12:00:00 AM 9.76 49.568 0.501 7.93 26.94 10.13
11/9/2022 12:15:00 AM 9.67 49.406 0.501 7.93 22.59 10.24
11/9/2022 12:30:00 AM 9.58 49.244 0.502 7.94 22 10.27
11/9/2022 12:45:00 AM 9.48 49.064 0.503 7.94 21.89 10.26
11/9/2022 1:00:00 AM 9.39 48.902 0.503 7.92 21.88 10.32
11/9/2022 1:15:00 AM 9.29 48.722 0.503 7.91 21.99 10.31
11/9/2022 1:30:00 AM 9.2 48.56 0.504 7.91 22.06 10.4
11/9/2022 1:45:00 AM 9.1 48.38 0.505 7.9 22.07 10.42
11/9/2022 2:00:00 AM 9 48.2 0.505 7.9 21.94 10.47
11/9/2022 2:15:00 AM 8.91 48.038 0.506 7.9 21.88 10.52
11/9/2022 2:30:00 AM 8.81 47.858 0.506 7.89 21.7 10.53
11/9/2022 2:45:00 AM 8.73 47.714 0.506 7.89 22.88 10.57
11/9/2022 3:00:00 AM 8.63 47.534 0.506 7.9 22.35 10.59
11/9/2022 3:15:00 AM 8.55 47.39 0.506 7.89 22.79 10.67
11/9/2022 3:30:00 AM 8.47 47.246 0.506 7.88 22.13 10.69
11/9/2022 3:45:00 AM 8.38 47.084 0.506 7.88 21.88 10.73
11/9/2022 4:00:00 AM 8.3 46.94 0.506 7.89 22.05 10.72
11/9/2022 4:15:00 AM 8.21 46.778 0.507 7.88 21.88 10.78
11/9/2022 4:30:00 AM 8.13 46.634 0.507 7.88 21.94 10.76
11/9/2022 4:45:00 AM 8.05 46.49 0.507 7.87 23.8 10.82
11/9/2022 5:00:00 AM 7.97 46.346 0.508 7.88 21.79 10.87
11/9/2022 5:15:00 AM 7.9 46.22 0.507 7.87 21.91 10.9
11/9/2022 5:30:00 AM 7.82 46.076 0.508 7.88 21.6 10.92
11/9/2022 5:45:00 AM 7.74 45.932 0.507 7.88 22.02 10.94
11/9/2022 6:00:00 AM 7.68 45.824 0.507 7.88 21.64 10.94
11/9/2022 6:15:00 AM 7.6 45.68 0.508 7.88 21.81 10.93
11/9/2022 6:30:00 AM 7.54 45.572 0.507 7.88 21.84 10.98
11/9/2022 6:45:00 AM 7.48 45.464 0.508 7.88 21.75 11
11/9/2022 7:00:00 AM 7.42 45.356 0.508 7.89 21.74 11.04
11/9/2022 7:15:00 AM 7.36 45.248 0.508 7.91 21.73 11.15
11/9/2022 7:30:00 AM 7.31 45.158 0.508 7.9 21.88 11.26
11/9/2022 7:45:00 AM 7.27 45.086 0.508 7.91 21.58 11.31
11/9/2022 8:00:00 AM 7.22 44.996 0.508 7.93 22.03 11.41
11/9/2022 8:15:00 AM 7.19 44.942 0.507 7.93 21.78 11.51
11/9/2022 8:30:00 AM 7.17 44.906 0.508 7.94 22.28 11.59
11/9/2022 8:45:00 AM 7.15 44.87 0.508 7.95 21.94 11.75
11/9/2022 9:00:00 AM 7.17 44.906 0.507 7.97 21.97 11.89
11/9/2022 9:15:00 AM 7.2 44.96 0.507 7.99 22.9 12.02
11/9/2022 9:30:00 AM 7.27 45.086 0.506 8.01 21.81 12.19
11/9/2022 9:45:00 AM 7.36 45.248 0.507 8.03 21.79 12.33
11/9/2022 10:00:00 AM 7.46 45.428 0.506 8.07 21.81 12.57
11/9/2022 10:15:00 AM 7.58 45.644 0.505 8.1 21.57 12.75
11/9/2022 10:30:00 AM 7.73 45.914 0.505 8.12 21.42 12.91
11/9/2022 10:45:00 AM 7.87 46.166 0.504 8.14 21.48 13.01
11/9/2022 11:00:00 AM 8.03 46.454 0.503 8.16 21.34 13.19
11/9/2022 11:15:00 AM 8.15 46.67 0.503 8.18 21.34 13.3
11/9/2022 11:30:00 AM 8.31 46.958 0.501 8.21 66.06 13.37
11/9/2022 11:45:00 AM 8.46 47.228 0.501 8.23 24.12 13.48
11/9/2022 12:00:00 PM 8.62 47.516 0.5 8.27 22.36 13.59
11/9/2022 12:15:00 PM 8.77 47.786 0.499 8.27 23.62 13.63
11/9/2022 12:30:00 PM 8.94 48.092 0.498 8.29 22.33 13.68
11/9/2022 12:45:00 PM 9.09 48.362 0.498 8.33 22.02 13.76
11/9/2022 1:00:00 PM 9.26 48.668 0.497 8.34 22.07 13.78
11/9/2022 1:15:00 PM 9.41 48.938 0.497 8.35 23.67 13.8
11/9/2022 1:30:00 PM 9.53 49.154 0.496 8.36 22.1 13.71
11/9/2022 1:45:00 PM 9.65 49.37 0.495 8.37 22.26 13.7
11/9/2022 2:00:00 PM 9.73 49.514 0.494 8.39 22.16 13.72
11/9/2022 2:15:00 PM 9.8 49.64 0.495 8.39 21.78 13.56
11/9/2022 2:30:00 PM 9.9 49.82 0.494 8.4 21.8 13.52
11/9/2022 2:45:00 PM 9.99 49.982 0.493 8.4 21.92 13.35
11/9/2022 3:00:00 PM 10.05 50.09 0.493 8.43 21.79 13.29
11/9/2022 3:15:00 PM 10.11 50.198 0.493 8.43 22.01 13.18
11/9/2022 3:30:00 PM 10.15 50.27 0.492 8.42 23.02 12.99
11/9/2022 3:45:00 PM 10.2 50.36 0.492 8.38 22 12.88
11/9/2022 4:00:00 PM 10.23 50.414 0.492 8.41 21.8 12.77
11/9/2022 4:15:00 PM 10.25 50.45 0.492 8.39 21.83 12.61
11/9/2022 4:30:00 PM 10.25 50.45 0.492 8.4 21.68 12.42
11/9/2022 4:45:00 PM 10.23 50.414 0.493 8.37 21.73 12.17
11/9/2022 5:00:00 PM 10.19 50.342 0.493 8.37 21.79 11.96
11/9/2022 5:15:00 PM 10.14 50.252 0.493 8.33 22.01 11.78
11/9/2022 5:30:00 PM 10.08 50.144 0.494 8.3 23.53 11.6
11/9/2022 5:45:00 PM 10.03 50.054 0.495 8.28 21.93 11.42
11/9/2022 6:00:00 PM 9.97 49.946 0.496 8.25 21.81 11.26
11/9/2022 6:15:00 PM 9.92 49.856 0.495 8.23 21.84 11.14
11/9/2022 6:30:00 PM 9.88 49.784 0.497 8.2 21.86 10.99
11/9/2022 6:45:00 PM 9.83 49.694 0.496 8.2 23.34 10.92
11/9/2022 7:00:00 PM 9.8 49.64 0.497 8.17 22.17 10.84
11/9/2022 7:15:00 PM 9.77 49.586 0.498 8.15 21.98 10.75
11/9/2022 7:30:00 PM 9.75 49.55 0.498 8.13 22.01 10.66
11/9/2022 7:45:00 PM 9.73 49.514 0.498 8.13 22.09 10.61
11/9/2022 8:00:00 PM 9.71 49.478 0.499 8.11 22.03 10.54
11/9/2022 8:15:00 PM 9.69 49.442 0.499 8.1 22.03 10.45
11/9/2022 8:30:00 PM 9.69 49.442 0.499 8.08 22.04 10.41
11/9/2022 8:45:00 PM 9.66 49.388 0.499 8.07 22.08 10.25
11/9/2022 9:00:00 PM 9.64 49.352 0.499 8.06 22.12 10.37
11/9/2022 9:15:00 PM 9.61 49.298 0.5 8.06 22 10.16
11/9/2022 9:30:00 PM 9.58 49.244 0.5 8.04 22.03 10.31
11/9/2022 9:45:00 PM 9.53 49.154 0.5 8.03 21.91 10.3
11/9/2022 10:00:00 PM 9.49 49.082 0.501 8.03 21.98 10.25
11/9/2022 10:15:00 PM 9.45 49.01 0.501 8.01 23.68 10.06
11/9/2022 10:30:00 PM 9.4 48.92 0.501 8.01 22.16 10.3
11/9/2022 10:45:00 PM 9.35 48.83 0.502 8 21.97 9.93
11/9/2022 11:00:00 PM 9.29 48.722 0.502 7.99 21.95 10.22
11/9/2022 11:15:00 PM 9.24 48.632 0.502 7.99 22.05 10.3
11/9/2022 11:30:00 PM 9.18 48.524 0.503 7.99 22.16 10.31
11/9/2022 11:45:00 PM 9.13 48.434 0.503 7.98 21.92 10.28
11/10/2022 12:00:00 AM 9.06 48.308 0.503 7.98 22.05 10.08
11/10/2022 12:15:00 AM 9 48.2 0.503 7.97 23.61 10.45
11/10/2022 12:30:00 AM 8.94 48.092 0.504 7.96 21.37 10.31
11/10/2022 12:45:00 AM 8.87 47.966 0.504 7.96 21.36 10.39
11/10/2022 1:00:00 AM 8.8 47.84 0.505 7.95 21.3 10.5
11/10/2022 1:15:00 AM 8.73 47.714 0.505 7.95 21.15 10.58
11/10/2022 1:30:00 AM 8.67 47.606 0.505 7.94 21.48 10.35
11/10/2022 1:45:00 AM 8.6 47.48 0.506 7.94 20.96 10.3
11/10/2022 2:00:00 AM 8.53 47.354 0.506 7.94 21.05 10.62
11/10/2022 2:15:00 AM 8.46 47.228 0.506 7.94 20.97 10.63
11/10/2022 2:30:00 AM 8.4 47.12 0.506 7.94 20.93 10.66
11/10/2022 2:45:00 AM 8.33 46.994 0.508 7.93 21.03 10.43
11/10/2022 3:00:00 AM 8.27 46.886 0.507 7.93 20.89 10.54
11/10/2022 3:15:00 AM 8.21 46.778 0.508 7.92 20.87 10.76
11/10/2022 3:30:00 AM 8.15 46.67 0.508 7.92 20.91 10.68
11/10/2022 3:45:00 AM 8.09 46.562 0.508 7.92 21.01 10.69
11/10/2022 4:00:00 AM 8.03 46.454 0.508 7.93 20.91 10.66
11/10/2022 4:15:00 AM 7.98 46.364 0.508 7.91 20.97 10.83
11/10/2022 4:30:00 AM 7.92 46.256 0.508 7.92 20.8 10.83
11/10/2022 4:45:00 AM 7.87 46.166 0.508 7.92 20.94 10.73
11/10/2022 5:00:00 AM 7.82 46.076 0.508 7.9 20.68 10.84
11/10/2022 5:15:00 AM 7.77 45.986 0.508 7.91 20.89 10.77
11/10/2022 5:30:00 AM 7.72 45.896 0.508 7.92 21.11 10.85
11/10/2022 5:45:00 AM 7.67 45.806 0.508 7.92 20.81 10.85
11/10/2022 6:00:00 AM 7.62 45.716 0.509 7.92 20.97 10.95
11/10/2022 6:15:00 AM 7.58 45.644 0.509 7.91 20.79 10.93
11/10/2022 6:30:00 AM 7.52 45.536 0.509 7.91 23.19 10.95
11/10/2022 6:45:00 AM 7.49 45.482 0.509 7.92 21.74 11.03
11/10/2022 7:00:00 AM 7.44 45.392 0.509 7.92 22.54 11.05
11/10/2022 7:15:00 AM 7.41 45.338 0.509 7.92 21.23 11.13
11/10/2022 7:30:00 AM 7.38 45.284 0.508 7.93 21.21 10.93
11/10/2022 7:45:00 AM 7.35 45.23 0.508 7.94 20.98 11.25
11/10/2022 8:00:00 AM 7.33 45.194